Darstellungsparameter: Aktuell verwendete Einstellungen:
Skalierung der Graphiken ... ?
xyx+y,   Skalierungsfaktor:      Skalierung: Modus: x, Faktor: 1
Darstellungszeitraum ... ?
Vom - - bis: - -   Zeitraum: 11.08.2014 - 17.08.2014
Min/Max/Avg-Anzeige ... ?
Zeige MMA aktuell
Zeige MMA Monat
Zeige MMA alles
Zeige --A aktuell
Zeige --A Monat
Zeige --A alles
Keine MMA-Anzeige
MMA:
Keine MMA-Graphiken
MMA-Basis: 11.08.2014 - 17.08.2014
Quicknavigation für Darstellung... ?
Tage:      1T, 2T, 3T, 5T -1T -2T -3T -5T +1T +2T +3T +5T
Wochen: 1W, 2W, 3W -1W -2W -3W +1W +2W +3W
Monate: 1M, 3M, 6M -1M -3M -6M +1M +3M +6M
Jahre:    1J, 3J, 5J, 10J -1J -3J -5J -10J +1J +3J +5J +10J
Nutze für die Darstellung ... ?
Originaldaten oder Mittelwerte auf ...
Stundenbasis Tagesbasis Wochenbasis
Monatsbasis Jahresbasis      Datenbasis: Original-Daten
Darstellen als:
Statistik (Auto) Statistik J:M      Darstellung:
Zur Graphik,    zurück zur Übersicht aller Sensoren.
 
Tabellarische Datenbersicht: ?
 
Sensor: Nr:Datum:Temp:Abs-Feuchte:Windchill:Wind:
Aussen-T/F 1 11-08-2014 00:00:00 17.7 C 14.33 g/m*3 17.7 C 3.2 km/h
2 11-08-2014 00:05:00 17.7 C 14.33 g/m*3 17.7 C 1.6 km/h
3 11-08-2014 00:10:00 17.7 C 14.33 g/m*3 17.7 C 1.6 km/h
4 11-08-2014 00:15:00 17.6 C 14.25 g/m*3 17.6 C 1.6 km/h
5 11-08-2014 00:20:00 17.5 C 14.16 g/m*3 17.5 C 3.2 km/h
6 11-08-2014 00:25:00 17.5 C 14.01 g/m*3 17.5 C 8.1 km/h
7 11-08-2014 00:30:00 17.6 C 14.1 g/m*3 17.6 C 4.8 km/h
8 11-08-2014 00:35:00 17.6 C 13.95 g/m*3 17.6 C 6.4 km/h
9 11-08-2014 00:40:00 17.6 C 13.95 g/m*3 17.6 C 0 km/h
10 11-08-2014 00:45:00 17.3 C 13.7 g/m*3 17.3 C 1.6 km/h
11 11-08-2014 00:50:00 17.2 C 13.77 g/m*3 17.2 C 3.2 km/h
12 11-08-2014 00:55:00 17.1 C 13.83 g/m*3 17.1 C 3.2 km/h
13 11-08-2014 01:00:00 17 C 13.6 g/m*3 17 C 6.4 km/h
14 11-08-2014 01:05:00 16.8 C 13.3 g/m*3 16.8 C 3.2 km/h
15 11-08-2014 01:10:00 16.8 C 13.15 g/m*3 16.8 C 0 km/h
16 11-08-2014 01:15:00 16.6 C 13.14 g/m*3 16.6 C 1.6 km/h
17 11-08-2014 01:20:00 16.4 C 13.12 g/m*3 16.4 C 1.6 km/h
18 11-08-2014 01:25:00 16.2 C 12.96 g/m*3 16.2 C 1.6 km/h
19 11-08-2014 01:30:00 16 C 12.94 g/m*3 16 C 1.6 km/h
20 11-08-2014 01:35:00 15.9 C 12.87 g/m*3 15.9 C 3.2 km/h
21 11-08-2014 01:40:00 15.9 C 12.87 g/m*3 15.9 C 3.2 km/h
22 11-08-2014 01:45:00 16 C 12.94 g/m*3 16 C 4.8 km/h
23 11-08-2014 01:50:00 16.1 C 12.75 g/m*3 16.1 C 3.2 km/h
24 11-08-2014 01:55:00 16.1 C 12.61 g/m*3 16.1 C 3.2 km/h
25 11-08-2014 02:00:00 16 C 12.4 g/m*3 16 C 3.2 km/h
Sensor: Nr:Datum:Temp:Abs-Feuchte:Windchill:Wind:
Aussen-T/F 26 11-08-2014 02:05:00 15.9 C 12.19 g/m*3 15.9 C 4.8 km/h
27 11-08-2014 02:10:00 15.8 C 12.11 g/m*3 15.8 C 3.2 km/h
28 11-08-2014 02:15:00 15.7 C 12.18 g/m*3 15.7 C 3.2 km/h
29 11-08-2014 02:20:00 15.6 C 12.1 g/m*3 15.6 C 3.2 km/h
30 11-08-2014 02:25:00 15.4 C 11.96 g/m*3 15.4 C 3.2 km/h
31 11-08-2014 02:30:00 15.2 C 11.81 g/m*3 15.2 C 3.2 km/h
32 11-08-2014 02:35:00 15.2 C 11.68 g/m*3 15.2 C 3.2 km/h
33 11-08-2014 02:40:00 15.2 C 11.81 g/m*3 15.2 C 3.2 km/h
34 11-08-2014 02:45:00 15.2 C 11.81 g/m*3 15.2 C 1.6 km/h
35 11-08-2014 02:50:00 14.9 C 11.73 g/m*3 14.9 C 1.6 km/h
36 11-08-2014 02:55:00 14.8 C 11.78 g/m*3 14.8 C 1.6 km/h
37 11-08-2014 03:00:00 14.7 C 11.71 g/m*3 14.7 C 1.6 km/h
38 11-08-2014 03:05:00 14.5 C 11.69 g/m*3 14.5 C 0 km/h
39 11-08-2014 03:10:00 14.4 C 11.62 g/m*3 14.4 C 0 km/h
40 11-08-2014 03:15:00 14.3 C 11.55 g/m*3 14.3 C 0 km/h
41 11-08-2014 03:20:00 14.1 C 11.41 g/m*3 14.1 C 0 km/h
42 11-08-2014 03:25:00 14.1 C 11.53 g/m*3 14.1 C 0 km/h
43 11-08-2014 03:30:00 13.9 C 11.39 g/m*3 13.9 C 1.6 km/h
44 11-08-2014 03:35:00 13.9 C 11.39 g/m*3 13.9 C 0 km/h
45 11-08-2014 03:40:00 13.8 C 11.32 g/m*3 13.8 C 1.6 km/h
46 11-08-2014 03:45:00 13.7 C 11.25 g/m*3 13.7 C 0 km/h
47 11-08-2014 03:50:00 13.7 C 11.25 g/m*3 13.7 C 0 km/h
48 11-08-2014 03:55:00 13.6 C 11.3 g/m*3 13.6 C 1.6 km/h
49 11-08-2014 04:00:00 13.6 C 11.18 g/m*3 13.6 C 1.6 km/h
50 11-08-2014 04:05:00 13.5 C 11.11 g/m*3 13.5 C 0 km/h
Sensor: Nr:Datum:Temp:Abs-Feuchte:Windchill:Wind:
Aussen-T/F 51 11-08-2014 04:10:00 13.5 C 11.23 g/m*3 13.5 C 1.6 km/h
52 11-08-2014 04:15:00 13.5 C 11.11 g/m*3 13.5 C 0 km/h
53 11-08-2014 04:20:00 13.4 C 11.04 g/m*3 13.4 C 0 km/h
54 11-08-2014 04:25:00 13.3 C 10.98 g/m*3 13.3 C 0 km/h
55 11-08-2014 04:30:00 13.4 C 11.04 g/m*3 13.4 C 0 km/h
56 11-08-2014 04:35:00 13.3 C 10.98 g/m*3 13.3 C 0 km/h
57 11-08-2014 04:40:00 13.3 C 10.98 g/m*3 13.3 C 0 km/h
58 11-08-2014 04:45:00 13.2 C 10.91 g/m*3 13.2 C 1.6 km/h
59 11-08-2014 04:50:00 13.2 C 10.91 g/m*3 13.2 C 0 km/h
60 11-08-2014 04:55:00 13.2 C 10.91 g/m*3 13.2 C 0 km/h
61 11-08-2014 05:00:00 13.2 C 10.91 g/m*3 13.2 C 1.6 km/h
62 11-08-2014 05:05:00 13.1 C 10.84 g/m*3 13.1 C 1.6 km/h
63 11-08-2014 05:10:00 13.1 C 10.84 g/m*3 13.1 C 1.6 km/h
64 11-08-2014 05:15:00 13.1 C 10.84 g/m*3 13.1 C 0 km/h
65 11-08-2014 05:20:00 13.1 C 10.84 g/m*3 13.1 C 1.6 km/h
66 11-08-2014 05:25:00 13.2 C 10.79 g/m*3 13.2 C 1.6 km/h
67 11-08-2014 05:30:00 13.2 C 10.79 g/m*3 13.2 C 0 km/h
68 11-08-2014 05:35:00 13.2 C 10.79 g/m*3 13.2 C 1.6 km/h
69 11-08-2014 05:40:00 13.2 C 10.79 g/m*3 13.2 C 0 km/h
70 11-08-2014 05:45:00 13.1 C 10.73 g/m*3 13.1 C 1.6 km/h
71 11-08-2014 05:50:00 13.1 C 10.73 g/m*3 13.1 C 0 km/h
72 11-08-2014 05:55:00 13.1 C 10.73 g/m*3 13.1 C 1.6 km/h
73 11-08-2014 06:00:00 13.1 C 10.73 g/m*3 13.1 C 1.6 km/h
74 11-08-2014 06:05:00 13 C 10.66 g/m*3 13 C 0 km/h
75 11-08-2014 06:10:00 12.9 C 10.59 g/m*3 12.9 C 0 km/h
Sensor: Nr:Datum:Temp:Abs-Feuchte:Windchill:Wind:
Aussen-T/F 76 11-08-2014 06:15:00 12.9 C 10.59 g/m*3 12.9 C 0 km/h
77 11-08-2014 06:20:00 12.9 C 10.71 g/m*3 12.9 C 0 km/h
78 11-08-2014 06:25:00 12.8 C 10.64 g/m*3 12.8 C 0 km/h
79 11-08-2014 06:30:00 12.8 C 10.53 g/m*3 12.8 C 1.6 km/h
80 11-08-2014 06:35:00 12.8 C 10.64 g/m*3 12.8 C 1.6 km/h
81 11-08-2014 06:40:00 12.8 C 10.64 g/m*3 12.8 C 0 km/h
82 11-08-2014 06:45:00 12.8 C 10.64 g/m*3 12.8 C 0 km/h
83 11-08-2014 06:50:00 12.8 C 10.64 g/m*3 12.8 C 0 km/h
84 11-08-2014 06:55:00 12.8 C 10.64 g/m*3 12.8 C 0 km/h
85 11-08-2014 07:00:00 12.8 C 10.64 g/m*3 12.8 C 0 km/h
86 11-08-2014 07:05:00 12.9 C 10.71 g/m*3 12.9 C 0 km/h
87 11-08-2014 07:10:00 12.9 C 10.71 g/m*3 12.9 C 1.6 km/h
88 11-08-2014 07:15:00 12.9 C 10.71 g/m*3 12.9 C 0 km/h
89 11-08-2014 07:20:00 13 C 10.77 g/m*3 13 C 0 km/h
90 11-08-2014 07:25:00 13.1 C 10.84 g/m*3 13.1 C 0 km/h
91 11-08-2014 07:30:00 13.2 C 10.91 g/m*3 13.2 C 1.6 km/h
92 11-08-2014 07:35:00 13.2 C 10.91 g/m*3 13.2 C 0 km/h
93 11-08-2014 07:40:00 13.2 C 10.91 g/m*3 13.2 C 0 km/h
94 11-08-2014 07:45:00 13.3 C 10.98 g/m*3 13.3 C 1.6 km/h
95 11-08-2014 07:50:00 13.4 C 10.93 g/m*3 13.4 C 1.6 km/h
96 11-08-2014 07:55:00 13.4 C 10.93 g/m*3 13.4 C 1.6 km/h
97 11-08-2014 08:00:00 13.6 C 11.06 g/m*3 13.6 C 1.6 km/h
98 11-08-2014 08:05:00 13.6 C 11.06 g/m*3 13.6 C 0 km/h
99 11-08-2014 08:10:00 13.7 C 11.13 g/m*3 13.7 C 0 km/h
100 11-08-2014 08:15:00 13.7 C 11.13 g/m*3 13.7 C 0 km/h
Sensor: Nr:Datum:Temp:Abs-Feuchte:Windchill:Wind:
Aussen-T/F 101 11-08-2014 08:20:00 13.7 C 11.13 g/m*3 13.7 C 0 km/h
102 11-08-2014 08:25:00 13.7 C 11.13 g/m*3 13.7 C 1.6 km/h
103 11-08-2014 08:30:00 13.8 C 11.2 g/m*3 13.8 C 3.2 km/h
104 11-08-2014 08:35:00 13.8 C 11.2 g/m*3 13.8 C 1.6 km/h
105 11-08-2014 08:40:00 13.8 C 11.08 g/m*3 13.8 C 8.1 km/h
106 11-08-2014 08:45:00 14 C 11.1 g/m*3 14 C 8.1 km/h
107 11-08-2014 08:50:00 14.3 C 11.06 g/m*3 14.3 C 6.4 km/h
108 11-08-2014 08:55:00 14.7 C 11.08 g/m*3 14.7 C 11.3 km/h
109 11-08-2014 09:00:00 14.9 C 11.09 g/m*3 14.9 C 11.3 km/h
110 11-08-2014 09:05:00 15.2 C 11.16 g/m*3 15.2 C 12.9 km/h
111 11-08-2014 09:10:00 15.2 C 11.03 g/m*3 15.2 C 14.5 km/h
112 11-08-2014 09:15:00 15.3 C 11.1 g/m*3 15.3 C 14.5 km/h
113 11-08-2014 09:20:00 15.3 C 11.1 g/m*3 15.3 C 14.5 km/h
114 11-08-2014 09:25:00 15.4 C 11.04 g/m*3 15.4 C 17.7 km/h
115 11-08-2014 09:30:00 15.4 C 11.04 g/m*3 15.4 C 9.7 km/h
116 11-08-2014 09:35:00 15.5 C 11.1 g/m*3 15.5 C 9.7 km/h
117 11-08-2014 09:40:00 15.6 C 11.17 g/m*3 15.6 C 8.1 km/h
118 11-08-2014 09:45:00 15.7 C 11.24 g/m*3 15.7 C 14.5 km/h
119 11-08-2014 09:50:00 15.8 C 11.17 g/m*3 15.8 C 14.5 km/h
120 11-08-2014 09:55:00 15.9 C 11.38 g/m*3 15.9 C 11.3 km/h
121 11-08-2014 10:00:00 16 C 11.31 g/m*3 16 C 11.3 km/h
122 11-08-2014 10:05:00 16.1 C 11.24 g/m*3 16.1 C 16.1 km/h
123 11-08-2014 10:10:00 16.2 C 11.45 g/m*3 16.2 C 12.9 km/h
124 11-08-2014 10:15:00 16.3 C 11.38 g/m*3 16.3 C 9.7 km/h
125 11-08-2014 10:20:00 16.3 C 11.1 g/m*3 16.3 C 16.1 km/h
Sensor: Nr:Datum:Temp:Abs-Feuchte:Windchill:Wind:
Aussen-T/F 126 11-08-2014 10:25:00 16.4 C 11.31 g/m*3 16.4 C 12.9 km/h
127 11-08-2014 10:30:00 16.5 C 11.23 g/m*3 16.5 C 8.1 km/h
128 11-08-2014 10:35:00 16.6 C 11.44 g/m*3 16.6 C 11.3 km/h
129 11-08-2014 10:40:00 16.8 C 11.29 g/m*3 16.8 C 11.3 km/h
130 11-08-2014 10:45:00 16.9 C 11.08 g/m*3 16.9 C 12.9 km/h
131 11-08-2014 10:50:00 16.9 C 11.08 g/m*3 16.9 C 11.3 km/h
132 11-08-2014 10:55:00 17.1 C 11.06 g/m*3 17.1 C 16.1 km/h
133 11-08-2014 11:00:00 17.3 C 11.49 g/m*3 17.3 C 11.3 km/h
134 11-08-2014 11:05:00 17.4 C 11.71 g/m*3 17.4 C 6.4 km/h
135 11-08-2014 11:10:00 17.7 C 11.47 g/m*3 17.7 C 11.3 km/h
136 11-08-2014 11:15:00 17.9 C 11.76 g/m*3 17.9 C 8.1 km/h
137 11-08-2014 11:20:00 18.2 C 11.35 g/m*3 18.2 C 9.7 km/h
138 11-08-2014 11:25:00 18.4 C 11.17 g/m*3 18.4 C 11.3 km/h
139 11-08-2014 11:30:00 18.4 C 11.01 g/m*3 18.4 C 11.3 km/h
140 11-08-2014 11:35:00 18.6 C 11.14 g/m*3 18.6 C 14.5 km/h
141 11-08-2014 11:40:00 18.7 C 11.21 g/m*3 18.7 C 9.7 km/h
142 11-08-2014 11:45:00 18.8 C 11.27 g/m*3 18.8 C 11.3 km/h
143 11-08-2014 11:50:00 18.8 C 11.11 g/m*3 18.8 C 14.5 km/h
144 11-08-2014 11:55:00 18.9 C 11.34 g/m*3 18.9 C 11.3 km/h
145 11-08-2014 12:00:00 18.9 C 11.02 g/m*3 18.9 C 14.5 km/h
146 11-08-2014 12:05:00 19 C 11.08 g/m*3 19 C 12.9 km/h
147 11-08-2014 12:10:00 19.1 C 11.31 g/m*3 19.1 C 11.3 km/h
148 11-08-2014 12:15:00 19.4 C 11.18 g/m*3 19.4 C 14.5 km/h
149 11-08-2014 12:20:00 19.5 C 11.41 g/m*3 19.5 C 11.3 km/h
150 11-08-2014 12:25:00 19.5 C 11.41 g/m*3 19.5 C 12.9 km/h
Sensor: Nr:Datum:Temp:Abs-Feuchte:Windchill:Wind:
Aussen-T/F 151 11-08-2014 12:30:00 19.7 C 11.04 g/m*3 19.7 C 9.7 km/h
152 11-08-2014 12:35:00 20 C 11.23 g/m*3 20 C 9.7 km/h
153 11-08-2014 12:40:00 20.1 C 11.3 g/m*3 20.1 C 8.1 km/h
154 11-08-2014 12:45:00 19.9 C 11.34 g/m*3 19.9 C 9.7 km/h
155 11-08-2014 12:50:00 19.8 C 11.27 g/m*3 19.8 C 11.3 km/h
156 11-08-2014 12:55:00 19.7 C 10.87 g/m*3 19.7 C 6.4 km/h
157 11-08-2014 13:00:00 19.8 C 11.27 g/m*3 19.8 C 11.3 km/h
158 11-08-2014 13:05:00 20.1 C 10.78 g/m*3 20.1 C 20.9 km/h
159 11-08-2014 13:10:00 20.2 C 10.67 g/m*3 20.2 C 20.9 km/h
160 11-08-2014 13:15:00 20.2 C 11.02 g/m*3 20.2 C 14.5 km/h
161 11-08-2014 13:20:00 20.3 C 11.26 g/m*3 20.3 C 9.7 km/h
162 11-08-2014 13:25:00 20.1 C 10.6 g/m*3 20.1 C 12.9 km/h
163 11-08-2014 13:30:00 20.2 C 11.37 g/m*3 20.2 C 8.1 km/h
164 11-08-2014 13:35:00 20.4 C 11.32 g/m*3 20.4 C 12.9 km/h
165 11-08-2014 13:40:00 20.5 C 10.85 g/m*3 20.5 C 12.9 km/h
166 11-08-2014 13:45:00 20.6 C 11.28 g/m*3 20.6 C 11.3 km/h
167 11-08-2014 13:50:00 21 C 11.72 g/m*3 21 C 11.3 km/h
168 11-08-2014 13:55:00 21.1 C 11.61 g/m*3 21.1 C 11.3 km/h
169 11-08-2014 14:00:00 21.1 C 12.34 g/m*3 21.1 C 11.3 km/h
170 11-08-2014 14:05:00 21.4 C 11.44 g/m*3 21.4 C 12.9 km/h
171 11-08-2014 14:10:00 21.4 C 11.06 g/m*3 21.4 C 8.1 km/h
172 11-08-2014 14:15:00 21.4 C 11.62 g/m*3 21.4 C 14.5 km/h
173 11-08-2014 14:20:00 21.7 C 11.06 g/m*3 21.7 C 12.9 km/h
174 11-08-2014 14:25:00 21.9 C 11.19 g/m*3 21.9 C 14.5 km/h
175 11-08-2014 14:30:00 21.9 C 11.19 g/m*3 21.9 C 16.1 km/h
Sensor: Nr:Datum:Temp:Abs-Feuchte:Windchill:Wind:
Aussen-T/F 176 11-08-2014 14:35:00 21.5 C 10.75 g/m*3 21.5 C 9.7 km/h
177 11-08-2014 14:40:00 21 C 10.81 g/m*3 21 C 12.9 km/h
178 11-08-2014 14:45:00 20.2 C 11.54 g/m*3 20.2 C 12.9 km/h
179 11-08-2014 14:50:00 18.9 C 11.34 g/m*3 18.9 C 8.1 km/h
180 11-08-2014 14:55:00 17.8 C 11.69 g/m*3 17.8 C 9.7 km/h
181 11-08-2014 15:00:00 16.9 C 11.65 g/m*3 16.9 C 4.8 km/h
182 11-08-2014 15:05:00 16.7 C 12.36 g/m*3 16.7 C 4.8 km/h
183 11-08-2014 15:10:00 17.1 C 12.96 g/m*3 17.1 C 1.6 km/h
184 11-08-2014 15:15:00 17.5 C 12.97 g/m*3 17.5 C 1.6 km/h
185 11-08-2014 15:20:00 18.1 C 12.98 g/m*3 18.1 C 3.2 km/h
186 11-08-2014 15:25:00 18.6 C 13.69 g/m*3 18.6 C 0 km/h
187 11-08-2014 15:30:00 19 C 14.18 g/m*3 19 C 0 km/h
188 11-08-2014 15:35:00 19.3 C 13.6 g/m*3 19.3 C 4.8 km/h
189 11-08-2014 15:40:00 19.9 C 12.89 g/m*3 19.9 C 6.4 km/h
190 11-08-2014 15:45:00 20.3 C 14.95 g/m*3 20.3 C 3.2 km/h
191 11-08-2014 15:50:00 20.3 C 13.72 g/m*3 20.3 C 3.2 km/h
192 11-08-2014 15:55:00 20.3 C 15.13 g/m*3 20.3 C 3.2 km/h
193 11-08-2014 16:00:00 20.4 C 14.15 g/m*3 20.4 C 1.6 km/h
194 11-08-2014 16:05:00 20.8 C 14.67 g/m*3 20.8 C 6.4 km/h
195 11-08-2014 16:10:00 21.1 C 12.71 g/m*3 21.1 C 3.2 km/h
196 11-08-2014 16:15:00 21.1 C 13.63 g/m*3 21.1 C 8.1 km/h
197 11-08-2014 16:20:00 20.7 C 14.4 g/m*3 20.7 C 1.6 km/h
198 11-08-2014 16:25:00 19.9 C 13.92 g/m*3 19.9 C 3.2 km/h
199 11-08-2014 16:30:00 19.4 C 13.35 g/m*3 19.4 C 4.8 km/h
200 11-08-2014 16:35:00 19.6 C 13.67 g/m*3 19.6 C 6.4 km/h
Sensor: Nr:Datum:Temp:Abs-Feuchte:Windchill:Wind:
Aussen-T/F 201 11-08-2014 16:40:00 19.9 C 13.92 g/m*3 19.9 C 3.2 km/h
202 11-08-2014 16:45:00 20.5 C 12.81 g/m*3 20.5 C 14.5 km/h
203 11-08-2014 16:50:00 21.2 C 11.3 g/m*3 21.2 C 12.9 km/h
204 11-08-2014 16:55:00 21.6 C 11.95 g/m*3 21.6 C 9.7 km/h
205 11-08-2014 17:00:00 21.9 C 12.35 g/m*3 21.9 C 11.3 km/h
206 11-08-2014 17:05:00 21.9 C 12.16 g/m*3 21.9 C 11.3 km/h
207 11-08-2014 17:10:00 22.1 C 12.3 g/m*3 22.1 C 12.9 km/h
208 11-08-2014 17:15:00 22.3 C 11.26 g/m*3 22.3 C 19.3 km/h
209 11-08-2014 17:20:00 22.3 C 10.86 g/m*3 22.3 C 12.9 km/h
210 11-08-2014 17:25:00 22.3 C 11.06 g/m*3 22.3 C 12.9 km/h
211 11-08-2014 17:30:00 22.2 C 12.17 g/m*3 22.2 C 3.2 km/h
212 11-08-2014 17:35:00 21.7 C 10.49 g/m*3 21.7 C 22.5 km/h
213 11-08-2014 17:40:00 21.4 C 10.5 g/m*3 21.4 C 12.9 km/h
214 11-08-2014 17:45:00 21.7 C 11.64 g/m*3 21.7 C 12.9 km/h
215 11-08-2014 17:50:00 22 C 11.65 g/m*3 22 C 8.1 km/h
216 11-08-2014 17:55:00 21.9 C 11.19 g/m*3 21.9 C 9.7 km/h
217 11-08-2014 18:00:00 21.5 C 11.13 g/m*3 21.5 C 11.3 km/h
218 11-08-2014 18:05:00 21.4 C 11.44 g/m*3 21.4 C 3.2 km/h
219 11-08-2014 18:10:00 21.1 C 11.42 g/m*3 21.1 C 11.3 km/h
220 11-08-2014 18:15:00 20.9 C 10.93 g/m*3 20.9 C 6.4 km/h
221 11-08-2014 18:20:00 20.8 C 11.41 g/m*3 20.8 C 6.4 km/h
222 11-08-2014 18:25:00 21.1 C 11.06 g/m*3 21.1 C 8.1 km/h
223 11-08-2014 18:30:00 21.5 C 11.69 g/m*3 21.5 C 9.7 km/h
224 11-08-2014 18:35:00 21.7 C 11.45 g/m*3 21.7 C 1.6 km/h
225 11-08-2014 18:40:00 21.7 C 12.4 g/m*3 21.7 C 6.4 km/h
Sensor: Nr:Datum:Temp:Abs-Feuchte:Windchill:Wind:
Aussen-T/F 226 11-08-2014 18:45:00 21.3 C 12.49 g/m*3 21.3 C 4.8 km/h
227 11-08-2014 18:50:00 20.9 C 12.57 g/m*3 20.9 C 1.6 km/h
228 11-08-2014 18:55:00 21 C 10.99 g/m*3 21 C 12.9 km/h
229 11-08-2014 19:00:00 21.3 C 12.86 g/m*3 21.3 C 6.4 km/h
230 11-08-2014 19:05:00 20.8 C 10.86 g/m*3 20.8 C 8.1 km/h
231 11-08-2014 19:10:00 20.6 C 12.17 g/m*3 20.6 C 4.8 km/h
232 11-08-2014 19:15:00 20.7 C 12.24 g/m*3 20.7 C 6.4 km/h
233 11-08-2014 19:20:00 20.8 C 11.77 g/m*3 20.8 C 1.6 km/h
234 11-08-2014 19:25:00 20.8 C 12.67 g/m*3 20.8 C 8.1 km/h
235 11-08-2014 19:30:00 20.7 C 11.7 g/m*3 20.7 C 3.2 km/h
236 11-08-2014 19:35:00 20.7 C 11.52 g/m*3 20.7 C 6.4 km/h
237 11-08-2014 19:40:00 20.5 C 11.57 g/m*3 20.5 C 4.8 km/h
238 11-08-2014 19:45:00 20.3 C 11.43 g/m*3 20.3 C 4.8 km/h
239 11-08-2014 19:50:00 20.2 C 11.19 g/m*3 20.2 C 9.7 km/h
240 11-08-2014 19:55:00 19.9 C 12.03 g/m*3 19.9 C 3.2 km/h
241 11-08-2014 20:00:00 19.5 C 11.41 g/m*3 19.5 C 4.8 km/h
242 11-08-2014 20:05:00 19.5 C 10.57 g/m*3 19.5 C 3.2 km/h
243 11-08-2014 20:10:00 19.7 C 10.87 g/m*3 19.7 C 3.2 km/h
244 11-08-2014 20:15:00 19.6 C 10.97 g/m*3 19.6 C 3.2 km/h
245 11-08-2014 20:20:00 19.4 C 11.35 g/m*3 19.4 C 4.8 km/h
246 11-08-2014 20:25:00 19.2 C 11.21 g/m*3 19.2 C 1.6 km/h
247 11-08-2014 20:30:00 18.9 C 11.66 g/m*3 18.9 C 1.6 km/h
248 11-08-2014 20:35:00 18.4 C 11.64 g/m*3 18.4 C 3.2 km/h
249 11-08-2014 20:40:00 18.1 C 11.59 g/m*3 18.1 C 3.2 km/h
250 11-08-2014 20:45:00 17.9 C 11.6 g/m*3 17.9 C 3.2 km/h
Sensor: Nr:Datum:Temp:Abs-Feuchte:Windchill:Wind:
Aussen-T/F 251 11-08-2014 20:50:00 17.7 C 11.47 g/m*3 17.7 C 4.8 km/h
252 11-08-2014 20:55:00 17.2 C 11.28 g/m*3 17.2 C 4.8 km/h
253 11-08-2014 21:00:00 16.9 C 11.36 g/m*3 16.9 C 3.2 km/h
254 11-08-2014 21:05:00 16.6 C 11.3 g/m*3 16.6 C 3.2 km/h
255 11-08-2014 21:10:00 16.4 C 11.31 g/m*3 16.4 C 3.2 km/h
256 11-08-2014 21:15:00 16.2 C 11.17 g/m*3 16.2 C 3.2 km/h
257 11-08-2014 21:20:00 16.1 C 11.24 g/m*3 16.1 C 1.6 km/h
258 11-08-2014 21:25:00 16.1 C 10.97 g/m*3 16.1 C 3.2 km/h
259 11-08-2014 21:30:00 16.2 C 11.17 g/m*3 16.2 C 3.2 km/h
260 11-08-2014 21:35:00 16.1 C 10.83 g/m*3 16.1 C 3.2 km/h
261 11-08-2014 21:40:00 16.3 C 11.24 g/m*3 16.3 C 1.6 km/h
262 11-08-2014 21:45:00 16.3 C 11.1 g/m*3 16.3 C 1.6 km/h
263 11-08-2014 21:50:00 16.5 C 11.23 g/m*3 16.5 C 3.2 km/h
264 11-08-2014 21:55:00 16.4 C 11.31 g/m*3 16.4 C 1.6 km/h
265 11-08-2014 22:00:00 16.2 C 11.31 g/m*3 16.2 C 1.6 km/h
266 11-08-2014 22:05:00 15.9 C 11.1 g/m*3 15.9 C 1.6 km/h
267 11-08-2014 22:10:00 15.7 C 11.11 g/m*3 15.7 C 1.6 km/h
268 11-08-2014 22:15:00 15.6 C 10.91 g/m*3 15.6 C 1.6 km/h
269 11-08-2014 22:20:00 15.4 C 11.04 g/m*3 15.4 C 0 km/h
270 11-08-2014 22:25:00 15.3 C 11.1 g/m*3 15.3 C 0 km/h
271 11-08-2014 22:30:00 15.1 C 10.97 g/m*3 15.1 C 0 km/h
272 11-08-2014 22:35:00 14.9 C 10.71 g/m*3 14.9 C 0 km/h
273 11-08-2014 22:40:00 14.8 C 10.89 g/m*3 14.8 C 0 km/h
274 11-08-2014 22:45:00 14.8 C 10.89 g/m*3 14.8 C 0 km/h
275 11-08-2014 22:50:00 14.7 C 10.7 g/m*3 14.7 C 0 km/h
Sensor: Nr:Datum:Temp:Abs-Feuchte:Windchill:Wind:
Aussen-T/F 276 11-08-2014 22:55:00 14.6 C 10.76 g/m*3 14.6 C 0 km/h
277 11-08-2014 23:00:00 14.5 C 10.7 g/m*3 14.5 C 0 km/h
278 11-08-2014 23:05:00 14.4 C 10.63 g/m*3 14.4 C 0 km/h
279 11-08-2014 23:10:00 14.3 C 10.57 g/m*3 14.3 C 0 km/h
280 11-08-2014 23:15:00 14.3 C 10.69 g/m*3 14.3 C 0 km/h
281 11-08-2014 23:20:00 14.2 C 10.62 g/m*3 14.2 C 0 km/h
282 11-08-2014 23:25:00 14.2 C 10.62 g/m*3 14.2 C 0 km/h
283 11-08-2014 23:30:00 14.2 C 10.62 g/m*3 14.2 C 0 km/h
284 11-08-2014 23:35:00 14.2 C 10.62 g/m*3 14.2 C 0 km/h
285 11-08-2014 23:40:00 14.1 C 10.56 g/m*3 14.1 C 0 km/h
286 11-08-2014 23:45:00 14 C 10.61 g/m*3 14 C 0 km/h
287 11-08-2014 23:50:00 13.9 C 10.55 g/m*3 13.9 C 0 km/h
288 11-08-2014 23:55:00 13.9 C 10.55 g/m*3 13.9 C 0 km/h
289 12-08-2014 00:00:00 14 C 10.61 g/m*3 14 C 0 km/h
290 12-08-2014 00:05:00 14 C 10.61 g/m*3 14 C 0 km/h
291 12-08-2014 00:10:00 14 C 10.61 g/m*3 14 C 0 km/h
292 12-08-2014 00:15:00 13.9 C 10.55 g/m*3 13.9 C 0 km/h
293 12-08-2014 00:20:00 14 C 10.49 g/m*3 14 C 3.2 km/h
294 12-08-2014 00:25:00 14.1 C 10.68 g/m*3 14.1 C 0 km/h
295 12-08-2014 00:30:00 14.2 C 10.87 g/m*3 14.2 C 0 km/h
296 12-08-2014 00:35:00 14.3 C 10.93 g/m*3 14.3 C 0 km/h
297 12-08-2014 00:40:00 14.3 C 10.81 g/m*3 14.3 C 0 km/h
298 12-08-2014 00:45:00 14.6 C 10.51 g/m*3 14.6 C 3.2 km/h
299 12-08-2014 00:50:00 14.9 C 10.83 g/m*3 14.9 C 0 km/h
300 12-08-2014 00:55:00 15.1 C 10.71 g/m*3 15.1 C 0 km/h
Sensor: Nr:Datum:Temp:Abs-Feuchte:Windchill:Wind:
Aussen-T/F 301 12-08-2014 01:00:00 15.3 C 10.58 g/m*3 15.3 C 0 km/h
302 12-08-2014 01:05:00 15.5 C 10.44 g/m*3 15.5 C 3.2 km/h
303 12-08-2014 01:10:00 15.8 C 10.36 g/m*3 15.8 C 8.1 km/h
304 12-08-2014 01:15:00 16.1 C 10.28 g/m*3 16.1 C 11.3 km/h
305 12-08-2014 01:20:00 16.4 C 10.33 g/m*3 16.4 C 11.3 km/h
306 12-08-2014 01:25:00 16.5 C 10.25 g/m*3 16.5 C 9.7 km/h
307 12-08-2014 01:30:00 16.5 C 10.39 g/m*3 16.5 C 0 km/h
308 12-08-2014 01:35:00 16.4 C 10.47 g/m*3 16.4 C 4.8 km/h
309 12-08-2014 01:40:00 16.3 C 10.27 g/m*3 16.3 C 8.1 km/h
310 12-08-2014 01:45:00 16.4 C 10.33 g/m*3 16.4 C 4.8 km/h
311 12-08-2014 01:50:00 16.4 C 10.33 g/m*3 16.4 C 9.7 km/h
312 12-08-2014 01:55:00 16.3 C 10.27 g/m*3 16.3 C 9.7 km/h
313 12-08-2014 02:00:00 16.2 C 10.62 g/m*3 16.2 C 16.1 km/h
314 12-08-2014 02:05:00 16.1 C 10.83 g/m*3 16.1 C 3.2 km/h
315 12-08-2014 02:10:00 15.7 C 10.84 g/m*3 15.7 C 0 km/h
316 12-08-2014 02:15:00 15.5 C 10.84 g/m*3 15.5 C 3.2 km/h
317 12-08-2014 02:20:00 15.4 C 10.64 g/m*3 15.4 C 12.9 km/h
318 12-08-2014 02:25:00 15.4 C 10.77 g/m*3 15.4 C 12.9 km/h
319 12-08-2014 02:30:00 15.4 C 10.64 g/m*3 15.4 C 19.3 km/h
320 12-08-2014 02:35:00 15.3 C 10.71 g/m*3 15.3 C 11.3 km/h
321 12-08-2014 02:40:00 15.3 C 10.71 g/m*3 15.3 C 4.8 km/h
322 12-08-2014 02:45:00 15.3 C 10.71 g/m*3 15.3 C 3.2 km/h
323 12-08-2014 02:50:00 15.3 C 10.71 g/m*3 15.3 C 8.1 km/h
324 12-08-2014 02:55:00 15.3 C 10.71 g/m*3 15.3 C 11.3 km/h
325 12-08-2014 03:00:00 15.2 C 10.9 g/m*3 15.2 C 4.8 km/h
Sensor: Nr:Datum:Temp:Abs-Feuchte:Windchill:Wind:
Aussen-T/F 326 12-08-2014 03:05:00 15.1 C 10.97 g/m*3 15.1 C 1.6 km/h
327 12-08-2014 03:10:00 14.8 C 10.77 g/m*3 14.8 C 4.8 km/h
328 12-08-2014 03:15:00 14.7 C 10.83 g/m*3 14.7 C 3.2 km/h
329 12-08-2014 03:20:00 14.6 C 10.89 g/m*3 14.6 C 3.2 km/h
330 12-08-2014 03:25:00 14.4 C 10.88 g/m*3 14.4 C 1.6 km/h
331 12-08-2014 03:30:00 14.3 C 10.81 g/m*3 14.3 C 3.2 km/h
332 12-08-2014 03:35:00 14.3 C 10.93 g/m*3 14.3 C 0 km/h
333 12-08-2014 03:40:00 14.2 C 10.99 g/m*3 14.2 C 0 km/h
334 12-08-2014 03:45:00 14.1 C 11.04 g/m*3 14.1 C 0 km/h
335 12-08-2014 03:50:00 14 C 10.98 g/m*3 14 C 0 km/h
336 12-08-2014 03:55:00 13.9 C 10.91 g/m*3 13.9 C 1.6 km/h
337 12-08-2014 04:00:00 13.9 C 10.91 g/m*3 13.9 C 1.6 km/h
338 12-08-2014 04:05:00 13.8 C 10.96 g/m*3 13.8 C 1.6 km/h
339 12-08-2014 04:10:00 13.8 C 10.96 g/m*3 13.8 C 0 km/h
340 12-08-2014 04:15:00 13.8 C 10.96 g/m*3 13.8 C 0 km/h
341 12-08-2014 04:20:00 13.8 C 10.96 g/m*3 13.8 C 1.6 km/h
342 12-08-2014 04:25:00 13.8 C 10.96 g/m*3 13.8 C 1.6 km/h
343 12-08-2014 04:30:00 13.9 C 10.91 g/m*3 13.9 C 1.6 km/h
344 12-08-2014 04:35:00 14 C 10.98 g/m*3 14 C 4.8 km/h
345 12-08-2014 04:40:00 14.1 C 10.92 g/m*3 14.1 C 4.8 km/h
346 12-08-2014 04:45:00 14.2 C 10.87 g/m*3 14.2 C 3.2 km/h
347 12-08-2014 04:50:00 14.3 C 10.93 g/m*3 14.3 C 4.8 km/h
348 12-08-2014 04:55:00 14.3 C 10.81 g/m*3 14.3 C 9.7 km/h
349 12-08-2014 05:00:00 14.4 C 10.88 g/m*3 14.4 C 9.7 km/h
350 12-08-2014 05:05:00 14.4 C 10.88 g/m*3 14.4 C 3.2 km/h
Sensor: Nr:Datum:Temp:Abs-Feuchte:Windchill:Wind:
Aussen-T/F 351 12-08-2014 05:10:00 14.3 C 10.81 g/m*3 14.3 C 8.1 km/h
352 12-08-2014 05:15:00 14.3 C 10.81 g/m*3 14.3 C 3.2 km/h
353 12-08-2014 05:20:00 14.3 C 10.81 g/m*3 14.3 C 3.2 km/h
354 12-08-2014 05:25:00 14.2 C 10.75 g/m*3 14.2 C 4.8 km/h
355 12-08-2014 05:30:00 14.2 C 10.75 g/m*3 14.2 C 3.2 km/h
356 12-08-2014 05:35:00 14.2 C 10.75 g/m*3 14.2 C 4.8 km/h
357 12-08-2014 05:40:00 14.1 C 10.68 g/m*3 14.1 C 4.8 km/h
358 12-08-2014 05:45:00 14.1 C 10.68 g/m*3 14.1 C 3.2 km/h
359 12-08-2014 05:50:00 14.1 C 10.68 g/m*3 14.1 C 3.2 km/h
360 12-08-2014 05:55:00 14.1 C 10.68 g/m*3 14.1 C 6.4 km/h
361 12-08-2014 06:00:00 14.1 C 10.68 g/m*3 14.1 C 3.2 km/h
362 12-08-2014 06:05:00 14.2 C 10.75 g/m*3 14.2 C 3.2 km/h
363 12-08-2014 06:10:00 14.2 C 10.62 g/m*3 14.2 C 1.6 km/h
364 12-08-2014 06:15:00 14.2 C 10.75 g/m*3 14.2 C 1.6 km/h
365 12-08-2014 06:20:00 14.1 C 10.56 g/m*3 14.1 C 3.2 km/h
366 12-08-2014 06:25:00 14.1 C 10.68 g/m*3 14.1 C 3.2 km/h
367 12-08-2014 06:30:00 14.1 C 10.56 g/m*3 14.1 C 0 km/h
368 12-08-2014 06:35:00 14.2 C 10.62 g/m*3 14.2 C 4.8 km/h
369 12-08-2014 06:40:00 14.1 C 10.68 g/m*3 14.1 C 1.6 km/h
370 12-08-2014 06:45:00 14.1 C 10.68 g/m*3 14.1 C 0 km/h
371 12-08-2014 06:50:00 13.9 C 10.55 g/m*3 13.9 C 0 km/h
372 12-08-2014 06:55:00 13.9 C 10.55 g/m*3 13.9 C 0 km/h
373 12-08-2014 07:00:00 13.8 C 10.6 g/m*3 13.8 C 0 km/h
374 12-08-2014 07:05:00 13.8 C 10.72 g/m*3 13.8 C 0 km/h
375 12-08-2014 07:10:00 13.7 C 10.54 g/m*3 13.7 C 3.2 km/h
Sensor: Nr:Datum:Temp:Abs-Feuchte:Windchill:Wind:
Aussen-T/F 376 12-08-2014 07:15:00 13.7 C 10.66 g/m*3 13.7 C 1.6 km/h
377 12-08-2014 07:20:00 13.7 C 10.66 g/m*3 13.7 C 1.6 km/h
378 12-08-2014 07:25:00 13.7 C 10.66 g/m*3 13.7 C 0 km/h
379 12-08-2014 07:30:00 13.8 C 10.84 g/m*3 13.8 C 0 km/h
380 12-08-2014 07:35:00 13.8 C 10.84 g/m*3 13.8 C 0 km/h
381 12-08-2014 07:40:00 13.9 C 10.91 g/m*3 13.9 C 0 km/h
382 12-08-2014 07:45:00 13.9 C 10.91 g/m*3 13.9 C 0 km/h
383 12-08-2014 07:50:00 13.9 C 10.79 g/m*3 13.9 C 0 km/h
384 12-08-2014 07:55:00 14 C 10.98 g/m*3 14 C 0 km/h
385 12-08-2014 08:00:00 14.1 C 11.04 g/m*3 14.1 C 0 km/h
386 12-08-2014 08:05:00 14.2 C 11.11 g/m*3 14.2 C 0 km/h
387 12-08-2014 08:10:00 14.2 C 11.11 g/m*3 14.2 C 0 km/h
388 12-08-2014 08:15:00 14.3 C 11.18 g/m*3 14.3 C 0 km/h
389 12-08-2014 08:20:00 14.4 C 11.25 g/m*3 14.4 C 0 km/h
390 12-08-2014 08:25:00 14.4 C 11.25 g/m*3 14.4 C 0 km/h
391 12-08-2014 08:30:00 14.3 C 11.18 g/m*3 14.3 C 1.6 km/h
392 12-08-2014 08:35:00 14.3 C 11.18 g/m*3 14.3 C 6.4 km/h
393 12-08-2014 08:40:00 14.3 C 11.06 g/m*3 14.3 C 6.4 km/h
394 12-08-2014 08:45:00 14.4 C 11 g/m*3 14.4 C 8.1 km/h
395 12-08-2014 08:50:00 14.7 C 10.95 g/m*3 14.7 C 6.4 km/h
396 12-08-2014 08:55:00 14.9 C 10.96 g/m*3 14.9 C 1.6 km/h
397 12-08-2014 09:00:00 15.1 C 11.09 g/m*3 15.1 C 3.2 km/h
398 12-08-2014 09:05:00 15.3 C 11.1 g/m*3 15.3 C 8.1 km/h
399 12-08-2014 09:10:00 15.6 C 11.04 g/m*3 15.6 C 9.7 km/h
400 12-08-2014 09:15:00 15.7 C 11.11 g/m*3 15.7 C 4.8 km/h
Sensor: Nr:Datum:Temp:Abs-Feuchte:Windchill:Wind:
Aussen-T/F 401 12-08-2014 09:20:00 15.7 C 10.97 g/m*3 15.7 C 11.3 km/h
402 12-08-2014 09:25:00 15.8 C 10.9 g/m*3 15.8 C 11.3 km/h
403 12-08-2014 09:30:00 15.9 C 10.97 g/m*3 15.9 C 11.3 km/h
404 12-08-2014 09:35:00 16.1 C 10.97 g/m*3 16.1 C 14.5 km/h
405 12-08-2014 09:40:00 16.2 C 10.89 g/m*3 16.2 C 11.3 km/h
406 12-08-2014 09:45:00 16.3 C 10.96 g/m*3 16.3 C 14.5 km/h
407 12-08-2014 09:50:00 16.4 C 11.03 g/m*3 16.4 C 12.9 km/h
408 12-08-2014 09:55:00 16.5 C 10.95 g/m*3 16.5 C 14.5 km/h
409 12-08-2014 10:00:00 16.6 C 10.74 g/m*3 16.6 C 9.7 km/h
410 12-08-2014 10:05:00 16.7 C 10.66 g/m*3 16.7 C 16.1 km/h
411 12-08-2014 10:10:00 16.7 C 10.66 g/m*3 16.7 C 14.5 km/h
412 12-08-2014 10:15:00 16.8 C 10.72 g/m*3 16.8 C 14.5 km/h
413 12-08-2014 10:20:00 16.9 C 10.5 g/m*3 16.9 C 14.5 km/h
414 12-08-2014 10:25:00 17.1 C 10.63 g/m*3 17.1 C 19.3 km/h
415 12-08-2014 10:30:00 17.2 C 10.54 g/m*3 17.2 C 12.9 km/h
416 12-08-2014 10:35:00 17.2 C 10.54 g/m*3 17.2 C 11.3 km/h
417 12-08-2014 10:40:00 17.3 C 10.75 g/m*3 17.3 C 11.3 km/h
418 12-08-2014 10:45:00 17.5 C 10.59 g/m*3 17.5 C 19.3 km/h
419 12-08-2014 10:50:00 17.6 C 10.65 g/m*3 17.6 C 9.7 km/h
420 12-08-2014 10:55:00 17.7 C 10.56 g/m*3 17.7 C 9.7 km/h
421 12-08-2014 11:00:00 17.7 C 10.26 g/m*3 17.7 C 17.7 km/h
422 12-08-2014 11:05:00 17.9 C 10.54 g/m*3 17.9 C 19.3 km/h
423 12-08-2014 11:10:00 18.2 C 10.41 g/m*3 18.2 C 12.9 km/h
424 12-08-2014 11:15:00 18.3 C 10.63 g/m*3 18.3 C 16.1 km/h
425 12-08-2014 11:20:00 18.6 C 10.5 g/m*3 18.6 C 12.9 km/h
Sensor: Nr:Datum:Temp:Abs-Feuchte:Windchill:Wind:
Aussen-T/F 426 12-08-2014 11:25:00 18.6 C 10.19 g/m*3 18.6 C 11.3 km/h
427 12-08-2014 11:30:00 18.4 C 10.22 g/m*3 18.4 C 16.1 km/h
428 12-08-2014 11:35:00 18.4 C 10.38 g/m*3 18.4 C 12.9 km/h
429 12-08-2014 11:40:00 18.7 C 10.73 g/m*3 18.7 C 11.3 km/h
430 12-08-2014 11:45:00 18.8 C 10.47 g/m*3 18.8 C 4.8 km/h
431 12-08-2014 11:50:00 19.1 C 10.98 g/m*3 19.1 C 11.3 km/h
432 12-08-2014 11:55:00 19.3 C 10.62 g/m*3 19.3 C 16.1 km/h
433 12-08-2014 12:00:00 19.3 C 10.12 g/m*3 19.3 C 11.3 km/h
434 12-08-2014 12:05:00 19.3 C 10.28 g/m*3 19.3 C 12.9 km/h
435 12-08-2014 12:10:00 19.4 C 10.01 g/m*3 19.4 C 16.1 km/h
436 12-08-2014 12:15:00 19.7 C 10.19 g/m*3 19.7 C 19.3 km/h
437 12-08-2014 12:20:00 19.7 C 9.85 g/m*3 19.7 C 12.9 km/h
438 12-08-2014 12:25:00 19.7 C 9.51 g/m*3 19.7 C 22.5 km/h
439 12-08-2014 12:30:00 19.8 C 9.91 g/m*3 19.8 C 11.3 km/h
440 12-08-2014 12:35:00 19.9 C 9.79 g/m*3 19.9 C 16.1 km/h
441 12-08-2014 12:40:00 20.1 C 9.56 g/m*3 20.1 C 11.3 km/h
442 12-08-2014 12:45:00 20.1 C 10.08 g/m*3 20.1 C 9.7 km/h
443 12-08-2014 12:50:00 20.3 C 9.85 g/m*3 20.3 C 17.7 km/h
444 12-08-2014 12:55:00 20.4 C 9.73 g/m*3 20.4 C 12.9 km/h
445 12-08-2014 13:00:00 20.5 C 9.79 g/m*3 20.5 C 14.5 km/h
446 12-08-2014 13:05:00 20.4 C 10.08 g/m*3 20.4 C 9.7 km/h
447 12-08-2014 13:10:00 20.6 C 10.02 g/m*3 20.6 C 8.1 km/h
448 12-08-2014 13:15:00 20.5 C 9.61 g/m*3 20.5 C 20.9 km/h
449 12-08-2014 13:20:00 20.3 C 9.32 g/m*3 20.3 C 20.9 km/h
450 12-08-2014 13:25:00 19.9 C 9.28 g/m*3 19.9 C 12.9 km/h
Sensor: Nr:Datum:Temp:Abs-Feuchte:Windchill:Wind:
Aussen-T/F 451 12-08-2014 13:30:00 19.9 C 9.62 g/m*3 19.9 C 12.9 km/h
452 12-08-2014 13:35:00 20.3 C 9.85 g/m*3 20.3 C 12.9 km/h
453 12-08-2014 13:40:00 20.6 C 9.49 g/m*3 20.6 C 14.5 km/h
454 12-08-2014 13:45:00 20.8 C 10.14 g/m*3 20.8 C 11.3 km/h
455 12-08-2014 13:50:00 20.9 C 9.83 g/m*3 20.9 C 14.5 km/h
456 12-08-2014 13:55:00 20.9 C 9.65 g/m*3 20.9 C 17.7 km/h
457 12-08-2014 14:00:00 21.2 C 9.64 g/m*3 21.2 C 12.9 km/h
458 12-08-2014 14:05:00 21.3 C 9.69 g/m*3 21.3 C 17.7 km/h
459 12-08-2014 14:10:00 21.4 C 9.75 g/m*3 21.4 C 14.5 km/h
460 12-08-2014 14:15:00 21.2 C 9.45 g/m*3 21.2 C 14.5 km/h
461 12-08-2014 14:20:00 21 C 9.89 g/m*3 21 C 14.5 km/h
462 12-08-2014 14:25:00 21.2 C 10.01 g/m*3 21.2 C 14.5 km/h
463 12-08-2014 14:30:00 21.6 C 10.05 g/m*3 21.6 C 9.7 km/h
464 12-08-2014 14:35:00 21.8 C 9.98 g/m*3 21.8 C 12.9 km/h
465 12-08-2014 14:40:00 21.9 C 11 g/m*3 21.9 C 17.7 km/h
466 12-08-2014 14:45:00 22.1 C 10.15 g/m*3 22.1 C 14.5 km/h
467 12-08-2014 14:50:00 22.2 C 10.01 g/m*3 22.2 C 16.1 km/h
468 12-08-2014 14:55:00 22.2 C 10.01 g/m*3 22.2 C 16.1 km/h
469 12-08-2014 15:00:00 22.3 C 10.27 g/m*3 22.3 C 16.1 km/h
470 12-08-2014 15:05:00 22.3 C 9.68 g/m*3 22.3 C 16.1 km/h
471 12-08-2014 15:10:00 22.3 C 9.68 g/m*3 22.3 C 12.9 km/h
472 12-08-2014 15:15:00 22.6 C 9.84 g/m*3 22.6 C 14.5 km/h
473 12-08-2014 15:20:00 22.7 C 10.1 g/m*3 22.7 C 17.7 km/h
474 12-08-2014 15:25:00 22.8 C 9.75 g/m*3 22.8 C 14.5 km/h
475 12-08-2014 15:30:00 22.9 C 10.01 g/m*3 22.9 C 17.7 km/h
Sensor: Nr:Datum:Temp:Abs-Feuchte:Windchill:Wind:
Aussen-T/F 476 12-08-2014 15:35:00 23 C 9.66 g/m*3 23 C 14.5 km/h
477 12-08-2014 15:40:00 23.1 C 10.13 g/m*3 23.1 C 14.5 km/h
478 12-08-2014 15:45:00 23.1 C 10.13 g/m*3 23.1 C 20.9 km/h
479 12-08-2014 15:50:00 23.1 C 9.72 g/m*3 23.1 C 16.1 km/h
480 12-08-2014 15:55:00 23.1 C 10.13 g/m*3 23.1 C 16.1 km/h
481 12-08-2014 16:00:00 23.1 C 9.72 g/m*3 23.1 C 12.9 km/h
482 12-08-2014 16:05:00 23.1 C 9.92 g/m*3 23.1 C 22.5 km/h
483 12-08-2014 16:10:00 23.1 C 9.92 g/m*3 23.1 C 16.1 km/h
484 12-08-2014 16:15:00 23.3 C 10.25 g/m*3 23.3 C 14.5 km/h
485 12-08-2014 16:20:00 23.4 C 9.88 g/m*3 23.4 C 16.1 km/h
486 12-08-2014 16:25:00 23.4 C 10.09 g/m*3 23.4 C 16.1 km/h
487 12-08-2014 16:30:00 23.3 C 9.83 g/m*3 23.3 C 16.1 km/h
488 12-08-2014 16:35:00 23.4 C 10.09 g/m*3 23.4 C 11.3 km/h
489 12-08-2014 16:40:00 23.4 C 9.88 g/m*3 23.4 C 14.5 km/h
490 12-08-2014 16:45:00 23.4 C 9.88 g/m*3 23.4 C 17.7 km/h
491 12-08-2014 16:50:00 23.4 C 10.3 g/m*3 23.4 C 14.5 km/h
492 12-08-2014 16:55:00 23.4 C 10.3 g/m*3 23.4 C 6.4 km/h
493 12-08-2014 17:00:00 22.8 C 9.75 g/m*3 22.8 C 9.7 km/h
494 12-08-2014 17:05:00 22.3 C 9.87 g/m*3 22.3 C 12.9 km/h
495 12-08-2014 17:10:00 22.1 C 9.96 g/m*3 22.1 C 19.3 km/h
496 12-08-2014 17:15:00 22.1 C 9.56 g/m*3 22.1 C 16.1 km/h
497 12-08-2014 17:20:00 22.1 C 9.96 g/m*3 22.1 C 17.7 km/h
498 12-08-2014 17:25:00 22.1 C 9.56 g/m*3 22.1 C 29 km/h
499 12-08-2014 17:30:00 21.9 C 9.84 g/m*3 21.9 C 16.1 km/h
500 12-08-2014 17:35:00 21.9 C 9.65 g/m*3 21.9 C 8.1 km/h
Sensor: Nr:Datum:Temp:Abs-Feuchte:Windchill:Wind:
Aussen-T/F 501 12-08-2014 17:40:00 22.4 C 9.93 g/m*3 22.4 C 9.7 km/h
502 12-08-2014 17:45:00 22.7 C 10.1 g/m*3 22.7 C 8.1 km/h
503 12-08-2014 17:50:00 22.7 C 10.1 g/m*3 22.7 C 11.3 km/h
504 12-08-2014 17:55:00 22.7 C 10.1 g/m*3 22.7 C 17.7 km/h
505 12-08-2014 18:00:00 22.9 C 10.01 g/m*3 22.9 C 11.3 km/h
506 12-08-2014 18:05:00 22.8 C 9.75 g/m*3 22.8 C 12.9 km/h
507 12-08-2014 18:10:00 22.8 C 9.96 g/m*3 22.8 C 8.1 km/h
508 12-08-2014 18:15:00 22.9 C 9.81 g/m*3 22.9 C 14.5 km/h
509 12-08-2014 18:20:00 22.9 C 10.22 g/m*3 22.9 C 9.7 km/h
510 12-08-2014 18:25:00 23 C 10.28 g/m*3 23 C 8.1 km/h
511 12-08-2014 18:30:00 22.7 C 10.51 g/m*3 22.7 C 8.1 km/h
512 12-08-2014 18:35:00 22 C 10.29 g/m*3 22 C 11.3 km/h
513 12-08-2014 18:40:00 21.4 C 10.12 g/m*3 21.4 C 11.3 km/h
514 12-08-2014 18:45:00 21.1 C 10.32 g/m*3 21.1 C 8.1 km/h
515 12-08-2014 18:50:00 20.8 C 10.14 g/m*3 20.8 C 11.3 km/h
516 12-08-2014 18:55:00 20.7 C 10.98 g/m*3 20.7 C 3.2 km/h
517 12-08-2014 19:00:00 20.7 C 10.62 g/m*3 20.7 C 4.8 km/h
518 12-08-2014 19:05:00 20.7 C 10.98 g/m*3 20.7 C 1.6 km/h
519 12-08-2014 19:10:00 20.9 C 11.29 g/m*3 20.9 C 3.2 km/h
520 12-08-2014 19:15:00 21.3 C 11 g/m*3 21.3 C 6.4 km/h
521 12-08-2014 19:20:00 21.5 C 12.07 g/m*3 21.5 C 8.1 km/h
522 12-08-2014 19:25:00 21.4 C 11.06 g/m*3 21.4 C 0 km/h
523 12-08-2014 19:30:00 21.4 C 11.44 g/m*3 21.4 C 1.6 km/h
524 12-08-2014 19:35:00 21.3 C 12.12 g/m*3 21.3 C 3.2 km/h
525 12-08-2014 19:40:00 21 C 11.72 g/m*3 21 C 3.2 km/h
Sensor: Nr:Datum:Temp:Abs-Feuchte:Windchill:Wind:
Aussen-T/F 526 12-08-2014 19:45:00 20.8 C 10.86 g/m*3 20.8 C 4.8 km/h
527 12-08-2014 19:50:00 20.8 C 10.86 g/m*3 20.8 C 11.3 km/h
528 12-08-2014 19:55:00 20.7 C 11.52 g/m*3 20.7 C 1.6 km/h
529 12-08-2014 20:00:00 20.3 C 11.96 g/m*3 20.3 C 1.6 km/h
530 12-08-2014 20:05:00 19.8 C 11.79 g/m*3 19.8 C 1.6 km/h
531 12-08-2014 20:10:00 19.3 C 11.94 g/m*3 19.3 C 1.6 km/h
532 12-08-2014 20:15:00 19 C 10.92 g/m*3 19 C 1.6 km/h
533 12-08-2014 20:20:00 18.7 C 11.69 g/m*3 18.7 C 3.2 km/h
534 12-08-2014 20:25:00 18.3 C 11.41 g/m*3 18.3 C 1.6 km/h
535 12-08-2014 20:30:00 18 C 11.52 g/m*3 18 C 1.6 km/h
536 12-08-2014 20:35:00 17.8 C 10.78 g/m*3 17.8 C 1.6 km/h
537 12-08-2014 20:40:00 17.8 C 11.38 g/m*3 17.8 C 1.6 km/h
538 12-08-2014 20:45:00 17.6 C 11.1 g/m*3 17.6 C 3.2 km/h
539 12-08-2014 20:50:00 17.6 C 11.1 g/m*3 17.6 C 3.2 km/h
540 12-08-2014 20:55:00 17.4 C 10.37 g/m*3 17.4 C 1.6 km/h
541 12-08-2014 21:00:00 17.3 C 11.05 g/m*3 17.3 C 1.6 km/h
542 12-08-2014 21:05:00 17.2 C 11.13 g/m*3 17.2 C 1.6 km/h
543 12-08-2014 21:10:00 17.1 C 11.06 g/m*3 17.1 C 1.6 km/h
544 12-08-2014 21:15:00 17.1 C 10.48 g/m*3 17.1 C 3.2 km/h
545 12-08-2014 21:20:00 17.3 C 11.05 g/m*3 17.3 C 1.6 km/h
546 12-08-2014 21:25:00 17.4 C 11.12 g/m*3 17.4 C 0 km/h
547 12-08-2014 21:30:00 17.3 C 10.75 g/m*3 17.3 C 1.6 km/h
548 12-08-2014 21:35:00 17.3 C 11.34 g/m*3 17.3 C 0 km/h
549 12-08-2014 21:40:00 17.2 C 11.42 g/m*3 17.2 C 0 km/h
550 12-08-2014 21:45:00 17.1 C 11.35 g/m*3 17.1 C 0 km/h
Sensor: Nr:Datum:Temp:Abs-Feuchte:Windchill:Wind:
Aussen-T/F 551 12-08-2014 21:50:00 16.9 C 11.36 g/m*3 16.9 C 0 km/h
552 12-08-2014 21:55:00 16.8 C 11.29 g/m*3 16.8 C 0 km/h
553 12-08-2014 22:00:00 16.7 C 11.37 g/m*3 16.7 C 0 km/h
554 12-08-2014 22:05:00 16.7 C 11.37 g/m*3 16.7 C 0 km/h
555 12-08-2014 22:10:00 16.6 C 11.16 g/m*3 16.6 C 0 km/h
556 12-08-2014 22:15:00 16.7 C 10.8 g/m*3 16.7 C 0 km/h
557 12-08-2014 22:20:00 16.8 C 10.58 g/m*3 16.8 C 0 km/h
558 12-08-2014 22:25:00 16.8 C 11.01 g/m*3 16.8 C 0 km/h
559 12-08-2014 22:30:00 16.6 C 10.74 g/m*3 16.6 C 0 km/h
560 12-08-2014 22:35:00 16.4 C 10.61 g/m*3 16.4 C 0 km/h
561 12-08-2014 22:40:00 16.3 C 10.68 g/m*3 16.3 C 0 km/h
562 12-08-2014 22:45:00 16.1 C 10.69 g/m*3 16.1 C 0 km/h
563 12-08-2014 22:50:00 15.7 C 10.57 g/m*3 15.7 C 0 km/h
564 12-08-2014 22:55:00 15.6 C 10.77 g/m*3 15.6 C 0 km/h
565 12-08-2014 23:00:00 15.3 C 10.45 g/m*3 15.3 C 0 km/h
566 12-08-2014 23:05:00 15.3 C 10.71 g/m*3 15.3 C 0 km/h
567 12-08-2014 23:10:00 15.2 C 10.51 g/m*3 15.2 C 0 km/h
568 12-08-2014 23:15:00 15.2 C 10.77 g/m*3 15.2 C 0 km/h
569 12-08-2014 23:20:00 15.2 C 10.64 g/m*3 15.2 C 0 km/h
570 12-08-2014 23:25:00 15.2 C 10.77 g/m*3 15.2 C 0 km/h
571 12-08-2014 23:30:00 15.1 C 10.71 g/m*3 15.1 C 0 km/h
572 12-08-2014 23:35:00 14.9 C 10.45 g/m*3 14.9 C 0 km/h
573 12-08-2014 23:40:00 14.9 C 10.58 g/m*3 14.9 C 0 km/h
574 12-08-2014 23:45:00 14.8 C 10.64 g/m*3 14.8 C 0 km/h
575 12-08-2014 23:50:00 14.8 C 10.77 g/m*3 14.8 C 0 km/h
Sensor: Nr:Datum:Temp:Abs-Feuchte:Windchill:Wind:
Aussen-T/F 576 12-08-2014 23:55:00 14.8 C 10.64 g/m*3 14.8 C 0 km/h
577 13-08-2014 00:00:00 14.7 C 10.7 g/m*3 14.7 C 0 km/h
578 13-08-2014 00:05:00 14.7 C 10.83 g/m*3 14.7 C 0 km/h
579 13-08-2014 00:10:00 14.7 C 10.95 g/m*3 14.7 C 0 km/h
580 13-08-2014 00:15:00 14.6 C 10.89 g/m*3 14.6 C 0 km/h
581 13-08-2014 00:20:00 14.5 C 10.82 g/m*3 14.5 C 0 km/h
582 13-08-2014 00:25:00 14.4 C 10.88 g/m*3 14.4 C 0 km/h
583 13-08-2014 00:30:00 14.3 C 10.81 g/m*3 14.3 C 0 km/h
584 13-08-2014 00:35:00 14.2 C 10.75 g/m*3 14.2 C 0 km/h
585 13-08-2014 00:40:00 14.1 C 10.8 g/m*3 14.1 C 0 km/h
586 13-08-2014 00:45:00 14 C 10.74 g/m*3 14 C 0 km/h
587 13-08-2014 00:50:00 13.9 C 10.67 g/m*3 13.9 C 0 km/h
588 13-08-2014 00:55:00 13.9 C 10.79 g/m*3 13.9 C 0 km/h
589 13-08-2014 01:00:00 13.8 C 10.72 g/m*3 13.8 C 0 km/h
590 13-08-2014 01:05:00 13.8 C 10.72 g/m*3 13.8 C 0 km/h
591 13-08-2014 01:10:00 13.9 C 10.79 g/m*3 13.9 C 0 km/h
592 13-08-2014 01:15:00 13.9 C 10.79 g/m*3 13.9 C 0 km/h
593 13-08-2014 01:20:00 14 C 10.98 g/m*3 14 C 0 km/h
594 13-08-2014 01:25:00 14.1 C 11.04 g/m*3 14.1 C 0 km/h
595 13-08-2014 01:30:00 14.2 C 10.99 g/m*3 14.2 C 0 km/h
596 13-08-2014 01:35:00 14.2 C 10.99 g/m*3 14.2 C 0 km/h
597 13-08-2014 01:40:00 14.3 C 11.06 g/m*3 14.3 C 0 km/h
598 13-08-2014 01:45:00 14.3 C 11.06 g/m*3 14.3 C 0 km/h
599 13-08-2014 01:50:00 14.3 C 11.06 g/m*3 14.3 C 0 km/h
600 13-08-2014 01:55:00 14.3 C 10.93 g/m*3 14.3 C 0 km/h
Sensor: Nr:Datum:Temp:Abs-Feuchte:Windchill:Wind:
Aussen-T/F 601 13-08-2014 02:00:00 14.2 C 10.87 g/m*3 14.2 C 0 km/h
602 13-08-2014 02:05:00 14.1 C 10.8 g/m*3 14.1 C 0 km/h
603 13-08-2014 02:10:00 14 C 10.86 g/m*3 14 C 0 km/h
604 13-08-2014 02:15:00 13.8 C 10.72 g/m*3 13.8 C 0 km/h
605 13-08-2014 02:20:00 13.8 C 10.84 g/m*3 13.8 C 0 km/h
606 13-08-2014 02:25:00 13.8 C 10.96 g/m*3 13.8 C 0 km/h
607 13-08-2014 02:30:00 13.8 C 10.96 g/m*3 13.8 C 0 km/h
608 13-08-2014 02:35:00 13.9 C 11.03 g/m*3 13.9 C 0 km/h
609 13-08-2014 02:40:00 13.9 C 11.03 g/m*3 13.9 C 0 km/h
610 13-08-2014 02:45:00 14 C 11.1 g/m*3 14 C 0 km/h
611 13-08-2014 02:50:00 14.1 C 11.17 g/m*3 14.1 C 0 km/h
612 13-08-2014 02:55:00 14.1 C 11.04 g/m*3 14.1 C 0 km/h
613 13-08-2014 03:00:00 14.2 C 11.11 g/m*3 14.2 C 0 km/h
614 13-08-2014 03:05:00 14.2 C 11.11 g/m*3 14.2 C 0 km/h
615 13-08-2014 03:10:00 14.2 C 11.11 g/m*3 14.2 C 0 km/h
616 13-08-2014 03:15:00 14.2 C 10.99 g/m*3 14.2 C 0 km/h
617 13-08-2014 03:20:00 14.2 C 10.99 g/m*3 14.2 C 0 km/h
618 13-08-2014 03:25:00 14.2 C 11.11 g/m*3 14.2 C 0 km/h
619 13-08-2014 03:30:00 14.1 C 11.04 g/m*3 14.1 C 0 km/h
620 13-08-2014 03:35:00 14 C 10.98 g/m*3 14 C 0 km/h
621 13-08-2014 03:40:00 13.9 C 10.91 g/m*3 13.9 C 0 km/h
622 13-08-2014 03:45:00 13.9 C 10.91 g/m*3 13.9 C 0 km/h
623 13-08-2014 03:50:00 13.9 C 10.91 g/m*3 13.9 C 0 km/h
624 13-08-2014 03:55:00 13.9 C 10.91 g/m*3 13.9 C 0 km/h
625 13-08-2014 04:00:00 13.9 C 10.91 g/m*3 13.9 C 0 km/h
Sensor: Nr:Datum:Temp:Abs-Feuchte:Windchill:Wind:
Aussen-T/F 626 13-08-2014 04:05:00 14.1 C 11.04 g/m*3 14.1 C 0 km/h
627 13-08-2014 04:10:00 14.1 C 11.04 g/m*3 14.1 C 0 km/h
628 13-08-2014 04:15:00 14.1 C 11.04 g/m*3 14.1 C 0 km/h
629 13-08-2014 04:20:00 14.2 C 10.99 g/m*3 14.2 C 0 km/h
630 13-08-2014 04:25:00 14.2 C 10.99 g/m*3 14.2 C 0 km/h
631 13-08-2014 04:30:00 14.2 C 10.99 g/m*3 14.2 C 0 km/h
632 13-08-2014 04:35:00 14.2 C 10.99 g/m*3 14.2 C 0 km/h
633 13-08-2014 04:40:00 14.2 C 10.99 g/m*3 14.2 C 0 km/h
634 13-08-2014 04:45:00 14.1 C 10.92 g/m*3 14.1 C 0 km/h
635 13-08-2014 04:50:00 14.1 C 11.04 g/m*3 14.1 C 0 km/h
636 13-08-2014 04:55:00 14.1 C 11.04 g/m*3 14.1 C 0 km/h
637 13-08-2014 05:00:00 14.1 C 11.04 g/m*3 14.1 C 0 km/h
638 13-08-2014 05:05:00 14.2 C 11.11 g/m*3 14.2 C 0 km/h
639 13-08-2014 05:10:00 14.2 C 11.11 g/m*3 14.2 C 0 km/h
640 13-08-2014 05:15:00 14.2 C 11.11 g/m*3 14.2 C 0 km/h
641 13-08-2014 05:20:00 14.2 C 11.11 g/m*3 14.2 C 0 km/h
642 13-08-2014 05:25:00 14.2 C 11.11 g/m*3 14.2 C 0 km/h
643 13-08-2014 05:30:00 14.1 C 11.04 g/m*3 14.1 C 0 km/h
644 13-08-2014 05:35:00 14.1 C 11.04 g/m*3 14.1 C 0 km/h
645 13-08-2014 05:40:00 14.1 C 11.04 g/m*3 14.1 C 0 km/h
646 13-08-2014 05:45:00 14.1 C 11.04 g/m*3 14.1 C 0 km/h
647 13-08-2014 05:50:00 14 C 10.98 g/m*3 14 C 0 km/h
648 13-08-2014 05:55:00 13.9 C 10.91 g/m*3 13.9 C 0 km/h
649 13-08-2014 06:00:00 13.8 C 10.96 g/m*3 13.8 C 0 km/h
650 13-08-2014 06:05:00 13.8 C 10.96 g/m*3 13.8 C 0 km/h
Sensor: Nr:Datum:Temp:Abs-Feuchte:Windchill:Wind:
Aussen-T/F 651 13-08-2014 06:10:00 13.7 C 10.89 g/m*3 13.7 C 0 km/h
652 13-08-2014 06:15:00 13.6 C 10.83 g/m*3 13.6 C 0 km/h
653 13-08-2014 06:20:00 13.6 C 10.83 g/m*3 13.6 C 0 km/h
654 13-08-2014 06:25:00 13.5 C 10.76 g/m*3 13.5 C 0 km/h
655 13-08-2014 06:30:00 13.4 C 10.81 g/m*3 13.4 C 0 km/h
656 13-08-2014 06:35:00 13.5 C 10.88 g/m*3 13.5 C 0 km/h
657 13-08-2014 06:40:00 13.5 C 10.88 g/m*3 13.5 C 0 km/h
658 13-08-2014 06:45:00 13.6 C 10.95 g/m*3 13.6 C 0 km/h
659 13-08-2014 06:50:00 13.7 C 11.01 g/m*3 13.7 C 0 km/h
660 13-08-2014 06:55:00 13.7 C 11.01 g/m*3 13.7 C 0 km/h
661 13-08-2014 07:00:00 13.8 C 11.08 g/m*3 13.8 C 0 km/h
662 13-08-2014 07:05:00 13.9 C 11.15 g/m*3 13.9 C 0 km/h
663 13-08-2014 07:10:00 13.9 C 11.15 g/m*3 13.9 C 0 km/h
664 13-08-2014 07:15:00 14 C 11.22 g/m*3 14 C 0 km/h
665 13-08-2014 07:20:00 14 C 11.22 g/m*3 14 C 0 km/h
666 13-08-2014 07:25:00 14 C 11.22 g/m*3 14 C 0 km/h
667 13-08-2014 07:30:00 13.9 C 11.15 g/m*3 13.9 C 0 km/h
668 13-08-2014 07:35:00 14 C 11.22 g/m*3 14 C 0 km/h
669 13-08-2014 07:40:00 14 C 11.22 g/m*3 14 C 0 km/h
670 13-08-2014 07:45:00 14.1 C 11.41 g/m*3 14.1 C 0 km/h
671 13-08-2014 07:50:00 14.2 C 11.48 g/m*3 14.2 C 0 km/h
672 13-08-2014 07:55:00 14.2 C 11.48 g/m*3 14.2 C 0 km/h
673 13-08-2014 08:00:00 14.3 C 11.55 g/m*3 14.3 C 0 km/h
674 13-08-2014 08:05:00 14.4 C 11.5 g/m*3 14.4 C 0 km/h
675 13-08-2014 08:10:00 14.6 C 11.51 g/m*3 14.6 C 0 km/h
Sensor: Nr:Datum:Temp:Abs-Feuchte:Windchill:Wind:
Aussen-T/F 676 13-08-2014 08:15:00 14.7 C 11.58 g/m*3 14.7 C 0 km/h
677 13-08-2014 08:20:00 14.9 C 11.73 g/m*3 14.9 C 0 km/h
678 13-08-2014 08:25:00 15.1 C 11.74 g/m*3 15.1 C 0 km/h
679 13-08-2014 08:30:00 15.2 C 11.68 g/m*3 15.2 C 0 km/h
680 13-08-2014 08:35:00 15.3 C 11.62 g/m*3 15.3 C 0 km/h
681 13-08-2014 08:40:00 15.3 C 11.62 g/m*3 15.3 C 0 km/h
682 13-08-2014 08:45:00 15.3 C 11.75 g/m*3 15.3 C 0 km/h
683 13-08-2014 08:50:00 15.3 C 11.88 g/m*3 15.3 C 0 km/h
684 13-08-2014 08:55:00 15.4 C 11.96 g/m*3 15.4 C 0 km/h
685 13-08-2014 09:00:00 15.4 C 12.09 g/m*3 15.4 C 0 km/h
686 13-08-2014 09:05:00 15.7 C 12.18 g/m*3 15.7 C 0 km/h
687 13-08-2014 09:10:00 15.9 C 12.19 g/m*3 15.9 C 0 km/h
688 13-08-2014 09:15:00 16.2 C 12 g/m*3 16.2 C 0 km/h
689 13-08-2014 09:20:00 16.6 C 12.29 g/m*3 16.6 C 0 km/h
690 13-08-2014 09:25:00 16.8 C 12.3 g/m*3 16.8 C 0 km/h
691 13-08-2014 09:30:00 16.9 C 12.08 g/m*3 16.9 C 0 km/h
692 13-08-2014 09:35:00 17.2 C 12.15 g/m*3 17.2 C 0 km/h
693 13-08-2014 09:40:00 17.3 C 12.08 g/m*3 17.3 C 0 km/h
694 13-08-2014 09:45:00 17.4 C 12.15 g/m*3 17.4 C 0 km/h
695 13-08-2014 09:50:00 17.5 C 12.23 g/m*3 17.5 C 0 km/h
696 13-08-2014 09:55:00 17.6 C 12 g/m*3 17.6 C 0 km/h
697 13-08-2014 10:00:00 17.7 C 12.07 g/m*3 17.7 C 0 km/h
698 13-08-2014 10:05:00 17.7 C 12.07 g/m*3 17.7 C 0 km/h
699 13-08-2014 10:10:00 17.8 C 12.29 g/m*3 17.8 C 0 km/h
700 13-08-2014 10:15:00 17.9 C 12.06 g/m*3 17.9 C 0 km/h
Sensor: Nr:Datum:Temp:Abs-Feuchte:Windchill:Wind:
Aussen-T/F 701 13-08-2014 10:20:00 18.1 C 12.36 g/m*3 18.1 C 0 km/h
702 13-08-2014 10:25:00 18.2 C 12.28 g/m*3 18.2 C 4.8 km/h
703 13-08-2014 10:30:00 18.3 C 12.35 g/m*3 18.3 C 6.4 km/h
704 13-08-2014 10:35:00 18.6 C 12.57 g/m*3 18.6 C 6.4 km/h
705 13-08-2014 10:40:00 18.7 C 12.01 g/m*3 18.7 C 6.4 km/h
706 13-08-2014 10:45:00 18.8 C 12.24 g/m*3 18.8 C 8.1 km/h
707 13-08-2014 10:50:00 19 C 12.06 g/m*3 19 C 8.1 km/h
708 13-08-2014 10:55:00 19.1 C 12.13 g/m*3 19.1 C 4.8 km/h
709 13-08-2014 11:00:00 19.2 C 12.37 g/m*3 19.2 C 6.4 km/h
710 13-08-2014 11:05:00 19.2 C 12.37 g/m*3 19.2 C 3.2 km/h
711 13-08-2014 11:10:00 19.3 C 12.44 g/m*3 19.3 C 4.8 km/h
712 13-08-2014 11:15:00 19.4 C 12.51 g/m*3 19.4 C 4.8 km/h
713 13-08-2014 11:20:00 19.6 C 12.32 g/m*3 19.6 C 6.4 km/h
714 13-08-2014 11:25:00 19.7 C 12.57 g/m*3 19.7 C 4.8 km/h
715 13-08-2014 11:30:00 19.7 C 12.57 g/m*3 19.7 C 4.8 km/h
716 13-08-2014 11:35:00 19.6 C 12.49 g/m*3 19.6 C 8.1 km/h
717 13-08-2014 11:40:00 19.6 C 12.49 g/m*3 19.6 C 1.6 km/h
718 13-08-2014 11:45:00 19.6 C 12.83 g/m*3 19.6 C 0 km/h
719 13-08-2014 11:50:00 19.6 C 12.49 g/m*3 19.6 C 0 km/h
720 13-08-2014 11:55:00 19.6 C 12.66 g/m*3 19.6 C 0 km/h
721 13-08-2014 12:00:00 19.4 C 12.51 g/m*3 19.4 C 1.6 km/h
722 13-08-2014 12:05:00 19.4 C 12.68 g/m*3 19.4 C 1.6 km/h
723 13-08-2014 12:10:00 19.4 C 12.51 g/m*3 19.4 C 0 km/h
724 13-08-2014 12:15:00 19.5 C 12.75 g/m*3 19.5 C 0 km/h
725 13-08-2014 12:20:00 19.6 C 12.66 g/m*3 19.6 C 4.8 km/h
Sensor: Nr:Datum:Temp:Abs-Feuchte:Windchill:Wind:
Aussen-T/F 726 13-08-2014 12:25:00 19.8 C 12.47 g/m*3 19.8 C 0 km/h
727 13-08-2014 12:30:00 20 C 12.96 g/m*3 20 C 0 km/h
728 13-08-2014 12:35:00 20.2 C 12.76 g/m*3 20.2 C 6.4 km/h
729 13-08-2014 12:40:00 20.1 C 12.34 g/m*3 20.1 C 4.8 km/h
730 13-08-2014 12:45:00 20.1 C 12.52 g/m*3 20.1 C 4.8 km/h
731 13-08-2014 12:50:00 20.2 C 12.94 g/m*3 20.2 C 4.8 km/h
732 13-08-2014 12:55:00 20.2 C 12.94 g/m*3 20.2 C 4.8 km/h
733 13-08-2014 13:00:00 20.1 C 12.69 g/m*3 20.1 C 6.4 km/h
734 13-08-2014 13:05:00 20.1 C 13.04 g/m*3 20.1 C 4.8 km/h
735 13-08-2014 13:10:00 20.1 C 12.86 g/m*3 20.1 C 0 km/h
736 13-08-2014 13:15:00 20.1 C 13.21 g/m*3 20.1 C 0 km/h
737 13-08-2014 13:20:00 19.9 C 12.89 g/m*3 19.9 C 0 km/h
738 13-08-2014 13:25:00 19.8 C 13.84 g/m*3 19.8 C 0 km/h
739 13-08-2014 13:30:00 19.6 C 13.67 g/m*3 19.6 C 0 km/h
740 13-08-2014 13:35:00 19.3 C 13.6 g/m*3 19.3 C 0 km/h
741 13-08-2014 13:40:00 19 C 13.53 g/m*3 19 C 0 km/h
742 13-08-2014 13:45:00 18.7 C 13.61 g/m*3 18.7 C 0 km/h
743 13-08-2014 13:50:00 18.6 C 13.85 g/m*3 18.6 C 0 km/h
744 13-08-2014 13:55:00 18.5 C 13.77 g/m*3 18.5 C 0 km/h
745 13-08-2014 14:00:00 18.6 C 14.17 g/m*3 18.6 C 0 km/h
746 13-08-2014 14:05:00 18.6 C 13.37 g/m*3 18.6 C 0 km/h
747 13-08-2014 14:10:00 18.8 C 14.17 g/m*3 18.8 C 0 km/h
748 13-08-2014 14:15:00 18.8 C 14.17 g/m*3 18.8 C 0 km/h
749 13-08-2014 14:20:00 18.9 C 14.26 g/m*3 18.9 C 0 km/h
750 13-08-2014 14:25:00 19 C 14.34 g/m*3 19 C 0 km/h
Sensor: Nr:Datum:Temp:Abs-Feuchte:Windchill:Wind:
Aussen-T/F 751 13-08-2014 14:30:00 18.9 C 14.26 g/m*3 18.9 C 0 km/h
752 13-08-2014 14:35:00 18.8 C 14.17 g/m*3 18.8 C 0 km/h
753 13-08-2014 14:40:00 18.7 C 14.25 g/m*3 18.7 C 0 km/h
754 13-08-2014 14:45:00 18.6 C 14.32 g/m*3 18.6 C 0 km/h
755 13-08-2014 14:50:00 18.6 C 14.32 g/m*3 18.6 C 0 km/h
756 13-08-2014 14:55:00 18.5 C 14.24 g/m*3 18.5 C 0 km/h
757 13-08-2014 15:00:00 18.4 C 14.16 g/m*3 18.4 C 0 km/h
758 13-08-2014 15:05:00 18.3 C 14.23 g/m*3 18.3 C 0 km/h
759 13-08-2014 15:10:00 18.3 C 14.23 g/m*3 18.3 C 0 km/h
760 13-08-2014 15:15:00 18.2 C 14.3 g/m*3 18.2 C 0 km/h
761 13-08-2014 15:20:00 18.1 C 14.21 g/m*3 18.1 C 0 km/h
762 13-08-2014 15:25:00 18 C 14.13 g/m*3 18 C 0 km/h
763 13-08-2014 15:30:00 17.9 C 14.2 g/m*3 17.9 C 0 km/h
764 13-08-2014 15:35:00 17.8 C 14.12 g/m*3 17.8 C 0 km/h
765 13-08-2014 15:40:00 17.7 C 14.03 g/m*3 17.7 C 0 km/h
766 13-08-2014 15:45:00 17.7 C 14.18 g/m*3 17.7 C 0 km/h
767 13-08-2014 15:50:00 17.7 C 14.18 g/m*3 17.7 C 0 km/h
768 13-08-2014 15:55:00 17.7 C 14.03 g/m*3 17.7 C 0 km/h
769 13-08-2014 16:00:00 17.6 C 14.1 g/m*3 17.6 C 0 km/h
770 13-08-2014 16:05:00 17.6 C 13.95 g/m*3 17.6 C 0 km/h
771 13-08-2014 16:10:00 17.5 C 13.87 g/m*3 17.5 C 0 km/h
772 13-08-2014 16:15:00 17.4 C 13.78 g/m*3 17.4 C 0 km/h
773 13-08-2014 16:20:00 17.3 C 13.55 g/m*3 17.3 C 0 km/h
774 13-08-2014 16:25:00 17.2 C 13.47 g/m*3 17.2 C 0 km/h
775 13-08-2014 16:30:00 17.2 C 13.62 g/m*3 17.2 C 0 km/h
Sensor: Nr:Datum:Temp:Abs-Feuchte:Windchill:Wind:
Aussen-T/F 776 13-08-2014 16:35:00 17.1 C 13.54 g/m*3 17.1 C 0 km/h
777 13-08-2014 16:40:00 17 C 13.46 g/m*3 17 C 0 km/h
778 13-08-2014 16:45:00 16.8 C 13.15 g/m*3 16.8 C 0 km/h
779 13-08-2014 16:50:00 16.7 C 13.07 g/m*3 16.7 C 0 km/h
780 13-08-2014 16:55:00 16.6 C 13 g/m*3 16.6 C 8.1 km/h
781 13-08-2014 17:00:00 16.4 C 12.84 g/m*3 16.4 C 11.3 km/h
782 13-08-2014 17:05:00 16.3 C 12.76 g/m*3 16.3 C 8.1 km/h
783 13-08-2014 17:10:00 16.2 C 12.69 g/m*3 16.2 C 4.8 km/h
784 13-08-2014 17:15:00 16 C 12.67 g/m*3 16 C 14.5 km/h
785 13-08-2014 17:20:00 15.8 C 12.52 g/m*3 15.8 C 8.1 km/h
786 13-08-2014 17:25:00 15.7 C 12.44 g/m*3 15.7 C 8.1 km/h
787 13-08-2014 17:30:00 15.6 C 12.5 g/m*3 15.6 C 1.6 km/h
788 13-08-2014 17:35:00 15.7 C 12.58 g/m*3 15.7 C 3.2 km/h
789 13-08-2014 17:40:00 15.6 C 12.5 g/m*3 15.6 C 0 km/h
790 13-08-2014 17:45:00 15.6 C 12.63 g/m*3 15.6 C 0 km/h
791 13-08-2014 17:50:00 15.6 C 12.63 g/m*3 15.6 C 0 km/h
792 13-08-2014 17:55:00 15.7 C 12.71 g/m*3 15.7 C 0 km/h
793 13-08-2014 18:00:00 15.7 C 12.71 g/m*3 15.7 C 0 km/h
794 13-08-2014 18:05:00 15.7 C 12.71 g/m*3 15.7 C 0 km/h
795 13-08-2014 18:10:00 15.7 C 12.71 g/m*3 15.7 C 0 km/h
796 13-08-2014 18:15:00 15.7 C 12.84 g/m*3 15.7 C 0 km/h
797 13-08-2014 18:20:00 15.7 C 12.84 g/m*3 15.7 C 0 km/h
798 13-08-2014 18:25:00 15.7 C 12.84 g/m*3 15.7 C 0 km/h
799 13-08-2014 18:30:00 15.7 C 12.84 g/m*3 15.7 C 0 km/h
800 13-08-2014 18:35:00 15.7 C 12.84 g/m*3 15.7 C 0 km/h
Sensor: Nr:Datum:Temp:Abs-Feuchte:Windchill:Wind:
Aussen-T/F 801 13-08-2014 18:40:00 15.7 C 12.84 g/m*3 15.7 C 0 km/h
802 13-08-2014 18:45:00 15.7 C 12.84 g/m*3 15.7 C 0 km/h
803 13-08-2014 18:50:00 15.6 C 12.77 g/m*3 15.6 C 0 km/h
804 13-08-2014 18:55:00 15.6 C 12.77 g/m*3 15.6 C 0 km/h
805 13-08-2014 19:00:00 15.6 C 12.77 g/m*3 15.6 C 0 km/h
806 13-08-2014 19:05:00 15.7 C 12.84 g/m*3 15.7 C 0 km/h
807 13-08-2014 19:10:00 15.7 C 12.84 g/m*3 15.7 C 0 km/h
808 13-08-2014 19:15:00 15.8 C 12.92 g/m*3 15.8 C 0 km/h
809 13-08-2014 19:20:00 15.8 C 12.92 g/m*3 15.8 C 0 km/h
810 13-08-2014 19:25:00 15.8 C 12.92 g/m*3 15.8 C 0 km/h
811 13-08-2014 19:30:00 15.8 C 12.92 g/m*3 15.8 C 0 km/h
812 13-08-2014 19:35:00 15.7 C 12.84 g/m*3 15.7 C 0 km/h
813 13-08-2014 19:40:00 15.7 C 12.84 g/m*3 15.7 C 0 km/h
814 13-08-2014 19:45:00 15.7 C 12.84 g/m*3 15.7 C 0 km/h
815 13-08-2014 19:50:00 15.6 C 12.77 g/m*3 15.6 C 0 km/h
816 13-08-2014 19:55:00 15.6 C 12.9 g/m*3 15.6 C 0 km/h
817 13-08-2014 20:00:00 15.6 C 12.9 g/m*3 15.6 C 0 km/h
818 13-08-2014 20:05:00 15.5 C 12.82 g/m*3 15.5 C 0 km/h
819 13-08-2014 20:10:00 15.5 C 12.69 g/m*3 15.5 C 0 km/h
820 13-08-2014 20:15:00 15.5 C 12.82 g/m*3 15.5 C 0 km/h
821 13-08-2014 20:20:00 15.6 C 12.9 g/m*3 15.6 C 0 km/h
822 13-08-2014 20:25:00 15.6 C 12.9 g/m*3 15.6 C 0 km/h
823 13-08-2014 20:30:00 15.7 C 12.98 g/m*3 15.7 C 0 km/h
824 13-08-2014 20:35:00 15.7 C 12.98 g/m*3 15.7 C 0 km/h
825 13-08-2014 20:40:00 15.7 C 12.98 g/m*3 15.7 C 0 km/h
Sensor: Nr:Datum:Temp:Abs-Feuchte:Windchill:Wind:
Aussen-T/F 826 13-08-2014 20:45:00 15.7 C 12.98 g/m*3 15.7 C 0 km/h
827 13-08-2014 20:50:00 15.6 C 12.9 g/m*3 15.6 C 0 km/h
828 13-08-2014 20:55:00 15.5 C 12.82 g/m*3 15.5 C 0 km/h
829 13-08-2014 21:00:00 15.4 C 12.74 g/m*3 15.4 C 0 km/h
830 13-08-2014 21:05:00 15.4 C 12.74 g/m*3 15.4 C 0 km/h
831 13-08-2014 21:10:00 15.3 C 12.67 g/m*3 15.3 C 0 km/h
832 13-08-2014 21:15:00 15.3 C 12.67 g/m*3 15.3 C 0 km/h
833 13-08-2014 21:20:00 15.3 C 12.67 g/m*3 15.3 C 0 km/h
834 13-08-2014 21:25:00 15.3 C 12.67 g/m*3 15.3 C 1.6 km/h
835 13-08-2014 21:30:00 15.3 C 12.67 g/m*3 15.3 C 0 km/h
836 13-08-2014 21:35:00 15.3 C 12.54 g/m*3 15.3 C 0 km/h
837 13-08-2014 21:40:00 15.3 C 12.54 g/m*3 15.3 C 0 km/h
838 13-08-2014 21:45:00 15.2 C 12.46 g/m*3 15.2 C 0 km/h
839 13-08-2014 21:50:00 15.2 C 12.46 g/m*3 15.2 C 0 km/h
840 13-08-2014 21:55:00 15.1 C 12.26 g/m*3 15.1 C 0 km/h
841 13-08-2014 22:00:00 15.1 C 12.26 g/m*3 15.1 C 0 km/h
842 13-08-2014 22:05:00 15.1 C 12.26 g/m*3 15.1 C 0 km/h
843 13-08-2014 22:10:00 15 C 12.18 g/m*3 15 C 0 km/h
844 13-08-2014 22:15:00 15.1 C 12.26 g/m*3 15.1 C 0 km/h
845 13-08-2014 22:20:00 15.1 C 12.26 g/m*3 15.1 C 0 km/h
846 13-08-2014 22:25:00 15.2 C 12.33 g/m*3 15.2 C 0 km/h
847 13-08-2014 22:30:00 15.2 C 12.33 g/m*3 15.2 C 0 km/h
848 13-08-2014 22:35:00 15.2 C 12.33 g/m*3 15.2 C 0 km/h
849 13-08-2014 22:40:00 15.2 C 12.33 g/m*3 15.2 C 0 km/h
850 13-08-2014 22:45:00 15.2 C 12.33 g/m*3 15.2 C 0 km/h
Sensor: Nr:Datum:Temp:Abs-Feuchte:Windchill:Wind:
Aussen-T/F 851 13-08-2014 22:50:00 15.1 C 12.26 g/m*3 15.1 C 0 km/h
852 13-08-2014 22:55:00 15.1 C 12.26 g/m*3 15.1 C 0 km/h
853 13-08-2014 23:00:00 15.1 C 12.26 g/m*3 15.1 C 0 km/h
854 13-08-2014 23:05:00 15.1 C 12.26 g/m*3 15.1 C 0 km/h
855 13-08-2014 23:10:00 15.2 C 12.33 g/m*3 15.2 C 12.9 km/h
856 13-08-2014 23:15:00 15.2 C 12.33 g/m*3 15.2 C 1.6 km/h
857 13-08-2014 23:20:00 15.2 C 12.33 g/m*3 15.2 C 9.7 km/h
858 13-08-2014 23:25:00 15.2 C 12.33 g/m*3 15.2 C 9.7 km/h
859 13-08-2014 23:30:00 15.2 C 12.2 g/m*3 15.2 C 3.2 km/h
860 13-08-2014 23:35:00 15.2 C 12.2 g/m*3 15.2 C 6.4 km/h
861 13-08-2014 23:40:00 15.1 C 12.13 g/m*3 15.1 C 6.4 km/h
862 13-08-2014 23:45:00 15.1 C 12.13 g/m*3 15.1 C 3.2 km/h
863 13-08-2014 23:50:00 15.1 C 12.13 g/m*3 15.1 C 3.2 km/h
864 13-08-2014 23:55:00 15.1 C 12.13 g/m*3 15.1 C 3.2 km/h
865 14-08-2014 00:00:00 15.1 C 12.13 g/m*3 15.1 C 3.2 km/h
866 14-08-2014 00:05:00 15.1 C 12 g/m*3 15.1 C 4.8 km/h
867 14-08-2014 00:10:00 15.1 C 12 g/m*3 15.1 C 3.2 km/h
868 14-08-2014 00:15:00 15.1 C 12 g/m*3 15.1 C 3.2 km/h
869 14-08-2014 00:20:00 15.1 C 12 g/m*3 15.1 C 8.1 km/h
870 14-08-2014 00:25:00 15 C 11.93 g/m*3 15 C 3.2 km/h
871 14-08-2014 00:30:00 14.9 C 11.85 g/m*3 14.9 C 1.6 km/h
872 14-08-2014 00:35:00 14.8 C 11.78 g/m*3 14.8 C 3.2 km/h
873 14-08-2014 00:40:00 14.8 C 11.78 g/m*3 14.8 C 3.2 km/h
874 14-08-2014 00:45:00 14.8 C 11.78 g/m*3 14.8 C 3.2 km/h
875 14-08-2014 00:50:00 14.8 C 11.78 g/m*3 14.8 C 3.2 km/h
Sensor: Nr:Datum:Temp:Abs-Feuchte:Windchill:Wind:
Aussen-T/F 876 14-08-2014 00:55:00 14.8 C 11.65 g/m*3 14.8 C 4.8 km/h
877 14-08-2014 01:00:00 14.8 C 11.65 g/m*3 14.8 C 4.8 km/h
878 14-08-2014 01:05:00 14.8 C 11.53 g/m*3 14.8 C 6.4 km/h
879 14-08-2014 01:10:00 14.8 C 11.53 g/m*3 14.8 C 4.8 km/h
880 14-08-2014 01:15:00 14.8 C 11.53 g/m*3 14.8 C 3.2 km/h
881 14-08-2014 01:20:00 14.8 C 11.65 g/m*3 14.8 C 3.2 km/h
882 14-08-2014 01:25:00 14.7 C 11.58 g/m*3 14.7 C 3.2 km/h
883 14-08-2014 01:30:00 14.6 C 11.51 g/m*3 14.6 C 1.6 km/h
884 14-08-2014 01:35:00 14.5 C 11.57 g/m*3 14.5 C 0 km/h
885 14-08-2014 01:40:00 14.4 C 11.5 g/m*3 14.4 C 0 km/h
886 14-08-2014 01:45:00 14.3 C 11.43 g/m*3 14.3 C 0 km/h
887 14-08-2014 01:50:00 14.3 C 11.55 g/m*3 14.3 C 0 km/h
888 14-08-2014 01:55:00 14.2 C 11.48 g/m*3 14.2 C 0 km/h
889 14-08-2014 02:00:00 14.1 C 11.41 g/m*3 14.1 C 0 km/h
890 14-08-2014 02:05:00 14.1 C 11.41 g/m*3 14.1 C 0 km/h
891 14-08-2014 02:10:00 14.1 C 11.41 g/m*3 14.1 C 0 km/h
892 14-08-2014 02:15:00 14 C 11.34 g/m*3 14 C 0 km/h
893 14-08-2014 02:20:00 13.9 C 11.39 g/m*3 13.9 C 0 km/h
894 14-08-2014 02:25:00 13.9 C 11.39 g/m*3 13.9 C 0 km/h
895 14-08-2014 02:30:00 13.8 C 11.32 g/m*3 13.8 C 0 km/h
896 14-08-2014 02:35:00 13.8 C 11.32 g/m*3 13.8 C 0 km/h
897 14-08-2014 02:40:00 13.7 C 11.25 g/m*3 13.7 C 0 km/h
898 14-08-2014 02:45:00 13.7 C 11.37 g/m*3 13.7 C 0 km/h
899 14-08-2014 02:50:00 13.6 C 11.18 g/m*3 13.6 C 0 km/h
900 14-08-2014 02:55:00 13.6 C 11.3 g/m*3 13.6 C 0 km/h
Sensor: Nr:Datum:Temp:Abs-Feuchte:Windchill:Wind:
Aussen-T/F 901 14-08-2014 03:00:00 13.5 C 11.23 g/m*3 13.5 C 0 km/h
902 14-08-2014 03:05:00 13.5 C 11.23 g/m*3 13.5 C 0 km/h
903 14-08-2014 03:10:00 13.4 C 11.16 g/m*3 13.4 C 0 km/h
904 14-08-2014 03:15:00 13.4 C 11.16 g/m*3 13.4 C 0 km/h
905 14-08-2014 03:20:00 13.4 C 11.16 g/m*3 13.4 C 0 km/h
906 14-08-2014 03:25:00 13.4 C 11.16 g/m*3 13.4 C 0 km/h
907 14-08-2014 03:30:00 13.3 C 11.09 g/m*3 13.3 C 0 km/h
908 14-08-2014 03:35:00 13.3 C 11.09 g/m*3 13.3 C 0 km/h
909 14-08-2014 03:40:00 13.3 C 11.09 g/m*3 13.3 C 0 km/h
910 14-08-2014 03:45:00 13.3 C 11.09 g/m*3 13.3 C 0 km/h
911 14-08-2014 03:50:00 13.2 C 11.14 g/m*3 13.2 C 0 km/h
912 14-08-2014 03:55:00 13.2 C 11.14 g/m*3 13.2 C 0 km/h
913 14-08-2014 04:00:00 13.1 C 11.07 g/m*3 13.1 C 0 km/h
914 14-08-2014 04:05:00 13.1 C 11.07 g/m*3 13.1 C 0 km/h
915 14-08-2014 04:10:00 13.1 C 11.07 g/m*3 13.1 C 0 km/h
916 14-08-2014 04:15:00 13.2 C 11.14 g/m*3 13.2 C 0 km/h
917 14-08-2014 04:20:00 13.2 C 11.14 g/m*3 13.2 C 0 km/h
918 14-08-2014 04:25:00 13.3 C 11.21 g/m*3 13.3 C 1.6 km/h
919 14-08-2014 04:30:00 13.3 C 11.21 g/m*3 13.3 C 0 km/h
920 14-08-2014 04:35:00 13.3 C 11.21 g/m*3 13.3 C 0 km/h
921 14-08-2014 04:40:00 13.3 C 11.21 g/m*3 13.3 C 0 km/h
922 14-08-2014 04:45:00 13.2 C 11.14 g/m*3 13.2 C 0 km/h
923 14-08-2014 04:50:00 13.2 C 11.14 g/m*3 13.2 C 0 km/h
924 14-08-2014 04:55:00 13.2 C 11.14 g/m*3 13.2 C 0 km/h
925 14-08-2014 05:00:00 13.2 C 11.14 g/m*3 13.2 C 0 km/h
Sensor: Nr:Datum:Temp:Abs-Feuchte:Windchill:Wind:
Aussen-T/F 926 14-08-2014 05:05:00 13.2 C 11.14 g/m*3 13.2 C 0 km/h
927 14-08-2014 05:10:00 13.2 C 11.14 g/m*3 13.2 C 0 km/h
928 14-08-2014 05:15:00 13.2 C 11.14 g/m*3 13.2 C 0 km/h
929 14-08-2014 05:20:00 13.2 C 11.14 g/m*3 13.2 C 0 km/h
930 14-08-2014 05:25:00 13.1 C 11.07 g/m*3 13.1 C 0 km/h
931 14-08-2014 05:30:00 13 C 11 g/m*3 13 C 0 km/h
932 14-08-2014 05:35:00 13 C 11 g/m*3 13 C 0 km/h
933 14-08-2014 05:40:00 13 C 11 g/m*3 13 C 0 km/h
934 14-08-2014 05:45:00 12.9 C 10.93 g/m*3 12.9 C 0 km/h
935 14-08-2014 05:50:00 12.9 C 10.93 g/m*3 12.9 C 0 km/h
936 14-08-2014 05:55:00 12.9 C 10.93 g/m*3 12.9 C 0 km/h
937 14-08-2014 06:00:00 12.9 C 10.93 g/m*3 12.9 C 0 km/h
938 14-08-2014 06:05:00 13 C 11 g/m*3 13 C 0 km/h
939 14-08-2014 06:10:00 13 C 11 g/m*3 13 C 0 km/h
940 14-08-2014 06:15:00 13 C 11 g/m*3 13 C 0 km/h
941 14-08-2014 06:20:00 13 C 11 g/m*3 13 C 0 km/h
942 14-08-2014 06:25:00 12.9 C 10.93 g/m*3 12.9 C 0 km/h
943 14-08-2014 06:30:00 12.9 C 10.93 g/m*3 12.9 C 0 km/h
944 14-08-2014 06:35:00 12.9 C 10.93 g/m*3 12.9 C 0 km/h
945 14-08-2014 06:40:00 12.9 C 10.93 g/m*3 12.9 C 0 km/h
946 14-08-2014 06:45:00 12.9 C 10.93 g/m*3 12.9 C 0 km/h
947 14-08-2014 06:50:00 12.8 C 10.87 g/m*3 12.8 C 0 km/h
948 14-08-2014 06:55:00 12.8 C 10.87 g/m*3 12.8 C 0 km/h
949 14-08-2014 07:00:00 12.9 C 10.93 g/m*3 12.9 C 0 km/h
950 14-08-2014 07:05:00 13.1 C 11.07 g/m*3 13.1 C 0 km/h
Sensor: Nr:Datum:Temp:Abs-Feuchte:Windchill:Wind:
Aussen-T/F 951 14-08-2014 07:10:00 13.2 C 11.14 g/m*3 13.2 C 0 km/h
952 14-08-2014 07:15:00 13.3 C 11.21 g/m*3 13.3 C 0 km/h
953 14-08-2014 07:20:00 13.4 C 11.28 g/m*3 13.4 C 0 km/h
954 14-08-2014 07:25:00 13.5 C 11.35 g/m*3 13.5 C 0 km/h
955 14-08-2014 07:30:00 13.6 C 11.42 g/m*3 13.6 C 1.6 km/h
956 14-08-2014 07:35:00 13.7 C 11.49 g/m*3 13.7 C 0 km/h
957 14-08-2014 07:40:00 13.8 C 11.56 g/m*3 13.8 C 0 km/h
958 14-08-2014 07:45:00 13.9 C 11.51 g/m*3 13.9 C 8.1 km/h
959 14-08-2014 07:50:00 13.9 C 11.39 g/m*3 13.9 C 4.8 km/h
960 14-08-2014 07:55:00 14.1 C 11.41 g/m*3 14.1 C 6.4 km/h
961 14-08-2014 08:00:00 14.2 C 11.36 g/m*3 14.2 C 1.6 km/h
962 14-08-2014 08:05:00 14.4 C 11.25 g/m*3 14.4 C 8.1 km/h
963 14-08-2014 08:10:00 14.7 C 11.33 g/m*3 14.7 C 6.4 km/h
964 14-08-2014 08:15:00 14.8 C 11.4 g/m*3 14.8 C 4.8 km/h
965 14-08-2014 08:20:00 14.9 C 11.34 g/m*3 14.9 C 8.1 km/h
966 14-08-2014 08:25:00 15 C 11.41 g/m*3 15 C 12.9 km/h
967 14-08-2014 08:30:00 15.1 C 11.35 g/m*3 15.1 C 12.9 km/h
968 14-08-2014 08:35:00 15.1 C 11.35 g/m*3 15.1 C 1.6 km/h
969 14-08-2014 08:40:00 15 C 11.28 g/m*3 15 C 6.4 km/h
970 14-08-2014 08:45:00 15 C 11.28 g/m*3 15 C 1.6 km/h
971 14-08-2014 08:50:00 15.1 C 11.48 g/m*3 15.1 C 0 km/h
972 14-08-2014 08:55:00 15.1 C 11.48 g/m*3 15.1 C 0 km/h
973 14-08-2014 09:00:00 15 C 11.41 g/m*3 15 C 6.4 km/h
974 14-08-2014 09:05:00 15.1 C 11.74 g/m*3 15.1 C 1.6 km/h
975 14-08-2014 09:10:00 15.1 C 11.61 g/m*3 15.1 C 1.6 km/h
Sensor: Nr:Datum:Temp:Abs-Feuchte:Windchill:Wind:
Aussen-T/F 976 14-08-2014 09:15:00 15.3 C 11.62 g/m*3 15.3 C 8.1 km/h
977 14-08-2014 09:20:00 15.4 C 11.56 g/m*3 15.4 C 11.3 km/h
978 14-08-2014 09:25:00 15.6 C 11.7 g/m*3 15.6 C 3.2 km/h
979 14-08-2014 09:30:00 15.6 C 11.57 g/m*3 15.6 C 0 km/h
980 14-08-2014 09:35:00 15.6 C 11.57 g/m*3 15.6 C 9.7 km/h
981 14-08-2014 09:40:00 15.7 C 11.77 g/m*3 15.7 C 0 km/h
982 14-08-2014 09:45:00 15.8 C 11.71 g/m*3 15.8 C 8.1 km/h
983 14-08-2014 09:50:00 15.9 C 11.51 g/m*3 15.9 C 8.1 km/h
984 14-08-2014 09:55:00 16.1 C 11.65 g/m*3 16.1 C 3.2 km/h
985 14-08-2014 10:00:00 16.2 C 11.72 g/m*3 16.2 C 4.8 km/h
986 14-08-2014 10:05:00 16.3 C 11.79 g/m*3 16.3 C 6.4 km/h
987 14-08-2014 10:10:00 16.4 C 11.86 g/m*3 16.4 C 6.4 km/h
988 14-08-2014 10:15:00 16.4 C 11.86 g/m*3 16.4 C 4.8 km/h
989 14-08-2014 10:20:00 16.4 C 11.72 g/m*3 16.4 C 9.7 km/h
990 14-08-2014 10:25:00 16.4 C 11.45 g/m*3 16.4 C 11.3 km/h
991 14-08-2014 10:30:00 16.4 C 11.31 g/m*3 16.4 C 12.9 km/h
992 14-08-2014 10:35:00 16.5 C 11.23 g/m*3 16.5 C 19.3 km/h
993 14-08-2014 10:40:00 16.7 C 11.37 g/m*3 16.7 C 16.1 km/h
994 14-08-2014 10:45:00 16.8 C 11.44 g/m*3 16.8 C 17.7 km/h
995 14-08-2014 10:50:00 16.9 C 11.22 g/m*3 16.9 C 12.9 km/h
996 14-08-2014 10:55:00 16.8 C 11.29 g/m*3 16.8 C 9.7 km/h
997 14-08-2014 11:00:00 16.8 C 11.44 g/m*3 16.8 C 9.7 km/h
998 14-08-2014 11:05:00 16.9 C 11.36 g/m*3 16.9 C 12.9 km/h
999 14-08-2014 11:10:00 16.9 C 11.51 g/m*3 16.9 C 11.3 km/h
1000 14-08-2014 11:15:00 17 C 11.29 g/m*3 17 C 12.9 km/h
Sensor: Nr:Datum:Temp:Abs-Feuchte:Windchill:Wind:
Aussen-T/F 1001 14-08-2014 11:20:00 17 C 11.43 g/m*3 17 C 12.9 km/h
1002 14-08-2014 11:25:00 17.1 C 11.21 g/m*3 17.1 C 8.1 km/h
1003 14-08-2014 11:30:00 17.2 C 11.42 g/m*3 17.2 C 17.7 km/h
1004 14-08-2014 11:35:00 17.2 C 11.28 g/m*3 17.2 C 11.3 km/h
1005 14-08-2014 11:40:00 17.3 C 11.79 g/m*3 17.3 C 4.8 km/h
1006 14-08-2014 11:45:00 17.5 C 11.48 g/m*3 17.5 C 11.3 km/h
1007 14-08-2014 11:50:00 17.8 C 11.38 g/m*3 17.8 C 11.3 km/h
1008 14-08-2014 11:55:00 17.8 C 11.23 g/m*3 17.8 C 8.1 km/h
1009 14-08-2014 12:00:00 18.1 C 11.59 g/m*3 18.1 C 9.7 km/h
1010 14-08-2014 12:05:00 18.2 C 11.5 g/m*3 18.2 C 16.1 km/h
1011 14-08-2014 12:10:00 18.3 C 11.26 g/m*3 18.3 C 17.7 km/h
1012 14-08-2014 12:15:00 18.4 C 11.64 g/m*3 18.4 C 11.3 km/h
1013 14-08-2014 12:20:00 18.7 C 11.69 g/m*3 18.7 C 14.5 km/h
1014 14-08-2014 12:25:00 18.9 C 11.83 g/m*3 18.9 C 11.3 km/h
1015 14-08-2014 12:30:00 19.1 C 11.97 g/m*3 19.1 C 11.3 km/h
1016 14-08-2014 12:35:00 19.3 C 11.78 g/m*3 19.3 C 20.9 km/h
1017 14-08-2014 12:40:00 19.4 C 11.51 g/m*3 19.4 C 17.7 km/h
1018 14-08-2014 12:45:00 19.6 C 11.65 g/m*3 19.6 C 17.7 km/h
1019 14-08-2014 12:50:00 19.8 C 11.61 g/m*3 19.8 C 17.7 km/h
1020 14-08-2014 12:55:00 19.8 C 11.44 g/m*3 19.8 C 11.3 km/h
1021 14-08-2014 13:00:00 19.8 C 12.13 g/m*3 19.8 C 8.1 km/h
1022 14-08-2014 13:05:00 20.1 C 11.99 g/m*3 20.1 C 12.9 km/h
1023 14-08-2014 13:10:00 20.3 C 11.61 g/m*3 20.3 C 17.7 km/h
1024 14-08-2014 13:15:00 20.2 C 11.54 g/m*3 20.2 C 12.9 km/h
1025 14-08-2014 13:20:00 19.9 C 11.68 g/m*3 19.9 C 14.5 km/h
Sensor: Nr:Datum:Temp:Abs-Feuchte:Windchill:Wind:
Aussen-T/F 1026 14-08-2014 13:25:00 19.6 C 10.97 g/m*3 19.6 C 16.1 km/h
1027 14-08-2014 13:30:00 19.3 C 11.28 g/m*3 19.3 C 11.3 km/h
1028 14-08-2014 13:35:00 19.1 C 11.64 g/m*3 19.1 C 9.7 km/h
1029 14-08-2014 13:40:00 18.9 C 11.66 g/m*3 18.9 C 14.5 km/h
1030 14-08-2014 13:45:00 19 C 11.9 g/m*3 19 C 12.9 km/h
1031 14-08-2014 13:50:00 19.1 C 12.13 g/m*3 19.1 C 14.5 km/h
1032 14-08-2014 13:55:00 19 C 11.9 g/m*3 19 C 11.3 km/h
1033 14-08-2014 14:00:00 19.1 C 11.8 g/m*3 19.1 C 12.9 km/h
1034 14-08-2014 14:05:00 19.3 C 11.94 g/m*3 19.3 C 16.1 km/h
1035 14-08-2014 14:10:00 19.3 C 11.78 g/m*3 19.3 C 20.9 km/h
1036 14-08-2014 14:15:00 19.3 C 12.11 g/m*3 19.3 C 11.3 km/h
1037 14-08-2014 14:20:00 19.4 C 12.01 g/m*3 19.4 C 14.5 km/h
1038 14-08-2014 14:25:00 19.5 C 12.42 g/m*3 19.5 C 16.1 km/h
1039 14-08-2014 14:30:00 19.8 C 12.3 g/m*3 19.8 C 14.5 km/h
1040 14-08-2014 14:35:00 19.9 C 12.2 g/m*3 19.9 C 19.3 km/h
1041 14-08-2014 14:40:00 20.2 C 12.24 g/m*3 20.2 C 11.3 km/h
1042 14-08-2014 14:45:00 20.3 C 11.96 g/m*3 20.3 C 17.7 km/h
1043 14-08-2014 14:50:00 20.5 C 11.92 g/m*3 20.5 C 17.7 km/h
1044 14-08-2014 14:55:00 20.7 C 12.06 g/m*3 20.7 C 8.1 km/h
1045 14-08-2014 15:00:00 20.4 C 11.85 g/m*3 20.4 C 9.7 km/h
1046 14-08-2014 15:05:00 20 C 11.92 g/m*3 20 C 9.7 km/h
1047 14-08-2014 15:10:00 19.8 C 11.79 g/m*3 19.8 C 11.3 km/h
1048 14-08-2014 15:15:00 20.1 C 11.99 g/m*3 20.1 C 11.3 km/h
1049 14-08-2014 15:20:00 20.5 C 11.92 g/m*3 20.5 C 12.9 km/h
1050 14-08-2014 15:25:00 20.8 C 13.04 g/m*3 20.8 C 9.7 km/h
Sensor: Nr:Datum:Temp:Abs-Feuchte:Windchill:Wind:
Aussen-T/F 1051 14-08-2014 15:30:00 20.9 C 12.2 g/m*3 20.9 C 16.1 km/h
1052 14-08-2014 15:35:00 20.6 C 11.45 g/m*3 20.6 C 19.3 km/h
1053 14-08-2014 15:40:00 20.1 C 11.47 g/m*3 20.1 C 8.1 km/h
1054 14-08-2014 15:45:00 19.8 C 11.44 g/m*3 19.8 C 11.3 km/h
1055 14-08-2014 15:50:00 19.4 C 11.51 g/m*3 19.4 C 12.9 km/h
1056 14-08-2014 15:55:00 19.1 C 11.8 g/m*3 19.1 C 16.1 km/h
1057 14-08-2014 16:00:00 18.7 C 12.33 g/m*3 18.7 C 11.3 km/h
1058 14-08-2014 16:05:00 18.3 C 11.26 g/m*3 18.3 C 6.4 km/h
1059 14-08-2014 16:10:00 18.2 C 11.35 g/m*3 18.2 C 3.2 km/h
1060 14-08-2014 16:15:00 18.4 C 11.64 g/m*3 18.4 C 6.4 km/h
1061 14-08-2014 16:20:00 18.9 C 11.99 g/m*3 18.9 C 8.1 km/h
1062 14-08-2014 16:25:00 19.6 C 11.82 g/m*3 19.6 C 4.8 km/h
1063 14-08-2014 16:30:00 20.2 C 11.89 g/m*3 20.2 C 8.1 km/h
1064 14-08-2014 16:35:00 20.6 C 11.99 g/m*3 20.6 C 8.1 km/h
1065 14-08-2014 16:40:00 21.1 C 11.98 g/m*3 21.1 C 11.3 km/h
1066 14-08-2014 16:45:00 20.8 C 11.59 g/m*3 20.8 C 11.3 km/h
1067 14-08-2014 16:50:00 20.4 C 11.68 g/m*3 20.4 C 3.2 km/h
1068 14-08-2014 16:55:00 20.4 C 11.85 g/m*3 20.4 C 4.8 km/h
1069 14-08-2014 17:00:00 21.1 C 12.34 g/m*3 21.1 C 6.4 km/h
1070 14-08-2014 17:05:00 21.4 C 12.37 g/m*3 21.4 C 8.1 km/h
1071 14-08-2014 17:10:00 21.6 C 11.95 g/m*3 21.6 C 4.8 km/h
1072 14-08-2014 17:15:00 21.9 C 11 g/m*3 21.9 C 12.9 km/h
1073 14-08-2014 17:20:00 21.9 C 11 g/m*3 21.9 C 11.3 km/h
1074 14-08-2014 17:25:00 21.5 C 11.13 g/m*3 21.5 C 11.3 km/h
1075 14-08-2014 17:30:00 21.1 C 11.24 g/m*3 21.1 C 3.2 km/h
Sensor: Nr:Datum:Temp:Abs-Feuchte:Windchill:Wind:
Aussen-T/F 1076 14-08-2014 17:35:00 20.6 C 11.99 g/m*3 20.6 C 6.4 km/h
1077 14-08-2014 17:40:00 20.2 C 11.54 g/m*3 20.2 C 3.2 km/h
1078 14-08-2014 17:45:00 19.8 C 11.61 g/m*3 19.8 C 4.8 km/h
1079 14-08-2014 17:50:00 19.6 C 12.66 g/m*3 19.6 C 1.6 km/h
1080 14-08-2014 17:55:00 19.3 C 12.11 g/m*3 19.3 C 4.8 km/h
1081 14-08-2014 18:00:00 19.5 C 11.92 g/m*3 19.5 C 4.8 km/h
1082 14-08-2014 18:05:00 19.7 C 11.72 g/m*3 19.7 C 6.4 km/h
1083 14-08-2014 18:10:00 19.6 C 13.17 g/m*3 19.6 C 4.8 km/h
1084 14-08-2014 18:15:00 19.4 C 12.35 g/m*3 19.4 C 4.8 km/h
1085 14-08-2014 18:20:00 19.8 C 11.61 g/m*3 19.8 C 9.7 km/h
1086 14-08-2014 18:25:00 20 C 12.44 g/m*3 20 C 4.8 km/h
1087 14-08-2014 18:30:00 19.8 C 11.61 g/m*3 19.8 C 8.1 km/h
1088 14-08-2014 18:35:00 19.5 C 11.24 g/m*3 19.5 C 11.3 km/h
1089 14-08-2014 18:40:00 19.1 C 10.98 g/m*3 19.1 C 24.1 km/h
1090 14-08-2014 18:45:00 18.4 C 11.17 g/m*3 18.4 C 16.1 km/h
1091 14-08-2014 18:50:00 17.8 C 10.93 g/m*3 17.8 C 20.9 km/h
1092 14-08-2014 18:55:00 17.4 C 11.12 g/m*3 17.4 C 8.1 km/h
1093 14-08-2014 19:00:00 17.1 C 10.92 g/m*3 17.1 C 6.4 km/h
1094 14-08-2014 19:05:00 16.8 C 11.15 g/m*3 16.8 C 4.8 km/h
1095 14-08-2014 19:10:00 16.7 C 11.37 g/m*3 16.7 C 4.8 km/h
1096 14-08-2014 19:15:00 16.5 C 11.37 g/m*3 16.5 C 4.8 km/h
1097 14-08-2014 19:20:00 16.3 C 11.38 g/m*3 16.3 C 1.6 km/h
1098 14-08-2014 19:25:00 16.2 C 11.31 g/m*3 16.2 C 1.6 km/h
1099 14-08-2014 19:30:00 16.1 C 11.38 g/m*3 16.1 C 1.6 km/h
1100 14-08-2014 19:35:00 16.1 C 11.38 g/m*3 16.1 C 1.6 km/h
Sensor: Nr:Datum:Temp:Abs-Feuchte:Windchill:Wind:
Aussen-T/F 1101 14-08-2014 19:40:00 16 C 11.31 g/m*3 16 C 3.2 km/h
1102 14-08-2014 19:45:00 16 C 11.31 g/m*3 16 C 0 km/h
1103 14-08-2014 20:05:00 15.7 C 11.37 g/m*3 15.7 C 1.6 km/h
1104 14-08-2014 20:10:00 15.6 C 11.3 g/m*3 15.6 C 1.6 km/h
1105 14-08-2014 20:15:00 15.6 C 11.44 g/m*3 15.6 C 0 km/h
1106 14-08-2014 20:20:00 15.4 C 11.3 g/m*3 15.4 C 0 km/h
1107 14-08-2014 20:25:00 15.3 C 11.36 g/m*3 15.3 C 0 km/h
1108 14-08-2014 20:30:00 15.2 C 11.42 g/m*3 15.2 C 0 km/h
1109 14-08-2014 20:35:00 15.1 C 11.35 g/m*3 15.1 C 0 km/h
1110 14-08-2014 20:40:00 15 C 11.41 g/m*3 15 C 0 km/h
1111 14-08-2014 20:45:00 14.9 C 11.34 g/m*3 14.9 C 0 km/h
1112 14-08-2014 20:50:00 14.9 C 11.34 g/m*3 14.9 C 0 km/h
1113 14-08-2014 20:55:00 14.8 C 11.27 g/m*3 14.8 C 0 km/h
1114 14-08-2014 21:00:00 14.8 C 11.4 g/m*3 14.8 C 0 km/h
1115 14-08-2014 21:05:00 14.8 C 11.4 g/m*3 14.8 C 0 km/h
1116 14-08-2014 21:10:00 14.7 C 11.33 g/m*3 14.7 C 0 km/h
1117 14-08-2014 21:15:00 14.7 C 11.33 g/m*3 14.7 C 0 km/h
1118 14-08-2014 21:20:00 14.6 C 11.26 g/m*3 14.6 C 0 km/h
1119 14-08-2014 21:25:00 14.6 C 11.26 g/m*3 14.6 C 0 km/h
1120 14-08-2014 21:30:00 14.6 C 11.26 g/m*3 14.6 C 0 km/h
1121 14-08-2014 21:50:00 14.8 C 11.27 g/m*3 14.8 C 0 km/h
1122 14-08-2014 21:55:00 14.8 C 11.4 g/m*3 14.8 C 0 km/h
1123 14-08-2014 22:00:00 14.8 C 11.4 g/m*3 14.8 C 0 km/h
1124 14-08-2014 22:05:00 14.7 C 11.33 g/m*3 14.7 C 0 km/h
1125 14-08-2014 22:10:00 14.7 C 11.33 g/m*3 14.7 C 0 km/h
Sensor: Nr:Datum:Temp:Abs-Feuchte:Windchill:Wind:
Aussen-T/F 1126 14-08-2014 22:15:00 14.7 C 11.33 g/m*3 14.7 C 0 km/h
1127 14-08-2014 22:20:00 14.7 C 11.46 g/m*3 14.7 C 0 km/h
1128 14-08-2014 22:25:00 14.7 C 11.46 g/m*3 14.7 C 0 km/h
1129 14-08-2014 22:30:00 14.7 C 11.46 g/m*3 14.7 C 0 km/h
1130 14-08-2014 22:35:00 14.7 C 11.46 g/m*3 14.7 C 0 km/h
1131 14-08-2014 22:40:00 14.7 C 11.46 g/m*3 14.7 C 0 km/h
1132 14-08-2014 22:45:00 14.7 C 11.46 g/m*3 14.7 C 0 km/h
1133 14-08-2014 22:50:00 14.7 C 11.46 g/m*3 14.7 C 0 km/h
1134 14-08-2014 22:55:00 14.7 C 11.46 g/m*3 14.7 C 0 km/h
1135 14-08-2014 23:00:00 14.6 C 11.39 g/m*3 14.6 C 0 km/h
1136 14-08-2014 23:05:00 14.6 C 11.39 g/m*3 14.6 C 0 km/h
1137 14-08-2014 23:10:00 14.7 C 11.46 g/m*3 14.7 C 0 km/h
1138 14-08-2014 23:15:00 14.6 C 11.14 g/m*3 14.6 C 0 km/h
1139 14-08-2014 23:20:00 14.7 C 11.33 g/m*3 14.7 C 0 km/h
1140 14-08-2014 23:25:00 14.7 C 11.33 g/m*3 14.7 C 0 km/h
1141 14-08-2014 23:30:00 14.7 C 11.33 g/m*3 14.7 C 0 km/h
1142 14-08-2014 23:35:00 14.7 C 11.33 g/m*3 14.7 C 0 km/h
1143 14-08-2014 23:40:00 14.7 C 11.33 g/m*3 14.7 C 0 km/h
1144 14-08-2014 23:45:00 14.6 C 10.89 g/m*3 14.6 C 4.8 km/h
1145 14-08-2014 23:50:00 14.7 C 10.95 g/m*3 14.7 C 6.4 km/h
1146 14-08-2014 23:55:00 14.8 C 11.15 g/m*3 14.8 C 0 km/h
1147 15-08-2014 00:00:00 14.7 C 11.08 g/m*3 14.7 C 0 km/h
1148 15-08-2014 00:05:00 14.5 C 11.07 g/m*3 14.5 C 0 km/h
1149 15-08-2014 00:10:00 14.3 C 11.06 g/m*3 14.3 C 0 km/h
1150 15-08-2014 00:15:00 14.2 C 10.99 g/m*3 14.2 C 0 km/h
Sensor: Nr:Datum:Temp:Abs-Feuchte:Windchill:Wind:
Aussen-T/F 1151 15-08-2014 00:20:00 14.2 C 10.87 g/m*3 14.2 C 4.8 km/h
1152 15-08-2014 00:25:00 14.2 C 10.87 g/m*3 14.2 C 4.8 km/h
1153 15-08-2014 00:30:00 14.2 C 10.87 g/m*3 14.2 C 0 km/h
1154 15-08-2014 00:35:00 14.2 C 10.87 g/m*3 14.2 C 0 km/h
1155 15-08-2014 00:40:00 14.2 C 10.87 g/m*3 14.2 C 0 km/h
1156 15-08-2014 00:45:00 14.2 C 10.87 g/m*3 14.2 C 0 km/h
1157 15-08-2014 00:50:00 14.2 C 10.87 g/m*3 14.2 C 0 km/h
1158 15-08-2014 00:55:00 14.1 C 10.8 g/m*3 14.1 C 0 km/h
1159 15-08-2014 01:00:00 14 C 10.74 g/m*3 14 C 0 km/h
1160 15-08-2014 01:05:00 13.9 C 10.79 g/m*3 13.9 C 0 km/h
1161 15-08-2014 01:10:00 13.9 C 10.79 g/m*3 13.9 C 0 km/h
1162 15-08-2014 01:15:00 13.8 C 10.72 g/m*3 13.8 C 0 km/h
1163 15-08-2014 01:20:00 13.6 C 10.59 g/m*3 13.6 C 0 km/h
1164 15-08-2014 01:25:00 13.5 C 10.53 g/m*3 13.5 C 0 km/h
1165 15-08-2014 01:30:00 13.4 C 10.58 g/m*3 13.4 C 0 km/h
1166 15-08-2014 01:35:00 13.4 C 10.58 g/m*3 13.4 C 0 km/h
1167 15-08-2014 01:40:00 13.3 C 10.51 g/m*3 13.3 C 0 km/h
1168 15-08-2014 01:45:00 13.3 C 10.51 g/m*3 13.3 C 0 km/h
1169 15-08-2014 01:50:00 13.3 C 10.51 g/m*3 13.3 C 0 km/h
1170 15-08-2014 01:55:00 13.3 C 10.51 g/m*3 13.3 C 0 km/h
1171 15-08-2014 02:00:00 13.4 C 10.46 g/m*3 13.4 C 0 km/h
1172 15-08-2014 02:05:00 13.6 C 10.59 g/m*3 13.6 C 0 km/h
1173 15-08-2014 02:10:00 13.6 C 10.59 g/m*3 13.6 C 0 km/h
1174 15-08-2014 02:15:00 13.6 C 10.59 g/m*3 13.6 C 0 km/h
1175 15-08-2014 02:20:00 13.6 C 10.59 g/m*3 13.6 C 3.2 km/h
Sensor: Nr:Datum:Temp:Abs-Feuchte:Windchill:Wind:
Aussen-T/F 1176 15-08-2014 02:25:00 13.7 C 10.66 g/m*3 13.7 C 0 km/h
1177 15-08-2014 02:30:00 13.7 C 10.54 g/m*3 13.7 C 0 km/h
1178 15-08-2014 02:35:00 13.6 C 10.59 g/m*3 13.6 C 0 km/h
1179 15-08-2014 02:40:00 13.6 C 10.59 g/m*3 13.6 C 0 km/h
1180 15-08-2014 02:45:00 13.5 C 10.53 g/m*3 13.5 C 0 km/h
1181 15-08-2014 02:50:00 13.4 C 10.46 g/m*3 13.4 C 0 km/h
1182 15-08-2014 02:55:00 13.3 C 10.51 g/m*3 13.3 C 0 km/h
1183 15-08-2014 03:00:00 13.2 C 10.45 g/m*3 13.2 C 0 km/h
1184 15-08-2014 03:05:00 13.1 C 10.5 g/m*3 13.1 C 0 km/h
1185 15-08-2014 03:10:00 13 C 10.43 g/m*3 13 C 0 km/h
1186 15-08-2014 03:15:00 12.9 C 10.37 g/m*3 12.9 C 0 km/h
1187 15-08-2014 03:20:00 12.9 C 10.48 g/m*3 12.9 C 0 km/h
1188 15-08-2014 03:25:00 12.9 C 10.48 g/m*3 12.9 C 0 km/h
1189 15-08-2014 03:30:00 12.9 C 10.48 g/m*3 12.9 C 0 km/h
1190 15-08-2014 03:35:00 12.9 C 10.59 g/m*3 12.9 C 0 km/h
1191 15-08-2014 03:40:00 12.9 C 10.59 g/m*3 12.9 C 0 km/h
1192 15-08-2014 03:45:00 13 C 10.66 g/m*3 13 C 0 km/h
1193 15-08-2014 03:50:00 13.1 C 10.73 g/m*3 13.1 C 0 km/h
1194 15-08-2014 03:55:00 13.1 C 10.73 g/m*3 13.1 C 0 km/h
1195 15-08-2014 04:00:00 13.1 C 10.73 g/m*3 13.1 C 0 km/h
1196 15-08-2014 04:05:00 13.1 C 10.73 g/m*3 13.1 C 0 km/h
1197 15-08-2014 04:10:00 13.1 C 10.73 g/m*3 13.1 C 0 km/h
1198 15-08-2014 04:15:00 13.2 C 10.79 g/m*3 13.2 C 0 km/h
1199 15-08-2014 04:20:00 13.2 C 10.79 g/m*3 13.2 C 0 km/h
1200 15-08-2014 04:25:00 13.2 C 10.79 g/m*3 13.2 C 0 km/h
Sensor: Nr:Datum:Temp:Abs-Feuchte:Windchill:Wind:
Aussen-T/F 1201 15-08-2014 04:30:00 13.2 C 10.79 g/m*3 13.2 C 0 km/h
1202 15-08-2014 04:35:00 13.2 C 10.79 g/m*3 13.2 C 0 km/h
1203 15-08-2014 04:40:00 13.3 C 10.86 g/m*3 13.3 C 0 km/h
1204 15-08-2014 04:45:00 13.3 C 10.86 g/m*3 13.3 C 0 km/h
1205 15-08-2014 04:50:00 13.3 C 10.86 g/m*3 13.3 C 0 km/h
1206 15-08-2014 04:55:00 13.3 C 10.86 g/m*3 13.3 C 0 km/h
1207 15-08-2014 05:00:00 13.3 C 10.86 g/m*3 13.3 C 0 km/h
1208 15-08-2014 05:05:00 13.4 C 10.93 g/m*3 13.4 C 0 km/h
1209 15-08-2014 05:10:00 13.4 C 10.93 g/m*3 13.4 C 0 km/h
1210 15-08-2014 05:15:00 13.4 C 10.93 g/m*3 13.4 C 0 km/h
1211 15-08-2014 05:20:00 13.4 C 10.93 g/m*3 13.4 C 0 km/h
1212 15-08-2014 05:25:00 13.4 C 10.93 g/m*3 13.4 C 0 km/h
1213 15-08-2014 05:30:00 13.4 C 10.93 g/m*3 13.4 C 0 km/h
1214 15-08-2014 05:35:00 13.4 C 10.93 g/m*3 13.4 C 0 km/h
1215 15-08-2014 05:40:00 13.4 C 10.93 g/m*3 13.4 C 0 km/h
1216 15-08-2014 05:45:00 13.4 C 10.93 g/m*3 13.4 C 0 km/h
1217 15-08-2014 05:50:00 13.4 C 10.93 g/m*3 13.4 C 0 km/h
1218 15-08-2014 05:55:00 13.4 C 10.93 g/m*3 13.4 C 0 km/h
1219 15-08-2014 06:00:00 13.4 C 10.93 g/m*3 13.4 C 0 km/h
1220 15-08-2014 06:05:00 13.4 C 10.93 g/m*3 13.4 C 0 km/h
1221 15-08-2014 06:10:00 13.4 C 10.93 g/m*3 13.4 C 0 km/h
1222 15-08-2014 06:15:00 13.5 C 10.99 g/m*3 13.5 C 0 km/h
1223 15-08-2014 06:20:00 13.5 C 10.99 g/m*3 13.5 C 0 km/h
1224 15-08-2014 06:25:00 13.5 C 10.99 g/m*3 13.5 C 0 km/h
1225 15-08-2014 06:30:00 13.6 C 11.06 g/m*3 13.6 C 0 km/h
Sensor: Nr:Datum:Temp:Abs-Feuchte:Windchill:Wind:
Aussen-T/F 1226 15-08-2014 06:35:00 13.6 C 10.95 g/m*3 13.6 C 0 km/h
1227 15-08-2014 06:40:00 13.6 C 11.06 g/m*3 13.6 C 0 km/h
1228 15-08-2014 06:45:00 13.6 C 10.95 g/m*3 13.6 C 0 km/h
1229 15-08-2014 06:50:00 13.6 C 10.95 g/m*3 13.6 C 0 km/h
1230 15-08-2014 06:55:00 13.6 C 11.06 g/m*3 13.6 C 0 km/h
1231 15-08-2014 07:00:00 13.7 C 11.13 g/m*3 13.7 C 0 km/h
1232 15-08-2014 07:05:00 13.7 C 11.01 g/m*3 13.7 C 0 km/h
1233 15-08-2014 07:10:00 13.7 C 11.01 g/m*3 13.7 C 0 km/h
1234 15-08-2014 07:15:00 13.7 C 11.01 g/m*3 13.7 C 0 km/h
1235 15-08-2014 07:20:00 13.7 C 11.01 g/m*3 13.7 C 0 km/h
1236 15-08-2014 07:25:00 13.7 C 11.01 g/m*3 13.7 C 0 km/h
1237 15-08-2014 07:30:00 13.8 C 11.08 g/m*3 13.8 C 0 km/h
1238 15-08-2014 07:35:00 13.8 C 11.2 g/m*3 13.8 C 0 km/h
1239 15-08-2014 07:40:00 13.8 C 11.2 g/m*3 13.8 C 0 km/h
1240 15-08-2014 07:45:00 13.8 C 11.2 g/m*3 13.8 C 0 km/h
1241 15-08-2014 07:50:00 13.8 C 11.2 g/m*3 13.8 C 0 km/h
1242 15-08-2014 07:55:00 13.8 C 11.2 g/m*3 13.8 C 0 km/h
1243 15-08-2014 08:00:00 13.9 C 11.27 g/m*3 13.9 C 0 km/h
1244 15-08-2014 08:05:00 13.9 C 11.27 g/m*3 13.9 C 0 km/h
1245 15-08-2014 08:10:00 14 C 11.34 g/m*3 14 C 0 km/h
1246 15-08-2014 08:15:00 14 C 11.22 g/m*3 14 C 0 km/h
1247 15-08-2014 08:20:00 14.1 C 11.29 g/m*3 14.1 C 0 km/h
1248 15-08-2014 08:25:00 14.2 C 11.23 g/m*3 14.2 C 0 km/h
1249 15-08-2014 08:30:00 14.2 C 11.23 g/m*3 14.2 C 0 km/h
1250 15-08-2014 08:35:00 14.2 C 11.11 g/m*3 14.2 C 3.2 km/h
Sensor: Nr:Datum:Temp:Abs-Feuchte:Windchill:Wind:
Aussen-T/F 1251 15-08-2014 08:40:00 14.3 C 11.06 g/m*3 14.3 C 0 km/h
1252 15-08-2014 08:45:00 14.3 C 11.18 g/m*3 14.3 C 0 km/h
1253 15-08-2014 08:50:00 14.3 C 11.06 g/m*3 14.3 C 6.4 km/h
1254 15-08-2014 08:55:00 14.4 C 11.25 g/m*3 14.4 C 0 km/h
1255 15-08-2014 09:00:00 14.5 C 11.32 g/m*3 14.5 C 6.4 km/h
1256 15-08-2014 09:05:00 14.6 C 11.51 g/m*3 14.6 C 0 km/h
1257 15-08-2014 09:10:00 14.7 C 11.46 g/m*3 14.7 C 3.2 km/h
1258 15-08-2014 09:15:00 14.6 C 11.26 g/m*3 14.6 C 0 km/h
1259 15-08-2014 09:20:00 14.7 C 11.58 g/m*3 14.7 C 0 km/h
1260 15-08-2014 09:25:00 14.7 C 11.58 g/m*3 14.7 C 0 km/h
1261 15-08-2014 09:30:00 14.7 C 11.46 g/m*3 14.7 C 4.8 km/h
1262 15-08-2014 09:35:00 14.7 C 11.58 g/m*3 14.7 C 0 km/h
1263 15-08-2014 09:40:00 14.7 C 11.58 g/m*3 14.7 C 0 km/h
1264 15-08-2014 09:45:00 14.7 C 11.58 g/m*3 14.7 C 8.1 km/h
1265 15-08-2014 09:50:00 14.8 C 11.65 g/m*3 14.8 C 8.1 km/h
1266 15-08-2014 09:55:00 14.8 C 11.65 g/m*3 14.8 C 8.1 km/h
1267 15-08-2014 10:00:00 14.9 C 11.73 g/m*3 14.9 C 6.4 km/h
1268 15-08-2014 10:05:00 15.1 C 11.87 g/m*3 15.1 C 9.7 km/h
1269 15-08-2014 10:10:00 15.2 C 11.81 g/m*3 15.2 C 9.7 km/h
1270 15-08-2014 10:15:00 15.3 C 12.01 g/m*3 15.3 C 6.4 km/h
1271 15-08-2014 10:20:00 15.3 C 11.75 g/m*3 15.3 C 8.1 km/h
1272 15-08-2014 10:25:00 15.3 C 11.75 g/m*3 15.3 C 6.4 km/h
1273 15-08-2014 10:30:00 15.4 C 11.96 g/m*3 15.4 C 8.1 km/h
1274 15-08-2014 10:35:00 15.4 C 11.82 g/m*3 15.4 C 4.8 km/h
1275 15-08-2014 10:40:00 15.4 C 11.69 g/m*3 15.4 C 4.8 km/h
Sensor: Nr:Datum:Temp:Abs-Feuchte:Windchill:Wind:
Aussen-T/F 1276 15-08-2014 10:45:00 15.6 C 11.97 g/m*3 15.6 C 1.6 km/h
1277 15-08-2014 10:50:00 15.6 C 11.7 g/m*3 15.6 C 4.8 km/h
1278 15-08-2014 10:55:00 15.6 C 11.7 g/m*3 15.6 C 8.1 km/h
1279 15-08-2014 11:00:00 15.6 C 11.84 g/m*3 15.6 C 3.2 km/h
1280 15-08-2014 11:05:00 15.6 C 11.7 g/m*3 15.6 C 6.4 km/h
1281 15-08-2014 11:10:00 15.6 C 11.7 g/m*3 15.6 C 6.4 km/h
1282 15-08-2014 11:15:00 15.7 C 11.91 g/m*3 15.7 C 4.8 km/h
1283 15-08-2014 11:20:00 15.7 C 11.64 g/m*3 15.7 C 4.8 km/h
1284 15-08-2014 11:25:00 15.7 C 11.64 g/m*3 15.7 C 3.2 km/h
1285 15-08-2014 11:30:00 15.7 C 11.64 g/m*3 15.7 C 4.8 km/h
1286 15-08-2014 11:35:00 15.8 C 11.85 g/m*3 15.8 C 4.8 km/h
1287 15-08-2014 11:40:00 15.8 C 11.71 g/m*3 15.8 C 0 km/h
1288 15-08-2014 11:45:00 15.7 C 11.64 g/m*3 15.7 C 3.2 km/h
1289 15-08-2014 11:50:00 15.7 C 11.91 g/m*3 15.7 C 1.6 km/h
1290 15-08-2014 11:55:00 15.7 C 11.91 g/m*3 15.7 C 0 km/h
1291 15-08-2014 12:00:00 15.7 C 12.04 g/m*3 15.7 C 1.6 km/h
1292 15-08-2014 12:05:00 15.7 C 12.04 g/m*3 15.7 C 0 km/h
1293 15-08-2014 12:10:00 15.7 C 12.04 g/m*3 15.7 C 0 km/h
1294 15-08-2014 12:15:00 15.7 C 12.04 g/m*3 15.7 C 6.4 km/h
1295 15-08-2014 12:20:00 15.9 C 12.19 g/m*3 15.9 C 4.8 km/h
1296 15-08-2014 12:25:00 15.9 C 12.19 g/m*3 15.9 C 4.8 km/h
1297 15-08-2014 13:15:00 16.6 C 11.58 g/m*3 16.6 C 6.4 km/h
1298 15-08-2014 13:20:00 16.4 C 11.72 g/m*3 16.4 C 4.8 km/h
1299 15-08-2014 13:25:00 16.4 C 12 g/m*3 16.4 C 0 km/h
1300 15-08-2014 13:30:00 16.4 C 11.86 g/m*3 16.4 C 1.6 km/h
Sensor: Nr:Datum:Temp:Abs-Feuchte:Windchill:Wind:
Aussen-T/F 1301 15-08-2014 13:35:00 16.3 C 11.79 g/m*3 16.3 C 3.2 km/h
1302 15-08-2014 13:40:00 16.1 C 11.79 g/m*3 16.1 C 0 km/h
1303 15-08-2014 13:45:00 16 C 11.99 g/m*3 16 C 0 km/h
1304 15-08-2014 13:50:00 15.8 C 11.85 g/m*3 15.8 C 4.8 km/h
1305 15-08-2014 13:55:00 15.7 C 11.77 g/m*3 15.7 C 1.6 km/h
1306 15-08-2014 14:00:00 15.8 C 11.98 g/m*3 15.8 C 4.8 km/h
1307 15-08-2014 14:05:00 15.9 C 12.05 g/m*3 15.9 C 1.6 km/h
1308 15-08-2014 14:10:00 15.9 C 11.92 g/m*3 15.9 C 3.2 km/h
1309 15-08-2014 14:15:00 16.1 C 12.06 g/m*3 16.1 C 4.8 km/h
1310 15-08-2014 14:20:00 16.2 C 12 g/m*3 16.2 C 4.8 km/h
1311 15-08-2014 14:25:00 16.3 C 11.93 g/m*3 16.3 C 4.8 km/h
1312 15-08-2014 14:30:00 16.2 C 12.14 g/m*3 16.2 C 6.4 km/h
1313 15-08-2014 14:35:00 15.8 C 11.85 g/m*3 15.8 C 1.6 km/h
1314 15-08-2014 14:40:00 15.3 C 11.49 g/m*3 15.3 C 11.3 km/h
1315 15-08-2014 14:45:00 15.1 C 11.61 g/m*3 15.1 C 1.6 km/h
1316 15-08-2014 14:50:00 14.9 C 11.6 g/m*3 14.9 C 0 km/h
1317 15-08-2014 14:55:00 14.7 C 11.58 g/m*3 14.7 C 0 km/h
1318 15-08-2014 15:00:00 14.7 C 11.71 g/m*3 14.7 C 0 km/h
1319 15-08-2014 15:05:00 14.7 C 11.83 g/m*3 14.7 C 0 km/h
1320 15-08-2014 15:10:00 14.8 C 11.91 g/m*3 14.8 C 0 km/h
1321 15-08-2014 15:15:00 14.9 C 11.98 g/m*3 14.9 C 0 km/h
1322 15-08-2014 15:20:00 15.1 C 12.13 g/m*3 15.1 C 0 km/h
1323 15-08-2014 15:25:00 15.2 C 11.94 g/m*3 15.2 C 0 km/h
1324 15-08-2014 15:30:00 15.6 C 12.37 g/m*3 15.6 C 1.6 km/h
1325 15-08-2014 15:35:00 15.8 C 12.38 g/m*3 15.8 C 3.2 km/h
Sensor: Nr:Datum:Temp:Abs-Feuchte:Windchill:Wind:
Aussen-T/F 1326 15-08-2014 15:40:00 15.9 C 12.32 g/m*3 15.9 C 4.8 km/h
1327 15-08-2014 15:45:00 15.9 C 12.05 g/m*3 15.9 C 0 km/h
1328 15-08-2014 15:50:00 15.9 C 12.05 g/m*3 15.9 C 3.2 km/h
1329 15-08-2014 15:55:00 15.9 C 11.92 g/m*3 15.9 C 1.6 km/h
1330 15-08-2014 16:00:00 16.2 C 12 g/m*3 16.2 C 3.2 km/h
1331 15-08-2014 16:05:00 16.3 C 12.07 g/m*3 16.3 C 3.2 km/h
1332 15-08-2014 16:10:00 16.4 C 12.14 g/m*3 16.4 C 1.6 km/h
1333 15-08-2014 16:15:00 16.4 C 12.42 g/m*3 16.4 C 0 km/h
1334 15-08-2014 16:20:00 16.3 C 12.49 g/m*3 16.3 C 0 km/h
1335 15-08-2014 16:25:00 16 C 12.26 g/m*3 16 C 0 km/h
1336 15-08-2014 16:30:00 15.7 C 12.18 g/m*3 15.7 C 0 km/h
1337 15-08-2014 16:35:00 15.4 C 12.09 g/m*3 15.4 C 0 km/h
1338 15-08-2014 16:40:00 15.1 C 12 g/m*3 15.1 C 3.2 km/h
1339 15-08-2014 16:45:00 14.8 C 11.65 g/m*3 14.8 C 1.6 km/h
1340 15-08-2014 16:50:00 14.6 C 11.51 g/m*3 14.6 C 1.6 km/h
1341 15-08-2014 16:55:00 14.3 C 11.3 g/m*3 14.3 C 0 km/h
1342 15-08-2014 17:00:00 14.2 C 11.36 g/m*3 14.2 C 0 km/h
1343 15-08-2014 17:05:00 14.2 C 11.36 g/m*3 14.2 C 1.6 km/h
1344 15-08-2014 17:10:00 14.1 C 11.41 g/m*3 14.1 C 0 km/h
1345 15-08-2014 17:15:00 14.1 C 11.41 g/m*3 14.1 C 0 km/h
1346 15-08-2014 17:20:00 14.2 C 11.6 g/m*3 14.2 C 0 km/h
1347 15-08-2014 17:25:00 14.3 C 11.67 g/m*3 14.3 C 0 km/h
1348 15-08-2014 17:30:00 14.2 C 11.48 g/m*3 14.2 C 0 km/h
1349 15-08-2014 17:35:00 14.3 C 11.55 g/m*3 14.3 C 1.6 km/h
1350 15-08-2014 17:40:00 14.5 C 11.69 g/m*3 14.5 C 1.6 km/h
Sensor: Nr:Datum:Temp:Abs-Feuchte:Windchill:Wind:
Aussen-T/F 1351 15-08-2014 17:45:00 14.9 C 12.11 g/m*3 14.9 C 1.6 km/h
1352 15-08-2014 17:50:00 15.6 C 12.5 g/m*3 15.6 C 3.2 km/h
1353 15-08-2014 17:55:00 15.9 C 12.19 g/m*3 15.9 C 3.2 km/h
1354 15-08-2014 18:00:00 16.4 C 12.7 g/m*3 16.4 C 0 km/h
1355 15-08-2014 18:05:00 16.8 C 12.58 g/m*3 16.8 C 1.6 km/h
1356 15-08-2014 18:10:00 17.2 C 12.74 g/m*3 17.2 C 3.2 km/h
1357 15-08-2014 18:15:00 17.5 C 13.12 g/m*3 17.5 C 0 km/h
1358 15-08-2014 18:20:00 17.6 C 12.9 g/m*3 17.6 C 0 km/h
1359 15-08-2014 18:25:00 17.6 C 13.05 g/m*3 17.6 C 3.2 km/h
1360 15-08-2014 18:30:00 17.4 C 12.89 g/m*3 17.4 C 0 km/h
1361 15-08-2014 18:35:00 17.3 C 13.11 g/m*3 17.3 C 0 km/h
1362 15-08-2014 18:40:00 16.9 C 12.94 g/m*3 16.9 C 0 km/h
1363 15-08-2014 18:45:00 16.7 C 12.93 g/m*3 16.7 C 0 km/h
1364 15-08-2014 18:50:00 16.3 C 12.76 g/m*3 16.3 C 0 km/h
1365 15-08-2014 18:55:00 16.2 C 12.69 g/m*3 16.2 C 0 km/h
1366 15-08-2014 19:00:00 15.9 C 12.46 g/m*3 15.9 C 0 km/h
1367 15-08-2014 19:05:00 15.6 C 12.23 g/m*3 15.6 C 0 km/h
1368 15-08-2014 19:10:00 15.2 C 12.07 g/m*3 15.2 C 0 km/h
1369 15-08-2014 19:15:00 15.1 C 12.13 g/m*3 15.1 C 0 km/h
1370 15-08-2014 19:20:00 15 C 12.05 g/m*3 15 C 0 km/h
1371 15-08-2014 19:25:00 14.8 C 11.91 g/m*3 14.8 C 0 km/h
1372 15-08-2014 19:30:00 14.7 C 11.83 g/m*3 14.7 C 0 km/h
1373 15-08-2014 19:35:00 14.6 C 11.89 g/m*3 14.6 C 0 km/h
1374 15-08-2014 19:40:00 14.5 C 11.82 g/m*3 14.5 C 0 km/h
1375 15-08-2014 19:45:00 14.4 C 11.74 g/m*3 14.4 C 0 km/h
Sensor: Nr:Datum:Temp:Abs-Feuchte:Windchill:Wind:
Aussen-T/F 1376 15-08-2014 19:50:00 14.4 C 11.74 g/m*3 14.4 C 0 km/h
1377 15-08-2014 19:55:00 14.3 C 11.67 g/m*3 14.3 C 0 km/h
1378 15-08-2014 20:00:00 14.3 C 11.79 g/m*3 14.3 C 0 km/h
1379 15-08-2014 20:05:00 14.4 C 11.87 g/m*3 14.4 C 0 km/h
1380 15-08-2014 20:10:00 14.4 C 11.87 g/m*3 14.4 C 0 km/h
1381 15-08-2014 20:15:00 14.4 C 11.87 g/m*3 14.4 C 0 km/h
1382 15-08-2014 20:20:00 14.4 C 11.87 g/m*3 14.4 C 0 km/h
1383 15-08-2014 20:25:00 14.5 C 11.94 g/m*3 14.5 C 0 km/h
1384 15-08-2014 20:30:00 14.4 C 11.87 g/m*3 14.4 C 0 km/h
1385 15-08-2014 20:35:00 14.5 C 12.06 g/m*3 14.5 C 0 km/h
1386 15-08-2014 20:40:00 14.5 C 12.06 g/m*3 14.5 C 0 km/h
1387 15-08-2014 20:45:00 14.5 C 12.06 g/m*3 14.5 C 0 km/h
1388 15-08-2014 20:50:00 14.4 C 11.87 g/m*3 14.4 C 0 km/h
1389 15-08-2014 20:55:00 14.3 C 11.79 g/m*3 14.3 C 1.6 km/h
1390 15-08-2014 21:00:00 14.3 C 11.79 g/m*3 14.3 C 0 km/h
1391 15-08-2014 21:05:00 14.3 C 11.79 g/m*3 14.3 C 1.6 km/h
1392 15-08-2014 21:10:00 14.3 C 11.92 g/m*3 14.3 C 1.6 km/h
1393 15-08-2014 21:15:00 14.3 C 11.92 g/m*3 14.3 C 0 km/h
1394 15-08-2014 21:20:00 14.2 C 11.84 g/m*3 14.2 C 0 km/h
1395 15-08-2014 21:25:00 14.2 C 11.84 g/m*3 14.2 C 0 km/h
1396 15-08-2014 21:30:00 14.2 C 11.84 g/m*3 14.2 C 0 km/h
1397 15-08-2014 21:35:00 14.2 C 11.72 g/m*3 14.2 C 0 km/h
1398 15-08-2014 21:40:00 14.1 C 11.65 g/m*3 14.1 C 0 km/h
1399 15-08-2014 21:45:00 14 C 11.58 g/m*3 14 C 0 km/h
1400 15-08-2014 21:50:00 13.9 C 11.51 g/m*3 13.9 C 0 km/h
Sensor: Nr:Datum:Temp:Abs-Feuchte:Windchill:Wind:
Aussen-T/F 1401 15-08-2014 21:55:00 13.9 C 11.51 g/m*3 13.9 C 0 km/h
1402 15-08-2014 22:00:00 13.9 C 11.51 g/m*3 13.9 C 0 km/h
1403 15-08-2014 22:05:00 13.9 C 11.63 g/m*3 13.9 C 0 km/h
1404 15-08-2014 22:10:00 13.8 C 11.56 g/m*3 13.8 C 0 km/h
1405 15-08-2014 22:15:00 13.8 C 11.56 g/m*3 13.8 C 0 km/h
1406 15-08-2014 22:20:00 13.8 C 11.56 g/m*3 13.8 C 0 km/h
1407 15-08-2014 22:25:00 13.8 C 11.56 g/m*3 13.8 C 0 km/h
1408 15-08-2014 22:30:00 13.8 C 11.56 g/m*3 13.8 C 0 km/h
1409 15-08-2014 22:35:00 13.7 C 11.49 g/m*3 13.7 C 0 km/h
1410 15-08-2014 22:40:00 13.6 C 11.42 g/m*3 13.6 C 0 km/h
1411 15-08-2014 22:45:00 13.6 C 11.42 g/m*3 13.6 C 0 km/h
1412 15-08-2014 22:50:00 13.6 C 11.42 g/m*3 13.6 C 0 km/h
1413 15-08-2014 22:55:00 13.6 C 11.42 g/m*3 13.6 C 0 km/h
1414 15-08-2014 23:00:00 13.6 C 11.42 g/m*3 13.6 C 0 km/h
1415 15-08-2014 23:05:00 13.5 C 11.35 g/m*3 13.5 C 0 km/h
1416 15-08-2014 23:10:00 13.4 C 11.28 g/m*3 13.4 C 0 km/h
1417 15-08-2014 23:15:00 13.4 C 11.28 g/m*3 13.4 C 0 km/h
1418 15-08-2014 23:20:00 13.3 C 11.21 g/m*3 13.3 C 0 km/h
1419 15-08-2014 23:25:00 13.2 C 11.14 g/m*3 13.2 C 0 km/h
1420 15-08-2014 23:30:00 13.2 C 11.14 g/m*3 13.2 C 0 km/h
1421 15-08-2014 23:35:00 13.1 C 11.07 g/m*3 13.1 C 0 km/h
1422 15-08-2014 23:40:00 13.1 C 11.07 g/m*3 13.1 C 0 km/h
1423 15-08-2014 23:45:00 13.1 C 11.07 g/m*3 13.1 C 0 km/h
1424 15-08-2014 23:50:00 13.2 C 11.14 g/m*3 13.2 C 0 km/h
1425 15-08-2014 23:55:00 13.2 C 11.14 g/m*3 13.2 C 0 km/h
Sensor: Nr:Datum:Temp:Abs-Feuchte:Windchill:Wind:
Aussen-T/F 1426 16-08-2014 00:00:00 13.1 C 11.07 g/m*3 13.1 C 0 km/h
1427 16-08-2014 00:05:00 13.1 C 11.07 g/m*3 13.1 C 0 km/h
1428 16-08-2014 00:10:00 13 C 11 g/m*3 13 C 0 km/h
1429 16-08-2014 00:15:00 12.9 C 10.93 g/m*3 12.9 C 0 km/h
1430 16-08-2014 00:20:00 12.8 C 10.87 g/m*3 12.8 C 0 km/h
1431 16-08-2014 00:25:00 12.8 C 10.87 g/m*3 12.8 C 0 km/h
1432 16-08-2014 00:30:00 12.8 C 10.87 g/m*3 12.8 C 0 km/h
1433 16-08-2014 00:35:00 12.7 C 10.8 g/m*3 12.7 C 0 km/h
1434 16-08-2014 00:40:00 12.7 C 10.8 g/m*3 12.7 C 0 km/h
1435 16-08-2014 00:45:00 12.7 C 10.8 g/m*3 12.7 C 0 km/h
1436 16-08-2014 00:50:00 12.7 C 10.8 g/m*3 12.7 C 0 km/h
1437 16-08-2014 00:55:00 12.7 C 10.8 g/m*3 12.7 C 0 km/h
1438 16-08-2014 01:00:00 12.6 C 10.73 g/m*3 12.6 C 0 km/h
1439 16-08-2014 01:05:00 12.6 C 10.73 g/m*3 12.6 C 0 km/h
1440 16-08-2014 01:10:00 12.6 C 10.73 g/m*3 12.6 C 0 km/h
1441 16-08-2014 01:15:00 12.6 C 10.73 g/m*3 12.6 C 0 km/h
1442 16-08-2014 01:20:00 12.6 C 10.73 g/m*3 12.6 C 0 km/h
1443 16-08-2014 01:25:00 12.7 C 10.8 g/m*3 12.7 C 0 km/h
1444 16-08-2014 01:30:00 12.7 C 10.8 g/m*3 12.7 C 0 km/h
1445 16-08-2014 01:35:00 12.8 C 10.87 g/m*3 12.8 C 0 km/h
1446 16-08-2014 01:40:00 12.8 C 10.87 g/m*3 12.8 C 0 km/h
1447 16-08-2014 01:45:00 12.9 C 11.05 g/m*3 12.9 C 0 km/h
1448 16-08-2014 01:50:00 12.9 C 11.05 g/m*3 12.9 C 0 km/h
1449 16-08-2014 01:55:00 12.9 C 11.05 g/m*3 12.9 C 0 km/h
1450 16-08-2014 02:00:00 12.9 C 11.05 g/m*3 12.9 C 0 km/h
Sensor: Nr:Datum:Temp:Abs-Feuchte:Windchill:Wind:
Aussen-T/F 1451 16-08-2014 02:05:00 12.9 C 11.05 g/m*3 12.9 C 0 km/h
1452 16-08-2014 02:10:00 12.9 C 11.05 g/m*3 12.9 C 0 km/h
1453 16-08-2014 02:15:00 12.9 C 11.05 g/m*3 12.9 C 0 km/h
1454 16-08-2014 02:20:00 12.9 C 11.05 g/m*3 12.9 C 0 km/h
1455 16-08-2014 02:25:00 13 C 11.11 g/m*3 13 C 0 km/h
1456 16-08-2014 02:30:00 13 C 11.11 g/m*3 13 C 0 km/h
1457 16-08-2014 02:35:00 13 C 11.11 g/m*3 13 C 0 km/h
1458 16-08-2014 02:40:00 13 C 11.11 g/m*3 13 C 0 km/h
1459 16-08-2014 02:45:00 13 C 11.11 g/m*3 13 C 0 km/h
1460 16-08-2014 02:50:00 13 C 11.11 g/m*3 13 C 0 km/h
1461 16-08-2014 02:55:00 13 C 11.11 g/m*3 13 C 0 km/h
1462 16-08-2014 03:00:00 12.9 C 11.05 g/m*3 12.9 C 0 km/h
1463 16-08-2014 03:05:00 12.9 C 11.05 g/m*3 12.9 C 0 km/h
1464 16-08-2014 03:10:00 12.9 C 11.05 g/m*3 12.9 C 0 km/h
1465 16-08-2014 03:15:00 12.9 C 11.05 g/m*3 12.9 C 0 km/h
1466 16-08-2014 03:20:00 12.9 C 11.05 g/m*3 12.9 C 0 km/h
1467 16-08-2014 03:25:00 12.9 C 11.05 g/m*3 12.9 C 0 km/h
1468 16-08-2014 03:30:00 12.9 C 11.05 g/m*3 12.9 C 0 km/h
1469 16-08-2014 03:35:00 12.9 C 11.05 g/m*3 12.9 C 0 km/h
1470 16-08-2014 03:40:00 12.9 C 11.05 g/m*3 12.9 C 0 km/h
1471 16-08-2014 03:45:00 12.9 C 11.05 g/m*3 12.9 C 0 km/h
1472 16-08-2014 03:50:00 12.9 C 11.05 g/m*3 12.9 C 0 km/h
1473 16-08-2014 03:55:00 12.9 C 11.05 g/m*3 12.9 C 0 km/h
1474 16-08-2014 04:00:00 12.9 C 11.05 g/m*3 12.9 C 0 km/h
1475 16-08-2014 04:05:00 12.9 C 11.05 g/m*3 12.9 C 0 km/h
Sensor: Nr:Datum:Temp:Abs-Feuchte:Windchill:Wind:
Aussen-T/F 1476 16-08-2014 04:10:00 12.9 C 11.05 g/m*3 12.9 C 0 km/h
1477 16-08-2014 04:15:00 12.9 C 11.05 g/m*3 12.9 C 0 km/h
1478 16-08-2014 04:20:00 12.9 C 11.05 g/m*3 12.9 C 0 km/h
1479 16-08-2014 04:25:00 12.9 C 11.05 g/m*3 12.9 C 0 km/h
1480 16-08-2014 04:30:00 12.9 C 11.05 g/m*3 12.9 C 0 km/h
1481 16-08-2014 04:35:00 13 C 11.11 g/m*3 13 C 0 km/h
1482 16-08-2014 04:40:00 13 C 11.11 g/m*3 13 C 0 km/h
1483 16-08-2014 04:45:00 13 C 11.11 g/m*3 13 C 0 km/h
1484 16-08-2014 04:50:00 12.9 C 11.05 g/m*3 12.9 C 0 km/h
1485 16-08-2014 04:55:00 12.8 C 10.98 g/m*3 12.8 C 0 km/h
1486 16-08-2014 05:00:00 12.8 C 10.87 g/m*3 12.8 C 0 km/h
1487 16-08-2014 05:05:00 12.7 C 10.91 g/m*3 12.7 C 0 km/h
1488 16-08-2014 05:10:00 12.7 C 10.91 g/m*3 12.7 C 0 km/h
1489 16-08-2014 05:15:00 12.6 C 10.84 g/m*3 12.6 C 0 km/h
1490 16-08-2014 05:20:00 12.6 C 10.73 g/m*3 12.6 C 0 km/h
1491 16-08-2014 05:25:00 12.5 C 10.66 g/m*3 12.5 C 0 km/h
1492 16-08-2014 05:30:00 12.4 C 10.6 g/m*3 12.4 C 0 km/h
1493 16-08-2014 05:35:00 12.4 C 10.71 g/m*3 12.4 C 0 km/h
1494 16-08-2014 05:40:00 12.4 C 10.71 g/m*3 12.4 C 0 km/h
1495 16-08-2014 05:45:00 12.4 C 10.71 g/m*3 12.4 C 0 km/h
1496 16-08-2014 05:50:00 12.5 C 10.77 g/m*3 12.5 C 0 km/h
1497 16-08-2014 05:55:00 12.5 C 10.77 g/m*3 12.5 C 0 km/h
1498 16-08-2014 06:00:00 12.5 C 10.77 g/m*3 12.5 C 0 km/h
1499 16-08-2014 06:05:00 12.5 C 10.77 g/m*3 12.5 C 0 km/h
1500 16-08-2014 06:10:00 12.5 C 10.77 g/m*3 12.5 C 0 km/h
Sensor: Nr:Datum:Temp:Abs-Feuchte:Windchill:Wind:
Aussen-T/F 1501 16-08-2014 06:15:00 12.5 C 10.77 g/m*3 12.5 C 0 km/h
1502 16-08-2014 06:20:00 12.6 C 10.84 g/m*3 12.6 C 0 km/h
1503 16-08-2014 06:25:00 12.6 C 10.84 g/m*3 12.6 C 0 km/h
1504 16-08-2014 06:30:00 12.6 C 10.84 g/m*3 12.6 C 0 km/h
1505 16-08-2014 06:35:00 12.6 C 10.84 g/m*3 12.6 C 0 km/h
1506 16-08-2014 06:40:00 12.6 C 10.84 g/m*3 12.6 C 0 km/h
1507 16-08-2014 06:45:00 12.5 C 10.77 g/m*3 12.5 C 0 km/h
1508 16-08-2014 06:50:00 12.4 C 10.6 g/m*3 12.4 C 0 km/h
1509 16-08-2014 06:55:00 12.3 C 10.64 g/m*3 12.3 C 0 km/h
1510 16-08-2014 07:00:00 12.3 C 10.64 g/m*3 12.3 C 0 km/h
1511 16-08-2014 07:05:00 12.3 C 10.64 g/m*3 12.3 C 0 km/h
1512 16-08-2014 07:10:00 12.3 C 10.64 g/m*3 12.3 C 0 km/h
1513 16-08-2014 07:15:00 12.4 C 10.71 g/m*3 12.4 C 0 km/h
1514 16-08-2014 07:20:00 12.4 C 10.6 g/m*3 12.4 C 0 km/h
1515 16-08-2014 07:25:00 12.3 C 10.64 g/m*3 12.3 C 0 km/h
1516 16-08-2014 07:30:00 12.3 C 10.53 g/m*3 12.3 C 0 km/h
1517 16-08-2014 07:35:00 12.3 C 10.64 g/m*3 12.3 C 0 km/h
1518 16-08-2014 07:40:00 12.4 C 10.6 g/m*3 12.4 C 0 km/h
1519 16-08-2014 07:45:00 12.6 C 10.73 g/m*3 12.6 C 0 km/h
1520 16-08-2014 07:50:00 12.7 C 10.91 g/m*3 12.7 C 0 km/h
1521 16-08-2014 07:55:00 12.7 C 10.91 g/m*3 12.7 C 0 km/h
1522 16-08-2014 08:00:00 12.8 C 10.87 g/m*3 12.8 C 0 km/h
1523 16-08-2014 08:05:00 12.9 C 10.93 g/m*3 12.9 C 0 km/h
1524 16-08-2014 08:10:00 12.9 C 10.93 g/m*3 12.9 C 0 km/h
1525 16-08-2014 08:15:00 13.1 C 11.07 g/m*3 13.1 C 0 km/h
Sensor: Nr:Datum:Temp:Abs-Feuchte:Windchill:Wind:
Aussen-T/F 1526 16-08-2014 08:20:00 13.2 C 11.14 g/m*3 13.2 C 0 km/h
1527 16-08-2014 08:25:00 13.2 C 11.14 g/m*3 13.2 C 0 km/h
1528 16-08-2014 08:30:00 13.2 C 11.02 g/m*3 13.2 C 0 km/h
1529 16-08-2014 08:35:00 13.3 C 11.09 g/m*3 13.3 C 0 km/h
1530 16-08-2014 08:40:00 13.4 C 11.04 g/m*3 13.4 C 0 km/h
1531 16-08-2014 08:45:00 13.4 C 11.04 g/m*3 13.4 C 0 km/h
1532 16-08-2014 08:50:00 13.5 C 11.11 g/m*3 13.5 C 0 km/h
1533 16-08-2014 08:55:00 13.6 C 11.06 g/m*3 13.6 C 0 km/h
1534 16-08-2014 09:00:00 13.7 C 11.13 g/m*3 13.7 C 0 km/h
1535 16-08-2014 09:05:00 13.7 C 11.01 g/m*3 13.7 C 0 km/h
1536 16-08-2014 09:10:00 13.7 C 11.01 g/m*3 13.7 C 0 km/h
1537 16-08-2014 09:15:00 13.7 C 11.01 g/m*3 13.7 C 0 km/h
1538 16-08-2014 09:20:00 13.7 C 11.01 g/m*3 13.7 C 0 km/h
1539 16-08-2014 09:25:00 13.8 C 11.08 g/m*3 13.8 C 4.8 km/h
1540 16-08-2014 09:30:00 13.9 C 11.15 g/m*3 13.9 C 4.8 km/h
1541 16-08-2014 09:35:00 14.1 C 11.29 g/m*3 14.1 C 9.7 km/h
1542 16-08-2014 09:40:00 14.2 C 11.23 g/m*3 14.2 C 9.7 km/h
1543 16-08-2014 09:45:00 14.3 C 11.3 g/m*3 14.3 C 1.6 km/h
1544 16-08-2014 09:50:00 14.3 C 11.3 g/m*3 14.3 C 6.4 km/h
1545 16-08-2014 09:55:00 14.6 C 11.51 g/m*3 14.6 C 9.7 km/h
1546 16-08-2014 10:00:00 14.7 C 11.58 g/m*3 14.7 C 4.8 km/h
1547 16-08-2014 10:05:00 14.8 C 11.4 g/m*3 14.8 C 4.8 km/h
1548 16-08-2014 10:10:00 14.8 C 11.53 g/m*3 14.8 C 0 km/h
1549 16-08-2014 10:15:00 14.9 C 11.47 g/m*3 14.9 C 8.1 km/h
1550 16-08-2014 10:20:00 15.2 C 11.81 g/m*3 15.2 C 8.1 km/h
Sensor: Nr:Datum:Temp:Abs-Feuchte:Windchill:Wind:
Aussen-T/F 1551 16-08-2014 10:25:00 15.3 C 11.88 g/m*3 15.3 C 6.4 km/h
1552 16-08-2014 10:30:00 15.3 C 11.88 g/m*3 15.3 C 11.3 km/h
1553 16-08-2014 10:50:00 15.1 C 11.74 g/m*3 15.1 C 0 km/h
1554 16-08-2014 10:55:00 14.9 C 11.85 g/m*3 14.9 C 0 km/h
1555 16-08-2014 11:00:00 14.8 C 11.91 g/m*3 14.8 C 0 km/h
1556 16-08-2014 11:05:00 14.8 C 11.91 g/m*3 14.8 C 0 km/h
1557 16-08-2014 11:10:00 15 C 12.18 g/m*3 15 C 0 km/h
1558 16-08-2014 11:15:00 15.1 C 12.26 g/m*3 15.1 C 0 km/h
1559 16-08-2014 11:20:00 15.1 C 12.26 g/m*3 15.1 C 0 km/h
1560 16-08-2014 11:25:00 15.1 C 12.26 g/m*3 15.1 C 0 km/h
1561 16-08-2014 11:30:00 14.8 C 12.03 g/m*3 14.8 C 0 km/h
1562 16-08-2014 11:35:00 14.8 C 12.03 g/m*3 14.8 C 0 km/h
1563 16-08-2014 11:40:00 15.1 C 12.39 g/m*3 15.1 C 6.4 km/h
1564 16-08-2014 11:45:00 15.2 C 12.33 g/m*3 15.2 C 1.6 km/h
1565 16-08-2014 11:50:00 15.6 C 12.77 g/m*3 15.6 C 0 km/h
1566 16-08-2014 11:55:00 15.7 C 12.71 g/m*3 15.7 C 0 km/h
1567 16-08-2014 12:00:00 15.7 C 12.58 g/m*3 15.7 C 0 km/h
1568 16-08-2014 12:05:00 15.7 C 12.58 g/m*3 15.7 C 0 km/h
1569 16-08-2014 12:10:00 15.6 C 12.5 g/m*3 15.6 C 1.6 km/h
1570 16-08-2014 12:15:00 15.7 C 12.04 g/m*3 15.7 C 4.8 km/h
1571 16-08-2014 12:20:00 16.2 C 12.55 g/m*3 16.2 C 1.6 km/h
1572 16-08-2014 12:25:00 16.5 C 12.92 g/m*3 16.5 C 0 km/h
1573 16-08-2014 12:30:00 16.5 C 12.5 g/m*3 16.5 C 0 km/h
1574 16-08-2014 12:35:00 16.5 C 12.64 g/m*3 16.5 C 6.4 km/h
1575 16-08-2014 12:40:00 16.6 C 12.29 g/m*3 16.6 C 8.1 km/h
Sensor: Nr:Datum:Temp:Abs-Feuchte:Windchill:Wind:
Aussen-T/F 1576 16-08-2014 12:45:00 16.8 C 12.58 g/m*3 16.8 C 6.4 km/h
1577 16-08-2014 12:50:00 16.9 C 11.94 g/m*3 16.9 C 9.7 km/h
1578 16-08-2014 12:55:00 16.8 C 12.01 g/m*3 16.8 C 8.1 km/h
1579 16-08-2014 13:00:00 16.8 C 12.01 g/m*3 16.8 C 6.4 km/h
1580 16-08-2014 13:05:00 16.6 C 12.57 g/m*3 16.6 C 0 km/h
1581 16-08-2014 13:10:00 16.4 C 12.84 g/m*3 16.4 C 0 km/h
1582 16-08-2014 13:15:00 16.6 C 13.14 g/m*3 16.6 C 0 km/h
1583 16-08-2014 13:20:00 16.7 C 13.22 g/m*3 16.7 C 0 km/h
1584 16-08-2014 13:25:00 16.7 C 12.65 g/m*3 16.7 C 6.4 km/h
1585 16-08-2014 13:30:00 17 C 13.02 g/m*3 17 C 1.6 km/h
1586 16-08-2014 13:35:00 17.2 C 12.45 g/m*3 17.2 C 0 km/h
1587 16-08-2014 13:40:00 17.4 C 13.34 g/m*3 17.4 C 1.6 km/h
1588 16-08-2014 13:45:00 17.6 C 11.85 g/m*3 17.6 C 11.3 km/h
1589 16-08-2014 13:50:00 17.9 C 11.45 g/m*3 17.9 C 14.5 km/h
1590 16-08-2014 13:55:00 18.2 C 12.75 g/m*3 18.2 C 14.5 km/h
1591 16-08-2014 14:00:00 18.3 C 13.45 g/m*3 18.3 C 4.8 km/h
1592 16-08-2014 14:05:00 18.5 C 12.02 g/m*3 18.5 C 4.8 km/h
1593 16-08-2014 14:10:00 18.6 C 11.62 g/m*3 18.6 C 11.3 km/h
1594 16-08-2014 14:15:00 18.6 C 11.62 g/m*3 18.6 C 11.3 km/h
1595 16-08-2014 14:20:00 18.4 C 11.01 g/m*3 18.4 C 8.1 km/h
1596 16-08-2014 14:25:00 18.4 C 11.01 g/m*3 18.4 C 9.7 km/h
1597 16-08-2014 14:30:00 18.3 C 10.94 g/m*3 18.3 C 9.7 km/h
1598 16-08-2014 14:35:00 18.3 C 11.41 g/m*3 18.3 C 9.7 km/h
1599 16-08-2014 14:40:00 18.2 C 11.35 g/m*3 18.2 C 6.4 km/h
1600 16-08-2014 14:45:00 18.2 C 12.28 g/m*3 18.2 C 3.2 km/h
Sensor: Nr:Datum:Temp:Abs-Feuchte:Windchill:Wind:
Aussen-T/F 1601 16-08-2014 14:50:00 18.3 C 11.1 g/m*3 18.3 C 9.7 km/h
1602 16-08-2014 14:55:00 18.7 C 11.37 g/m*3 18.7 C 8.1 km/h
1603 16-08-2014 15:00:00 19.1 C 11.8 g/m*3 19.1 C 9.7 km/h
1604 16-08-2014 15:05:00 19.5 C 11.58 g/m*3 19.5 C 11.3 km/h
1605 16-08-2014 15:10:00 19.7 C 11.21 g/m*3 19.7 C 17.7 km/h
1606 16-08-2014 15:15:00 19.9 C 11.34 g/m*3 19.9 C 12.9 km/h
1607 16-08-2014 15:20:00 20.3 C 11.43 g/m*3 20.3 C 17.7 km/h
1608 16-08-2014 15:25:00 20.6 C 11.63 g/m*3 20.6 C 14.5 km/h
1609 16-08-2014 15:30:00 20.4 C 10.97 g/m*3 20.4 C 9.7 km/h
1610 16-08-2014 15:35:00 20.7 C 11.16 g/m*3 20.7 C 6.4 km/h
1611 16-08-2014 15:40:00 20.8 C 11.59 g/m*3 20.8 C 8.1 km/h
1612 16-08-2014 15:45:00 21.2 C 10.93 g/m*3 21.2 C 8.1 km/h
1613 16-08-2014 15:50:00 21.3 C 11 g/m*3 21.3 C 8.1 km/h
1614 16-08-2014 15:55:00 21.4 C 11.06 g/m*3 21.4 C 9.7 km/h
1615 16-08-2014 16:00:00 21.2 C 12.79 g/m*3 21.2 C 4.8 km/h
1616 16-08-2014 16:05:00 20.7 C 11.7 g/m*3 20.7 C 4.8 km/h
1617 16-08-2014 16:10:00 20.5 C 12.99 g/m*3 20.5 C 4.8 km/h
1618 16-08-2014 16:15:00 20.1 C 10.95 g/m*3 20.1 C 8.1 km/h
1619 16-08-2014 16:20:00 19.8 C 12.98 g/m*3 19.8 C 1.6 km/h
1620 16-08-2014 16:25:00 19.5 C 12.25 g/m*3 19.5 C 4.8 km/h
1621 16-08-2014 16:30:00 19.8 C 11.1 g/m*3 19.8 C 6.4 km/h
1622 16-08-2014 16:35:00 20.4 C 11.14 g/m*3 20.4 C 14.5 km/h
1623 16-08-2014 16:40:00 20.9 C 11.11 g/m*3 20.9 C 6.4 km/h
1624 16-08-2014 16:45:00 20.9 C 10.75 g/m*3 20.9 C 9.7 km/h
1625 16-08-2014 16:50:00 20.8 C 10.68 g/m*3 20.8 C 6.4 km/h
Sensor: Nr:Datum:Temp:Abs-Feuchte:Windchill:Wind:
Aussen-T/F 1626 16-08-2014 16:55:00 20.4 C 10.79 g/m*3 20.4 C 8.1 km/h
1627 16-08-2014 17:00:00 20.3 C 10.9 g/m*3 20.3 C 6.4 km/h
1628 16-08-2014 17:05:00 20.4 C 11.5 g/m*3 20.4 C 8.1 km/h
1629 16-08-2014 17:10:00 20.2 C 12.41 g/m*3 20.2 C 4.8 km/h
1630 16-08-2014 17:15:00 19.9 C 12.89 g/m*3 19.9 C 4.8 km/h
1631 16-08-2014 17:20:00 19.2 C 11.71 g/m*3 19.2 C 3.2 km/h
1632 16-08-2014 17:25:00 19 C 12.87 g/m*3 19 C 0 km/h
1633 16-08-2014 17:30:00 18.6 C 11.78 g/m*3 18.6 C 11.3 km/h
1634 16-08-2014 17:35:00 18.8 C 11.11 g/m*3 18.8 C 11.3 km/h
1635 16-08-2014 17:40:00 19.2 C 10.88 g/m*3 19.2 C 8.1 km/h
1636 16-08-2014 17:45:00 19.6 C 11.14 g/m*3 19.6 C 8.1 km/h
1637 16-08-2014 17:50:00 19.8 C 11.27 g/m*3 19.8 C 12.9 km/h
1638 16-08-2014 17:55:00 19.8 C 11.27 g/m*3 19.8 C 6.4 km/h
1639 16-08-2014 18:00:00 19.6 C 10.47 g/m*3 19.6 C 8.1 km/h
1640 16-08-2014 18:05:00 19.2 C 12.37 g/m*3 19.2 C 0 km/h
1641 16-08-2014 18:10:00 18.4 C 12.43 g/m*3 18.4 C 1.6 km/h
1642 16-08-2014 18:15:00 17.7 C 12.22 g/m*3 17.7 C 0 km/h
1643 16-08-2014 18:20:00 17.2 C 11.86 g/m*3 17.2 C 1.6 km/h
1644 16-08-2014 18:25:00 16.9 C 12.08 g/m*3 16.9 C 1.6 km/h
1645 16-08-2014 18:30:00 16.8 C 12.01 g/m*3 16.8 C 1.6 km/h
1646 16-08-2014 18:35:00 16.7 C 11.23 g/m*3 16.7 C 4.8 km/h
1647 16-08-2014 18:40:00 16.9 C 11.94 g/m*3 16.9 C 1.6 km/h
1648 16-08-2014 18:45:00 16.9 C 11.94 g/m*3 16.9 C 1.6 km/h
1649 16-08-2014 18:50:00 16.7 C 11.37 g/m*3 16.7 C 11.3 km/h
1650 16-08-2014 18:55:00 16.9 C 11.51 g/m*3 16.9 C 17.7 km/h
Sensor: Nr:Datum:Temp:Abs-Feuchte:Windchill:Wind:
Aussen-T/F 1651 16-08-2014 19:00:00 16.9 C 11.65 g/m*3 16.9 C 11.3 km/h
1652 16-08-2014 19:05:00 16.7 C 11.51 g/m*3 16.7 C 6.4 km/h
1653 16-08-2014 19:10:00 16.6 C 11.58 g/m*3 16.6 C 6.4 km/h
1654 16-08-2014 19:15:00 16.3 C 11.65 g/m*3 16.3 C 8.1 km/h
1655 16-08-2014 19:20:00 16 C 12.13 g/m*3 16 C 1.6 km/h
1656 16-08-2014 19:25:00 15.7 C 12.04 g/m*3 15.7 C 3.2 km/h
1657 16-08-2014 19:30:00 15.4 C 11.96 g/m*3 15.4 C 3.2 km/h
1658 16-08-2014 19:35:00 15.3 C 12.01 g/m*3 15.3 C 1.6 km/h
1659 16-08-2014 19:40:00 15.2 C 12.07 g/m*3 15.2 C 1.6 km/h
1660 16-08-2014 19:45:00 15.1 C 12 g/m*3 15.1 C 3.2 km/h
1661 16-08-2014 19:50:00 15 C 11.93 g/m*3 15 C 1.6 km/h
1662 16-08-2014 19:55:00 14.9 C 11.85 g/m*3 14.9 C 1.6 km/h
1663 16-08-2014 20:00:00 14.8 C 11.91 g/m*3 14.8 C 1.6 km/h
1664 16-08-2014 20:05:00 14.8 C 11.78 g/m*3 14.8 C 1.6 km/h
1665 16-08-2014 20:10:00 14.7 C 11.71 g/m*3 14.7 C 3.2 km/h
1666 16-08-2014 20:15:00 14.7 C 11.71 g/m*3 14.7 C 1.6 km/h
1667 16-08-2014 20:20:00 14.6 C 11.64 g/m*3 14.6 C 1.6 km/h
1668 16-08-2014 20:25:00 14.6 C 11.76 g/m*3 14.6 C 1.6 km/h
1669 16-08-2014 20:30:00 14.6 C 11.76 g/m*3 14.6 C 1.6 km/h
1670 16-08-2014 20:35:00 14.6 C 11.76 g/m*3 14.6 C 1.6 km/h
1671 16-08-2014 20:40:00 14.6 C 11.64 g/m*3 14.6 C 1.6 km/h
1672 16-08-2014 20:45:00 14.7 C 11.71 g/m*3 14.7 C 1.6 km/h
1673 16-08-2014 20:50:00 14.7 C 11.58 g/m*3 14.7 C 1.6 km/h
1674 16-08-2014 20:55:00 14.8 C 11.65 g/m*3 14.8 C 1.6 km/h
1675 16-08-2014 21:00:00 14.8 C 11.65 g/m*3 14.8 C 1.6 km/h
Sensor: Nr:Datum:Temp:Abs-Feuchte:Windchill:Wind:
Aussen-T/F 1676 16-08-2014 21:05:00 14.8 C 11.53 g/m*3 14.8 C 1.6 km/h
1677 16-08-2014 21:10:00 14.8 C 11.65 g/m*3 14.8 C 1.6 km/h
1678 16-08-2014 21:15:00 14.8 C 11.4 g/m*3 14.8 C 3.2 km/h
1679 16-08-2014 21:20:00 15 C 11.41 g/m*3 15 C 3.2 km/h
1680 16-08-2014 21:25:00 15.2 C 11.55 g/m*3 15.2 C 1.6 km/h
1681 16-08-2014 21:30:00 15.2 C 11.55 g/m*3 15.2 C 0 km/h
1682 16-08-2014 21:35:00 15.1 C 11.61 g/m*3 15.1 C 0 km/h
1683 16-08-2014 21:40:00 14.9 C 11.6 g/m*3 14.9 C 0 km/h
1684 16-08-2014 21:45:00 14.8 C 11.65 g/m*3 14.8 C 0 km/h
1685 16-08-2014 21:50:00 14.7 C 11.58 g/m*3 14.7 C 0 km/h
1686 16-08-2014 21:55:00 14.7 C 11.58 g/m*3 14.7 C 0 km/h
1687 16-08-2014 22:00:00 14.7 C 11.71 g/m*3 14.7 C 0 km/h
1688 16-08-2014 22:05:00 14.7 C 11.71 g/m*3 14.7 C 0 km/h
1689 16-08-2014 22:10:00 14.7 C 11.71 g/m*3 14.7 C 0 km/h
1690 16-08-2014 22:15:00 14.7 C 11.71 g/m*3 14.7 C 0 km/h
1691 16-08-2014 22:20:00 14.6 C 11.76 g/m*3 14.6 C 0 km/h
1692 16-08-2014 22:25:00 14.6 C 11.76 g/m*3 14.6 C 0 km/h
1693 16-08-2014 22:30:00 14.5 C 11.69 g/m*3 14.5 C 0 km/h
1694 16-08-2014 22:35:00 14.5 C 11.69 g/m*3 14.5 C 0 km/h
1695 16-08-2014 22:40:00 14.5 C 11.69 g/m*3 14.5 C 0 km/h
1696 16-08-2014 22:45:00 14.5 C 11.69 g/m*3 14.5 C 0 km/h
1697 16-08-2014 22:50:00 14.5 C 11.82 g/m*3 14.5 C 0 km/h
1698 16-08-2014 22:55:00 14.5 C 11.82 g/m*3 14.5 C 0 km/h
1699 16-08-2014 23:00:00 14.5 C 11.82 g/m*3 14.5 C 0 km/h
1700 16-08-2014 23:05:00 14.5 C 11.82 g/m*3 14.5 C 0 km/h
Sensor: Nr:Datum:Temp:Abs-Feuchte:Windchill:Wind:
Aussen-T/F 1701 16-08-2014 23:10:00 14.5 C 11.82 g/m*3 14.5 C 0 km/h
1702 16-08-2014 23:15:00 14.5 C 11.82 g/m*3 14.5 C 0 km/h
1703 16-08-2014 23:20:00 14.5 C 11.82 g/m*3 14.5 C 0 km/h
1704 16-08-2014 23:25:00 14.5 C 11.82 g/m*3 14.5 C 0 km/h
1705 16-08-2014 23:30:00 14.5 C 11.82 g/m*3 14.5 C 0 km/h
1706 16-08-2014 23:35:00 14.6 C 11.89 g/m*3 14.6 C 0 km/h
1707 16-08-2014 23:40:00 14.5 C 11.82 g/m*3 14.5 C 0 km/h
1708 16-08-2014 23:45:00 14.5 C 11.82 g/m*3 14.5 C 0 km/h
1709 16-08-2014 23:50:00 14.5 C 11.82 g/m*3 14.5 C 0 km/h
1710 16-08-2014 23:55:00 14.6 C 11.89 g/m*3 14.6 C 0 km/h
1711 17-08-2014 00:00:00 14.6 C 11.89 g/m*3 14.6 C 0 km/h
1712 17-08-2014 00:05:00 14.6 C 11.89 g/m*3 14.6 C 0 km/h
1713 17-08-2014 00:10:00 14.5 C 11.69 g/m*3 14.5 C 0 km/h
1714 17-08-2014 00:15:00 14.6 C 11.76 g/m*3 14.6 C 0 km/h
1715 17-08-2014 00:20:00 14.6 C 11.76 g/m*3 14.6 C 0 km/h
1716 17-08-2014 00:25:00 14.6 C 11.64 g/m*3 14.6 C 0 km/h
1717 17-08-2014 00:30:00 14.6 C 11.64 g/m*3 14.6 C 0 km/h
1718 17-08-2014 00:35:00 14.4 C 11.5 g/m*3 14.4 C 0 km/h
1719 17-08-2014 00:40:00 14.4 C 11.5 g/m*3 14.4 C 0 km/h
1720 17-08-2014 00:45:00 14.4 C 11.5 g/m*3 14.4 C 0 km/h
1721 17-08-2014 00:50:00 14.3 C 11.43 g/m*3 14.3 C 0 km/h
1722 17-08-2014 00:55:00 14.3 C 11.43 g/m*3 14.3 C 0 km/h
1723 17-08-2014 01:00:00 14.2 C 11.36 g/m*3 14.2 C 0 km/h
1724 17-08-2014 01:05:00 14.2 C 11.36 g/m*3 14.2 C 0 km/h
1725 17-08-2014 01:10:00 14.1 C 11.29 g/m*3 14.1 C 0 km/h
Sensor: Nr:Datum:Temp:Abs-Feuchte:Windchill:Wind:
Aussen-T/F 1726 17-08-2014 01:15:00 14 C 11.22 g/m*3 14 C 0 km/h
1727 17-08-2014 01:20:00 13.9 C 11.27 g/m*3 13.9 C 0 km/h
1728 17-08-2014 01:25:00 13.8 C 11.2 g/m*3 13.8 C 0 km/h
1729 17-08-2014 01:30:00 13.7 C 11.13 g/m*3 13.7 C 0 km/h
1730 17-08-2014 01:35:00 13.7 C 11.13 g/m*3 13.7 C 0 km/h
1731 17-08-2014 01:40:00 13.7 C 11.13 g/m*3 13.7 C 0 km/h
1732 17-08-2014 01:45:00 13.6 C 11.06 g/m*3 13.6 C 0 km/h
1733 17-08-2014 01:50:00 13.6 C 11.06 g/m*3 13.6 C 0 km/h
1734 17-08-2014 01:55:00 13.6 C 11.06 g/m*3 13.6 C 0 km/h
1735 17-08-2014 02:00:00 13.6 C 11.06 g/m*3 13.6 C 0 km/h
1736 17-08-2014 02:05:00 13.5 C 11.11 g/m*3 13.5 C 0 km/h
1737 17-08-2014 02:10:00 13.5 C 11.11 g/m*3 13.5 C 0 km/h
1738 17-08-2014 02:15:00 13.6 C 11.18 g/m*3 13.6 C 0 km/h
1739 17-08-2014 02:20:00 13.6 C 11.18 g/m*3 13.6 C 0 km/h
1740 17-08-2014 02:25:00 13.6 C 11.18 g/m*3 13.6 C 0 km/h
1741 17-08-2014 02:30:00 13.6 C 11.18 g/m*3 13.6 C 0 km/h
1742 17-08-2014 02:35:00 13.6 C 11.06 g/m*3 13.6 C 0 km/h
1743 17-08-2014 02:40:00 13.7 C 11.13 g/m*3 13.7 C 0 km/h
1744 17-08-2014 02:45:00 13.7 C 11.13 g/m*3 13.7 C 0 km/h
1745 17-08-2014 02:50:00 13.7 C 11.13 g/m*3 13.7 C 0 km/h
1746 17-08-2014 02:55:00 13.7 C 11.13 g/m*3 13.7 C 0 km/h
1747 17-08-2014 03:00:00 13.8 C 11.2 g/m*3 13.8 C 0 km/h
1748 17-08-2014 03:05:00 13.7 C 11.13 g/m*3 13.7 C 0 km/h
1749 17-08-2014 03:10:00 13.7 C 11.13 g/m*3 13.7 C 0 km/h
1750 17-08-2014 03:15:00 13.7 C 11.13 g/m*3 13.7 C 0 km/h
Sensor: Nr:Datum:Temp:Abs-Feuchte:Windchill:Wind:
Aussen-T/F 1751 17-08-2014 03:20:00 13.8 C 11.2 g/m*3 13.8 C 0 km/h
1752 17-08-2014 03:25:00 13.8 C 11.2 g/m*3 13.8 C 0 km/h
1753 17-08-2014 03:30:00 13.8 C 11.2 g/m*3 13.8 C 0 km/h
1754 17-08-2014 03:35:00 13.9 C 11.27 g/m*3 13.9 C 0 km/h
1755 17-08-2014 03:40:00 13.9 C 11.27 g/m*3 13.9 C 0 km/h
1756 17-08-2014 03:45:00 13.9 C 11.27 g/m*3 13.9 C 0 km/h
1757 17-08-2014 03:50:00 13.9 C 11.27 g/m*3 13.9 C 0 km/h
1758 17-08-2014 03:55:00 13.9 C 11.15 g/m*3 13.9 C 0 km/h
1759 17-08-2014 04:00:00 13.8 C 11.08 g/m*3 13.8 C 0 km/h
1760 17-08-2014 04:05:00 13.8 C 11.2 g/m*3 13.8 C 0 km/h
1761 17-08-2014 04:10:00 13.7 C 11.13 g/m*3 13.7 C 0 km/h
1762 17-08-2014 04:15:00 13.7 C 11.13 g/m*3 13.7 C 0 km/h
1763 17-08-2014 04:20:00 13.6 C 11.06 g/m*3 13.6 C 0 km/h
1764 17-08-2014 04:25:00 13.6 C 11.18 g/m*3 13.6 C 0 km/h
1765 17-08-2014 04:30:00 13.6 C 11.18 g/m*3 13.6 C 0 km/h
1766 17-08-2014 04:35:00 13.6 C 11.18 g/m*3 13.6 C 0 km/h
1767 17-08-2014 04:40:00 13.6 C 11.18 g/m*3 13.6 C 0 km/h
1768 17-08-2014 04:45:00 13.6 C 11.18 g/m*3 13.6 C 0 km/h
1769 17-08-2014 04:50:00 13.6 C 11.18 g/m*3 13.6 C 0 km/h
1770 17-08-2014 04:55:00 13.6 C 11.18 g/m*3 13.6 C 0 km/h
1771 17-08-2014 05:00:00 13.6 C 11.18 g/m*3 13.6 C 0 km/h
1772 17-08-2014 05:05:00 13.5 C 11.11 g/m*3 13.5 C 0 km/h
1773 17-08-2014 05:10:00 13.5 C 11.11 g/m*3 13.5 C 0 km/h
1774 17-08-2014 05:15:00 13.5 C 11.11 g/m*3 13.5 C 0 km/h
1775 17-08-2014 05:20:00 13.6 C 11.18 g/m*3 13.6 C 0 km/h
Sensor: Nr:Datum:Temp:Abs-Feuchte:Windchill:Wind:
Aussen-T/F 1776 17-08-2014 05:25:00 13.6 C 11.18 g/m*3 13.6 C 0 km/h
1777 17-08-2014 05:30:00 13.6 C 11.18 g/m*3 13.6 C 0 km/h
1778 17-08-2014 05:35:00 13.6 C 11.18 g/m*3 13.6 C 0 km/h
1779 17-08-2014 05:40:00 13.6 C 11.18 g/m*3 13.6 C 0 km/h
1780 17-08-2014 05:45:00 13.5 C 11.11 g/m*3 13.5 C 0 km/h
1781 17-08-2014 05:50:00 13.4 C 10.93 g/m*3 13.4 C 0 km/h
1782 17-08-2014 05:55:00 13.3 C 10.98 g/m*3 13.3 C 0 km/h
1783 17-08-2014 06:00:00 13.4 C 11.04 g/m*3 13.4 C 0 km/h
1784 17-08-2014 06:05:00 13.4 C 11.04 g/m*3 13.4 C 0 km/h
1785 17-08-2014 06:10:00 13.4 C 11.04 g/m*3 13.4 C 0 km/h
1786 17-08-2014 06:15:00 13.4 C 11.04 g/m*3 13.4 C 0 km/h
1787 17-08-2014 06:20:00 13.3 C 10.98 g/m*3 13.3 C 0 km/h
1788 17-08-2014 06:25:00 13.2 C 10.91 g/m*3 13.2 C 0 km/h
1789 17-08-2014 06:30:00 13.2 C 10.91 g/m*3 13.2 C 0 km/h
1790 17-08-2014 06:35:00 13.1 C 10.84 g/m*3 13.1 C 0 km/h
1791 17-08-2014 06:40:00 13.1 C 10.84 g/m*3 13.1 C 0 km/h
1792 17-08-2014 06:45:00 13.1 C 10.84 g/m*3 13.1 C 0 km/h
1793 17-08-2014 06:50:00 13.1 C 10.84 g/m*3 13.1 C 0 km/h
1794 17-08-2014 06:55:00 12.9 C 10.71 g/m*3 12.9 C 0 km/h
1795 17-08-2014 07:00:00 12.9 C 10.71 g/m*3 12.9 C 0 km/h
1796 17-08-2014 07:05:00 12.8 C 10.64 g/m*3 12.8 C 0 km/h
1797 17-08-2014 07:10:00 12.8 C 10.64 g/m*3 12.8 C 0 km/h
1798 17-08-2014 07:15:00 12.7 C 10.58 g/m*3 12.7 C 0 km/h
1799 17-08-2014 07:20:00 12.7 C 10.58 g/m*3 12.7 C 0 km/h
1800 17-08-2014 07:25:00 12.7 C 10.69 g/m*3 12.7 C 0 km/h
Sensor: Nr:Datum:Temp:Abs-Feuchte:Windchill:Wind:
Aussen-T/F 1801 17-08-2014 07:30:00 12.7 C 10.69 g/m*3 12.7 C 0 km/h
1802 17-08-2014 07:35:00 12.7 C 10.69 g/m*3 12.7 C 0 km/h
1803 17-08-2014 07:40:00 12.7 C 10.69 g/m*3 12.7 C 0 km/h
1804 17-08-2014 07:45:00 12.7 C 10.69 g/m*3 12.7 C 0 km/h
1805 17-08-2014 07:50:00 12.8 C 10.75 g/m*3 12.8 C 0 km/h
1806 17-08-2014 07:55:00 12.8 C 10.75 g/m*3 12.8 C 0 km/h
1807 17-08-2014 08:00:00 12.9 C 10.82 g/m*3 12.9 C 0 km/h
1808 17-08-2014 08:05:00 13 C 10.89 g/m*3 13 C 4.8 km/h
1809 17-08-2014 08:10:00 13.1 C 10.95 g/m*3 13.1 C 0 km/h
1810 17-08-2014 08:15:00 13.2 C 10.91 g/m*3 13.2 C 0 km/h
1811 17-08-2014 08:20:00 13.4 C 10.93 g/m*3 13.4 C 6.4 km/h
1812 17-08-2014 08:25:00 13.6 C 10.95 g/m*3 13.6 C 6.4 km/h
1813 17-08-2014 08:30:00 13.8 C 10.84 g/m*3 13.8 C 0 km/h
1814 17-08-2014 08:35:00 14 C 10.74 g/m*3 14 C 0 km/h
1815 17-08-2014 08:40:00 14.3 C 10.69 g/m*3 14.3 C 14.5 km/h
1816 17-08-2014 08:45:00 14.5 C 10.82 g/m*3 14.5 C 8.1 km/h
1817 17-08-2014 08:50:00 14.7 C 11.08 g/m*3 14.7 C 0 km/h
1818 17-08-2014 08:55:00 14.7 C 10.83 g/m*3 14.7 C 0 km/h
1819 17-08-2014 09:00:00 14.9 C 10.58 g/m*3 14.9 C 11.3 km/h
1820 17-08-2014 09:05:00 15.1 C 10.97 g/m*3 15.1 C 4.8 km/h
1821 17-08-2014 09:10:00 15.2 C 10.64 g/m*3 15.2 C 9.7 km/h
1822 17-08-2014 09:15:00 15.3 C 10.58 g/m*3 15.3 C 12.9 km/h
1823 17-08-2014 09:20:00 15.4 C 10.64 g/m*3 15.4 C 8.1 km/h
1824 17-08-2014 09:25:00 15.5 C 10.71 g/m*3 15.5 C 8.1 km/h
1825 17-08-2014 09:30:00 15.7 C 10.84 g/m*3 15.7 C 6.4 km/h
Sensor: Nr:Datum:Temp:Abs-Feuchte:Windchill:Wind:
Aussen-T/F 1826 17-08-2014 09:35:00 15.8 C 10.77 g/m*3 15.8 C 12.9 km/h
1827 17-08-2014 09:40:00 15.8 C 10.77 g/m*3 15.8 C 8.1 km/h
1828 17-08-2014 09:45:00 15.8 C 10.63 g/m*3 15.8 C 9.7 km/h
1829 17-08-2014 09:50:00 15.8 C 10.5 g/m*3 15.8 C 11.3 km/h
1830 17-08-2014 09:55:00 16 C 10.63 g/m*3 16 C 19.3 km/h
1831 17-08-2014 10:00:00 16.2 C 10.89 g/m*3 16.2 C 19.3 km/h
1832 17-08-2014 10:05:00 16.3 C 10.82 g/m*3 16.3 C 12.9 km/h
1833 17-08-2014 10:10:00 16.3 C 10.82 g/m*3 16.3 C 6.4 km/h
1834 17-08-2014 10:15:00 16.4 C 10.89 g/m*3 16.4 C 11.3 km/h
1835 17-08-2014 10:20:00 16.4 C 10.89 g/m*3 16.4 C 6.4 km/h
1836 17-08-2014 10:25:00 16.6 C 10.88 g/m*3 16.6 C 12.9 km/h
1837 17-08-2014 10:30:00 16.7 C 11.08 g/m*3 16.7 C 9.7 km/h
1838 17-08-2014 10:35:00 16.8 C 10.87 g/m*3 16.8 C 11.3 km/h
1839 17-08-2014 10:40:00 16.8 C 10.87 g/m*3 16.8 C 6.4 km/h
1840 17-08-2014 10:45:00 16.9 C 10.93 g/m*3 16.9 C 11.3 km/h
1841 17-08-2014 10:50:00 17 C 10.56 g/m*3 17 C 19.3 km/h
1842 17-08-2014 10:55:00 17 C 10.56 g/m*3 17 C 16.1 km/h
1843 17-08-2014 11:00:00 17.1 C 10.63 g/m*3 17.1 C 12.9 km/h
1844 17-08-2014 11:05:00 17.2 C 10.54 g/m*3 17.2 C 16.1 km/h
1845 17-08-2014 11:10:00 17.3 C 10.61 g/m*3 17.3 C 11.3 km/h
1846 17-08-2014 11:15:00 17.3 C 10.61 g/m*3 17.3 C 14.5 km/h
1847 17-08-2014 11:20:00 17.3 C 10.75 g/m*3 17.3 C 8.1 km/h
1848 17-08-2014 11:25:00 17.4 C 10.82 g/m*3 17.4 C 19.3 km/h
1849 17-08-2014 11:30:00 17.7 C 10.56 g/m*3 17.7 C 16.1 km/h
1850 17-08-2014 11:35:00 18 C 11.06 g/m*3 18 C 17.7 km/h
Sensor: Nr:Datum:Temp:Abs-Feuchte:Windchill:Wind:
Aussen-T/F 1851 17-08-2014 11:40:00 18.1 C 10.66 g/m*3 18.1 C 17.7 km/h
1852 17-08-2014 11:45:00 17.9 C 10.54 g/m*3 17.9 C 19.3 km/h
1853 17-08-2014 11:50:00 17.8 C 10.32 g/m*3 17.8 C 12.9 km/h
1854 17-08-2014 11:55:00 17.8 C 10.32 g/m*3 17.8 C 14.5 km/h
1855 17-08-2014 12:00:00 17.8 C 10.47 g/m*3 17.8 C 9.7 km/h
1856 17-08-2014 12:05:00 17.9 C 10.38 g/m*3 17.9 C 12.9 km/h
1857 17-08-2014 12:10:00 17.9 C 10.23 g/m*3 17.9 C 19.3 km/h
1858 17-08-2014 12:15:00 18.2 C 10.26 g/m*3 18.2 C 20.9 km/h
1859 17-08-2014 12:20:00 18.4 C 10.07 g/m*3 18.4 C 20.9 km/h
1860 17-08-2014 12:25:00 18.6 C 10.03 g/m*3 18.6 C 14.5 km/h
1861 17-08-2014 12:30:00 18.7 C 10.09 g/m*3 18.7 C 14.5 km/h
1862 17-08-2014 12:35:00 18.8 C 10.47 g/m*3 18.8 C 24.1 km/h
1863 17-08-2014 12:40:00 18.9 C 10.04 g/m*3 18.9 C 24.1 km/h
1864 17-08-2014 12:45:00 18.9 C 10.04 g/m*3 18.9 C 19.3 km/h
1865 17-08-2014 12:50:00 18.8 C 9.99 g/m*3 18.8 C 22.5 km/h
1866 17-08-2014 12:55:00 19 C 10.1 g/m*3 19 C 19.3 km/h
1867 17-08-2014 13:00:00 19 C 9.78 g/m*3 19 C 22.5 km/h
1868 17-08-2014 13:05:00 18.8 C 9.99 g/m*3 18.8 C 11.3 km/h
1869 17-08-2014 13:10:00 18.6 C 10.03 g/m*3 18.6 C 17.7 km/h
1870 17-08-2014 13:15:00 18.4 C 9.91 g/m*3 18.4 C 9.7 km/h
1871 17-08-2014 13:20:00 18.2 C 9.64 g/m*3 18.2 C 11.3 km/h
1872 17-08-2014 13:25:00 18.2 C 9.64 g/m*3 18.2 C 14.5 km/h
1873 17-08-2014 13:30:00 18.1 C 9.43 g/m*3 18.1 C 19.3 km/h
1874 17-08-2014 13:35:00 18.2 C 9.64 g/m*3 18.2 C 22.5 km/h
1875 17-08-2014 13:40:00 18.2 C 9.95 g/m*3 18.2 C 9.7 km/h
Sensor: Nr:Datum:Temp:Abs-Feuchte:Windchill:Wind:
Aussen-T/F 1876 17-08-2014 13:45:00 18.3 C 10.32 g/m*3 18.3 C 8.1 km/h
1877 17-08-2014 13:50:00 18.3 C 10.48 g/m*3 18.3 C 8.1 km/h
1878 17-08-2014 13:55:00 18.2 C 9.95 g/m*3 18.2 C 9.7 km/h
1879 17-08-2014 14:00:00 18.1 C 9.89 g/m*3 18.1 C 14.5 km/h
1880 17-08-2014 14:05:00 17.9 C 9.62 g/m*3 17.9 C 16.1 km/h
1881 17-08-2014 14:10:00 17.8 C 9.41 g/m*3 17.8 C 17.7 km/h
1882 17-08-2014 14:15:00 17.8 C 9.56 g/m*3 17.8 C 14.5 km/h
1883 17-08-2014 14:20:00 17.9 C 9.62 g/m*3 17.9 C 12.9 km/h
1884 17-08-2014 14:25:00 18 C 9.68 g/m*3 18 C 20.9 km/h
1885 17-08-2014 14:30:00 18 C 9.68 g/m*3 18 C 9.7 km/h
1886 17-08-2014 14:35:00 18 C 9.98 g/m*3 18 C 9.7 km/h
1887 17-08-2014 14:40:00 18.1 C 9.89 g/m*3 18.1 C 12.9 km/h
1888 17-08-2014 14:45:00 18.3 C 9.85 g/m*3 18.3 C 16.1 km/h
1889 17-08-2014 14:50:00 18.6 C 9.87 g/m*3 18.6 C 9.7 km/h
1890 17-08-2014 14:55:00 18.6 C 9.87 g/m*3 18.6 C 14.5 km/h
1891 17-08-2014 15:00:00 18.6 C 9.71 g/m*3 18.6 C 8.1 km/h
1892 17-08-2014 15:05:00 18.5 C 9.97 g/m*3 18.5 C 6.4 km/h
1893 17-08-2014 15:10:00 18.3 C 9.54 g/m*3 18.3 C 12.9 km/h
1894 17-08-2014 15:15:00 18 C 9.37 g/m*3 18 C 11.3 km/h
1895 17-08-2014 15:20:00 17.9 C 9.47 g/m*3 17.9 C 14.5 km/h
1896 17-08-2014 15:25:00 17.9 C 9.47 g/m*3 17.9 C 9.7 km/h
1897 17-08-2014 15:30:00 18.2 C 9.64 g/m*3 18.2 C 14.5 km/h
1898 17-08-2014 15:35:00 18.2 C 9.64 g/m*3 18.2 C 14.5 km/h
1899 17-08-2014 15:40:00 18.6 C 9.71 g/m*3 18.6 C 19.3 km/h
1900 17-08-2014 15:45:00 18.7 C 9.77 g/m*3 18.7 C 14.5 km/h
Sensor: Nr:Datum:Temp:Abs-Feuchte:Windchill:Wind:
Aussen-T/F 1901 17-08-2014 15:50:00 18.8 C 10.31 g/m*3 18.8 C 9.7 km/h
1902 17-08-2014 15:55:00 18.7 C 10.09 g/m*3 18.7 C 3.2 km/h
1903 17-08-2014 16:00:00 18.7 C 9.93 g/m*3 18.7 C 14.5 km/h
1904 17-08-2014 16:05:00 18.7 C 9.77 g/m*3 18.7 C 8.1 km/h
1905 17-08-2014 16:10:00 18.7 C 9.77 g/m*3 18.7 C 20.9 km/h
1906 17-08-2014 16:15:00 18.8 C 9.99 g/m*3 18.8 C 11.3 km/h
1907 17-08-2014 16:20:00 18.8 C 10.15 g/m*3 18.8 C 11.3 km/h
1908 17-08-2014 16:25:00 18.8 C 9.82 g/m*3 18.8 C 17.7 km/h
1909 17-08-2014 16:30:00 18.7 C 9.77 g/m*3 18.7 C 11.3 km/h
1910 17-08-2014 16:35:00 18.6 C 9.71 g/m*3 18.6 C 12.9 km/h
1911 17-08-2014 16:40:00 18.4 C 9.44 g/m*3 18.4 C 16.1 km/h
1912 17-08-2014 16:45:00 18.6 C 10.03 g/m*3 18.6 C 6.4 km/h
1913 17-08-2014 16:50:00 18.6 C 9.71 g/m*3 18.6 C 12.9 km/h
1914 17-08-2014 16:55:00 18.6 C 9.71 g/m*3 18.6 C 20.9 km/h
1915 17-08-2014 17:00:00 18.6 C 9.71 g/m*3 18.6 C 11.3 km/h
1916 17-08-2014 17:05:00 18.6 C 10.03 g/m*3 18.6 C 12.9 km/h
1917 17-08-2014 17:10:00 18.5 C 9.65 g/m*3 18.5 C 12.9 km/h
1918 17-08-2014 17:15:00 18.4 C 9.91 g/m*3 18.4 C 3.2 km/h
1919 17-08-2014 17:20:00 18.3 C 9.69 g/m*3 18.3 C 6.4 km/h
1920 17-08-2014 17:25:00 18.3 C 9.69 g/m*3 18.3 C 6.4 km/h
1921 17-08-2014 17:30:00 18.2 C 9.79 g/m*3 18.2 C 11.3 km/h
1922 17-08-2014 17:35:00 18.2 C 9.79 g/m*3 18.2 C 9.7 km/h
1923 17-08-2014 17:40:00 18.2 C 9.64 g/m*3 18.2 C 8.1 km/h
1924 17-08-2014 17:45:00 18.2 C 9.95 g/m*3 18.2 C 3.2 km/h
1925 17-08-2014 17:50:00 18.1 C 9.73 g/m*3 18.1 C 4.8 km/h
Sensor: Nr:Datum:Temp:Abs-Feuchte:Windchill:Wind:
Aussen-T/F 1926 17-08-2014 17:55:00 18.2 C 10.1 g/m*3 18.2 C 9.7 km/h
1927 17-08-2014 18:00:00 18.2 C 10.1 g/m*3 18.2 C 3.2 km/h
1928 17-08-2014 18:05:00 18.2 C 9.95 g/m*3 18.2 C 6.4 km/h
1929 17-08-2014 18:10:00 18.3 C 10.48 g/m*3 18.3 C 8.1 km/h
1930 17-08-2014 18:15:00 18.3 C 10.01 g/m*3 18.3 C 11.3 km/h
1931 17-08-2014 18:20:00 18.5 C 9.97 g/m*3 18.5 C 8.1 km/h
1932 17-08-2014 18:25:00 18.6 C 9.87 g/m*3 18.6 C 14.5 km/h
1933 17-08-2014 18:30:00 18.6 C 10.03 g/m*3 18.6 C 8.1 km/h
1934 17-08-2014 18:35:00 18.5 C 9.97 g/m*3 18.5 C 4.8 km/h
1935 17-08-2014 18:40:00 18.4 C 9.91 g/m*3 18.4 C 12.9 km/h
1936 17-08-2014 18:45:00 18.3 C 10.16 g/m*3 18.3 C 9.7 km/h
1937 17-08-2014 18:50:00 18.3 C 10.01 g/m*3 18.3 C 12.9 km/h
1938 17-08-2014 18:55:00 18.3 C 10.01 g/m*3 18.3 C 4.8 km/h
1939 17-08-2014 19:00:00 18.2 C 10.1 g/m*3 18.2 C 3.2 km/h
1940 17-08-2014 19:05:00 18.2 C 10.88 g/m*3 18.2 C 8.1 km/h
1941 17-08-2014 19:10:00 17.9 C 10.38 g/m*3 17.9 C 9.7 km/h
1942 17-08-2014 19:15:00 17.8 C 11.08 g/m*3 17.8 C 9.7 km/h
1943 17-08-2014 19:20:00 17.8 C 10.17 g/m*3 17.8 C 12.9 km/h
1944 17-08-2014 19:25:00 17.8 C 10.17 g/m*3 17.8 C 3.2 km/h
1945 17-08-2014 19:30:00 17.9 C 10.08 g/m*3 17.9 C 3.2 km/h
1946 17-08-2014 19:35:00 17.9 C 10.38 g/m*3 17.9 C 4.8 km/h
1947 17-08-2014 19:40:00 17.9 C 10.08 g/m*3 17.9 C 8.1 km/h
1948 17-08-2014 19:45:00 17.9 C 10.23 g/m*3 17.9 C 6.4 km/h
1949 17-08-2014 19:50:00 17.8 C 11.08 g/m*3 17.8 C 0 km/h
1950 17-08-2014 19:55:00 17.6 C 10.65 g/m*3 17.6 C 6.4 km/h
Sensor: Nr:Datum:Temp:Abs-Feuchte:Windchill:Wind:
Aussen-T/F 1951 17-08-2014 20:00:00 17.6 C 10.2 g/m*3 17.6 C 11.3 km/h
1952 17-08-2014 20:05:00 17.7 C 10.86 g/m*3 17.7 C 8.1 km/h
1953 17-08-2014 20:10:00 17.6 C 10.5 g/m*3 17.6 C 11.3 km/h
1954 17-08-2014 20:15:00 17.6 C 10.2 g/m*3 17.6 C 6.4 km/h
1955 17-08-2014 20:20:00 17.7 C 10.11 g/m*3 17.7 C 9.7 km/h
1956 17-08-2014 20:25:00 17.7 C 10.26 g/m*3 17.7 C 3.2 km/h
1957 17-08-2014 20:30:00 17.7 C 10.11 g/m*3 17.7 C 6.4 km/h
1958 17-08-2014 20:35:00 17.6 C 10.35 g/m*3 17.6 C 4.8 km/h
1959 17-08-2014 20:40:00 17.6 C 10.95 g/m*3 17.6 C 4.8 km/h
1960 17-08-2014 20:45:00 17.3 C 10.16 g/m*3 17.3 C 11.3 km/h
1961 17-08-2014 20:50:00 17.3 C 10.31 g/m*3 17.3 C 9.7 km/h
1962 17-08-2014 20:55:00 17.4 C 10.23 g/m*3 17.4 C 4.8 km/h
1963 17-08-2014 21:00:00 17.4 C 10.08 g/m*3 17.4 C 8.1 km/h
1964 17-08-2014 21:05:00 17.4 C 10.08 g/m*3 17.4 C 3.2 km/h
1965 17-08-2014 21:10:00 17.3 C 10.16 g/m*3 17.3 C 4.8 km/h
1966 17-08-2014 21:15:00 17.3 C 10.31 g/m*3 17.3 C 3.2 km/h
1967 17-08-2014 21:20:00 17.2 C 10.25 g/m*3 17.2 C 1.6 km/h
1968 17-08-2014 21:25:00 17.2 C 9.96 g/m*3 17.2 C 9.7 km/h
1969 17-08-2014 21:30:00 17.2 C 10.1 g/m*3 17.2 C 1.6 km/h
1970 17-08-2014 21:35:00 17.1 C 10.04 g/m*3 17.1 C 6.4 km/h
1971 17-08-2014 21:40:00 17.1 C 10.04 g/m*3 17.1 C 9.7 km/h
1972 17-08-2014 21:45:00 17 C 10.13 g/m*3 17 C 9.7 km/h
1973 17-08-2014 21:50:00 17 C 9.98 g/m*3 17 C 6.4 km/h
1974 17-08-2014 21:55:00 17 C 10.13 g/m*3 17 C 11.3 km/h
1975 17-08-2014 22:00:00 16.9 C 9.92 g/m*3 16.9 C 6.4 km/h
Sensor: Nr:Datum:Temp:Abs-Feuchte:Windchill:Wind:
Aussen-T/F 1976 17-08-2014 22:05:00 16.8 C 9.87 g/m*3 16.8 C 4.8 km/h
1977 17-08-2014 22:10:00 16.8 C 9.87 g/m*3 16.8 C 11.3 km/h
1978 17-08-2014 22:15:00 16.8 C 9.87 g/m*3 16.8 C 9.7 km/h
1979 17-08-2014 22:20:00 16.8 C 9.87 g/m*3 16.8 C 6.4 km/h
1980 17-08-2014 22:25:00 16.8 C 9.87 g/m*3 16.8 C 12.9 km/h
1981 17-08-2014 22:30:00 16.8 C 9.72 g/m*3 16.8 C 12.9 km/h
1982 17-08-2014 22:35:00 16.8 C 9.87 g/m*3 16.8 C 3.2 km/h
1983 17-08-2014 22:40:00 16.7 C 9.81 g/m*3 16.7 C 6.4 km/h
1984 17-08-2014 22:45:00 16.7 C 9.81 g/m*3 16.7 C 4.8 km/h
1985 17-08-2014 22:50:00 16.7 C 9.81 g/m*3 16.7 C 8.1 km/h
1986 17-08-2014 22:55:00 16.7 C 9.95 g/m*3 16.7 C 8.1 km/h
1987 17-08-2014 23:00:00 16.7 C 9.81 g/m*3 16.7 C 9.7 km/h
1988 17-08-2014 23:05:00 16.8 C 9.87 g/m*3 16.8 C 9.7 km/h
1989 17-08-2014 23:10:00 16.8 C 9.87 g/m*3 16.8 C 6.4 km/h
1990 17-08-2014 23:15:00 16.8 C 9.87 g/m*3 16.8 C 4.8 km/h
1991 17-08-2014 23:20:00 16.9 C 9.92 g/m*3 16.9 C 8.1 km/h
1992 17-08-2014 23:25:00 16.9 C 9.92 g/m*3 16.9 C 14.5 km/h
1993 17-08-2014 23:30:00 17 C 9.98 g/m*3 17 C 8.1 km/h
1994 17-08-2014 23:35:00 16.9 C 9.92 g/m*3 16.9 C 6.4 km/h
1995 17-08-2014 23:40:00 16.9 C 9.92 g/m*3 16.9 C 6.4 km/h
1996 17-08-2014 23:45:00 16.9 C 9.92 g/m*3 16.9 C 8.1 km/h
1997 17-08-2014 23:50:00 17 C 9.98 g/m*3 17 C 19.3 km/h
1998 17-08-2014 23:55:00 17 C 9.98 g/m*3 17 C 8.1 km/h

Legende:
   Min
   Max


Maximal/Minimal-Werte vom 11.08.2014 - 17.08.2014

Sensor Min Max Avg
Temp
(Aussen-T/F)
12.3 °C
16-08-2014  06:55:00
23.4 °C
12-08-2014  16:20:00
16.08 °C
Abs-Feuchte
(Aussen-T/F)
9.28 g/m*3
12-08-2014  13:25:00
15.13 g/m*3
11-08-2014  15:55:00
11.31 g/m*3
Windchill
(Aussen-T/F)
12.3 C
16-08-2014  06:55:00
23.4 C
12-08-2014  16:20:00
16.08 C

Die Daten stammen von einer Davis Vantage Pro 2 Wetter-Station und werden unter Linux mit der Software wview2wettercgi und aufbereitet. Alle Angaben erfolgen ohne Gewähr für ihre Vollständigkeit oder Richtigkeit.
Kontakt: Rainer Krienke krienke@uni-koblenz.de . Meine Webseiten an der Uni Koblenz oder privat.
Version: $Revision: 0.78 $